AS142 / N320AS 7700 Squawk Report (3rd of July, 2022)

Aircraft B739 Reg No. N320AS Age 18 years old
Model 737 Jet engines 2 First flight 03-09-03
Registered 01-10-03 Rollout 24-08-03 Delivered 30-09-03
Construction No. 33680 Line No. 1380 Series 990
ADSHEX A36E61 Airline name Alaska Airlines Owner N/A
Airfield based Seattle-Tacoma International~WA~N First tracked N/A

Flight history for N320AS

Route Flight No Date Playback
Will Rogers World (OKC) - Seattle Tacoma Intl (SEA) AS1405 2022-08-12 01:10:00
Seattle Tacoma Intl (SEA) - Will Rogers World (OKC) AS1406 2022-08-11 20:39:00
Norman Y Mineta San Jose Intl (SJC) - Seattle Tacoma Intl (SEA) AS1300 2022-08-11 00:31:00
Seattle Tacoma Intl (SEA) - Norman Y Mineta San Jose Intl (SJC) AS324 2022-08-10 22:38:00
McCarran Intl (LAS) - Seattle Tacoma Intl (SEA) AS1275 2022-08-10 17:49:00
Seattle Tacoma Intl (SEA) - McCarran Intl (LAS) AS1116 2022-08-10 13:00:00
Ontario Intl (ONT) - Seattle Tacoma Intl (SEA) AS423 2022-08-10 05:00:00
Seattle Tacoma Intl (SEA) - Ontario Intl (ONT) AS420 2022-08-10 01:41:00
Boise Air Terminal (BOI) - Seattle Tacoma Intl (SEA) AS137 2022-08-09 04:22:00
Seattle Tacoma Intl (SEA) - Boise Air Terminal (BOI) AS636 2022-08-09 02:46:00
Los Angeles Intl (LAX) - Seattle Tacoma Intl (SEA) AS351 2022-08-08 23:56:00
Seattle Tacoma Intl (SEA) - Los Angeles Intl (LAX) AS354 2022-08-08 20:02:00
Ketchikan Intl (KTN) - Seattle Tacoma Intl (SEA) AS31 2022-08-08 14:26:00
Seattle Tacoma Intl (SEA) - Ketchikan Intl (KTN) AS56 2022-08-07 21:27:00
San Francisco Intl (SFO) - Seattle Tacoma Intl (SEA) AS119 2022-08-07 20:29:00
Seattle Tacoma Intl (SEA) - San Francisco Intl (SFO) AS742 2022-08-07 15:13:00
Denver Intl (DEN) - Seattle Tacoma Intl (SEA) AS623 2022-08-07 03:47:00
Seattle Tacoma Intl (SEA) - Denver Intl (DEN) AS620 2022-08-06 19:43:00
McCarran Intl (LAS) - Seattle Tacoma Intl (SEA) AS1275 2022-08-06 15:42:00
Seattle Tacoma Intl (SEA) - McCarran Intl (LAS) AS688 2022-08-06 01:36:00
Time Lat Lon Altitude Heading Speed Vertical Rate
2022-07-04 04:34:29 GMT 47.437050 -122.304733 0 137 3
2022-07-04 04:34:28 GMT 47.437061 -122.304749 0 137 3
2022-07-04 04:34:26 GMT 47.437069 -122.304771 0 137 3
2022-07-04 04:34:25 GMT 47.437080 -122.304779 0 137 3
2022-07-04 04:34:24 GMT 47.437080 -122.304787 0 137 3
2022-07-04 04:34:23 GMT 47.437130 -122.304764 0 137 3
2022-07-04 04:34:21 GMT 47.437111 -122.304802 0 137 3
2022-07-04 04:34:20 GMT 47.437099 -122.304802 0 137 2
2022-07-04 04:34:19 GMT 47.437080 -122.304741 0 136 4
2022-07-04 04:34:17 GMT 47.437069 -122.304718 0 134 4
2022-07-04 04:34:16 GMT 47.437080 -122.304718 0 132 3
2022-07-04 04:34:15 GMT 47.437119 -122.304710 0 129 5
2022-07-04 04:34:13 GMT 47.437130 -122.304749 0 140 5
2022-07-04 04:34:12 GMT 47.437141 -122.304840 0 149 4
2022-07-04 04:34:10 GMT 47.437149 -122.304832 0 131 5
2022-07-04 04:34:09 GMT 47.437180 -122.304817 0 111 5
2022-07-04 04:34:08 GMT 47.437199 -122.304817 0 100 6
2022-07-04 04:34:06 GMT 47.437241 -122.304871 0 85 7
2022-07-04 04:34:05 GMT 47.437222 -122.304909 0 101 7
2022-07-04 04:34:04 GMT 47.437210 -122.304947 0 108 7
2022-07-04 04:34:03 GMT 47.437229 -122.305054 0 115 7
2022-07-04 04:34:01 GMT 47.437241 -122.305092 0 119 7
2022-07-04 04:34:00 GMT 47.437241 -122.305153 0 133 6
2022-07-04 04:33:58 GMT 47.437241 -122.305229 0 149 8
2022-07-04 04:33:57 GMT 47.437279 -122.305260 0 152 8
2022-07-04 04:33:56 GMT 47.437340 -122.305328 0 162 7
2022-07-04 04:33:54 GMT 47.437370 -122.305367 0 168 6
2022-07-04 04:33:53 GMT 47.437389 -122.305382 0 170 7
2022-07-04 04:33:52 GMT 47.437431 -122.305389 0 170 7
2022-07-04 04:33:50 GMT 47.437481 -122.305412 0 177 8
2022-07-04 04:33:49 GMT 47.437511 -122.305428 0 179 9
2022-07-04 04:33:48 GMT 47.437561 -122.305420 0 173 8
2022-07-04 04:33:47 GMT 47.437599 -122.305397 0 174 7
2022-07-04 04:33:46 GMT 47.437660 -122.305443 0 183 7
2022-07-04 04:33:44 GMT 47.437691 -122.305428 0 181 7
2022-07-04 04:33:43 GMT 47.437710 -122.305450 0 181 10
2022-07-04 04:33:42 GMT 47.437809 -122.305389 0 170 7
2022-07-04 04:33:40 GMT 47.437840 -122.305443 0 178 6
2022-07-04 04:33:39 GMT 47.437870 -122.305450 0 180 5
2022-07-04 04:33:38 GMT 47.437901 -122.305420 0 177 5
2022-07-04 04:33:37 GMT 47.437939 -122.305443 0 179 7
2022-07-04 04:33:35 GMT 47.437969 -122.305428 0 183 7
2022-07-04 04:33:34 GMT 47.438019 -122.305458 0 191 5
2022-07-04 04:33:33 GMT 47.438080 -122.305412 0 172 3
2022-07-04 04:33:31 GMT 47.438099 -122.305412 0 174 2
2022-07-04 04:33:30 GMT 47.438129 -122.305443 0 174 1
2022-07-04 04:33:29 GMT 47.438129 -122.305428 0 174 1
2022-07-04 04:33:27 GMT 47.438160 -122.305420 0 174 0
2022-07-04 04:33:25 GMT 47.438171 -122.305420 0 174 0
2022-07-04 04:33:22 GMT 47.438171 -122.305428 0 172 0
2022-07-04 04:33:20 GMT 47.438171 -122.305443 0 171 0
2022-07-04 04:33:19 GMT 47.438171 -122.305443 0 171 0
2022-07-04 04:33:17 GMT 47.438171 -122.305428 0 170 0
2022-07-04 04:33:16 GMT 47.438171 -122.305420 0 169 0
2022-07-04 04:33:15 GMT 47.438171 -122.305428 0 169 0
2022-07-04 04:33:13 GMT 47.438171 -122.305428 0 167 0
2022-07-04 04:33:12 GMT 47.438179 -122.305428 0 169 1
2022-07-04 04:33:11 GMT 47.438179 -122.305397 0 171 2
2022-07-04 04:33:09 GMT 47.438171 -122.305450 0 175 1
2022-07-04 04:33:08 GMT 47.438171 -122.305481 0 176 1
2022-07-04 04:33:07 GMT 47.438160 -122.305496 0 176 2
2022-07-04 04:33:05 GMT 47.438179 -122.305458 0 175 0
2022-07-04 04:33:04 GMT 47.438179 -122.305428 0 175 1
2022-07-04 04:33:03 GMT 47.438171 -122.305443 0 175 0
2022-07-04 04:33:01 GMT 47.438160 -122.305481 0 172 2
2022-07-04 04:32:59 GMT 47.438171 -122.305443 0 170 0
2022-07-04 04:32:56 GMT 47.438179 -122.305450 0 172 0
2022-07-04 04:32:54 GMT 47.438179 -122.305443 0 172 0
2022-07-04 04:32:53 GMT 47.438179 -122.305450 0 173 0
2022-07-04 04:32:52 GMT 47.438179 -122.305443 0 173 0
2022-07-04 04:32:51 GMT 47.438179 -122.305450 0 173 0
2022-07-04 04:32:49 GMT 47.438179 -122.305458 0 171 3
2022-07-04 04:32:48 GMT 47.438190 -122.305443 0 169 3
2022-07-04 04:32:47 GMT 47.438202 -122.305412 0 167 6
2022-07-04 04:32:46 GMT 47.438221 -122.305420 0 173 6
2022-07-04 04:32:43 GMT 47.438259 -122.305473 0 193 6
2022-07-04 04:32:42 GMT 47.438290 -122.305450 0 189 6
2022-07-04 04:32:40 GMT 47.438332 -122.305443 0 180 8
2022-07-04 04:32:39 GMT 47.438370 -122.305412 0 175 8
2022-07-04 04:32:38 GMT 47.438412 -122.305420 0 172 7
2022-07-04 04:32:37 GMT 47.438438 -122.305389 0 170 9
2022-07-04 04:32:36 GMT 47.438480 -122.305428 0 173 8
2022-07-04 04:32:35 GMT 47.438549 -122.305443 0 180 8
2022-07-04 04:32:33 GMT 47.438580 -122.305458 0 187 7
2022-07-04 04:32:32 GMT 47.438610 -122.305481 0 189 8
2022-07-04 04:32:31 GMT 47.438648 -122.305473 0 186 8
2022-07-04 04:32:29 GMT 47.438721 -122.305420 0 178 6
2022-07-04 04:32:28 GMT 47.438740 -122.305428 0 181 7
2022-07-04 04:32:27 GMT 47.438770 -122.305458 0 186 8
2022-07-04 04:32:25 GMT 47.438850 -122.305412 0 177 5
2022-07-04 04:32:24 GMT 47.438850 -122.305443 0 183 8
2022-07-04 04:32:23 GMT 47.438881 -122.305428 0 184 9
2022-07-04 04:32:22 GMT 47.438999 -122.305382 0 165 6
2022-07-04 04:32:20 GMT 47.439011 -122.305351 0 167 8
2022-07-04 04:32:19 GMT 47.439041 -122.305389 0 177 8
2022-07-04 04:32:18 GMT 47.439098 -122.305458 0 192 8
2022-07-04 04:32:16 GMT 47.439152 -122.305481 0 195 7
2022-07-04 04:32:15 GMT 47.439190 -122.305397 0 176 10
2022-07-04 04:32:13 GMT 47.439270 -122.305397 0 175 6
2022-07-04 04:32:12 GMT 47.439301 -122.305412 0 179 5
2022-07-04 04:32:11 GMT 47.439320 -122.305412 0 183 5
2022-07-04 04:32:09 GMT 47.439362 -122.305428 0 188 5
2022-07-04 04:32:08 GMT 47.439369 -122.305450 0 183 6
2022-07-04 04:32:07 GMT 47.439400 -122.305397 0 170 6
2022-07-04 04:32:06 GMT 47.439468 -122.305382 0 179 4
2022-07-04 04:32:04 GMT 47.439480 -122.305412 0 182 2
2022-07-04 04:32:03 GMT 47.439480 -122.305428 0 178 4
2022-07-04 04:32:02 GMT 47.439499 -122.305428 0 181 4
2022-07-04 04:32:00 GMT 47.439522 -122.305443 0 184 7
2022-07-04 04:31:59 GMT 47.439579 -122.305450 0 193 4
2022-07-04 04:31:58 GMT 47.439602 -122.305443 0 196 4
2022-07-04 04:31:57 GMT 47.439629 -122.305473 0 207 7
2022-07-04 04:31:55 GMT 47.439671 -122.305428 0 207 5
2022-07-04 04:31:54 GMT 47.439678 -122.305412 0 203 6
2022-07-04 04:31:53 GMT 47.439709 -122.305382 0 209 5
2022-07-04 04:31:51 GMT 47.439751 -122.305382 0 221 6
2022-07-04 04:31:50 GMT 47.439770 -122.305367 0 225 8
2022-07-04 04:31:49 GMT 47.439800 -122.305328 0 231 7
2022-07-04 04:31:47 GMT 47.439861 -122.305252 0 247 5
2022-07-04 04:31:46 GMT 47.439880 -122.305237 0 257 5
2022-07-04 04:31:45 GMT 47.439892 -122.305222 0 260 6
2022-07-04 04:31:41 GMT 47.439926 -122.305008 0 8
2022-07-04 04:31:30 GMT 47.439919 -122.304489 0 9
2022-07-04 04:31:20 GMT 47.439930 -122.303886 0 9
2022-07-04 04:31:08 GMT 47.440014 -122.303291 0 8
2022-07-04 04:30:46 GMT 47.440395 -122.302261 0 8
2022-07-04 04:30:35 GMT 47.440525 -122.301811 0 7
2022-07-04 04:30:29 GMT 47.440525 -122.301498 0 7
2022-07-04 04:30:18 GMT 47.440418 -122.301056 0 7
2022-07-04 04:30:15 GMT 47.440052 -122.300476 0 8
2022-07-04 04:30:03 GMT 47.440052 -122.300476 0 7
2022-07-04 04:29:49 GMT 47.439770 -122.300102 0 6
2022-07-04 04:29:47 GMT 47.439770 -122.300034 0 6
2022-07-04 04:29:36 GMT 47.439594 -122.299789 0 6
2022-07-04 04:29:29 GMT 47.439453 -122.299667 0 5
2022-07-04 04:29:11 GMT 47.439289 -122.299538 0 0
2022-07-04 04:29:04 GMT 47.439274 -122.299515 0 0
2022-07-04 04:28:54 GMT 47.439198 -122.299538 0 2
2022-07-04 04:28:41 GMT 47.439255 -122.299683 0 3
2022-07-04 04:28:30 GMT 47.439285 -122.299835 0 2
2022-07-04 04:28:21 GMT 47.439278 -122.299965 0 3
We lost coverage of the aircraft here for a total of 8 minutes
2022-07-04 04:20:38 GMT 47.439125 -122.300560 0 0
We lost coverage of the aircraft here for a total of 9 minutes
2022-07-04 04:11:41 GMT 47.439140 -122.300560 0 0
2022-07-04 04:11:22 GMT 47.439137 -122.300575 0 0
2022-07-04 04:09:46 GMT 47.439140 -122.300560 0 0
2022-07-04 04:09:21 GMT 47.439140 -122.300575 0 0
2022-07-04 04:09:05 GMT 47.439137 -122.300575 0 0
2022-07-04 04:09:00 GMT 47.439140 -122.300575 0 0
2022-07-04 04:08:49 GMT 47.439137 -122.300575 0 0
2022-07-04 04:07:35 GMT 47.439137 -122.300575 0 0
2022-07-04 04:07:27 GMT 47.439140 -122.300575 0 0
2022-07-04 04:07:01 GMT 47.439129 -122.300560 0 0
2022-07-04 04:06:53 GMT 47.439125 -122.300560 0 0
2022-07-04 04:06:45 GMT 47.439129 -122.300560 0 0
2022-07-04 04:06:33 GMT 47.439125 -122.300575 0 0
2022-07-04 04:06:01 GMT 47.439129 -122.300560 0 0
2022-07-04 04:05:50 GMT 47.439125 -122.300560 0 0
We lost coverage of the aircraft here for a total of 52 minutes
2022-07-04 03:14:12 GMT 47.439152 -122.300438 0 247 3 0
2022-07-04 03:14:08 GMT 47.439186 -122.300369 0 247 3 0
2022-07-04 03:13:52 GMT 47.439289 -122.300049 0 264 5 0
2022-07-04 03:13:44 GMT 47.439308 -122.299736 0 317 6 0
2022-07-04 03:13:33 GMT 47.439034 -122.299576 0 5 8 0
2022-07-04 03:13:18 GMT 47.438496 -122.299667 0 8 8 0
2022-07-04 03:13:09 GMT 47.438187 -122.299751 0 11 8 0
2022-07-04 03:12:54 GMT 47.437710 -122.300156 0 70 10 -32
2022-07-04 03:12:47 GMT 47.437637 -122.300560 0 78 10 -32
2022-07-04 03:12:37 GMT 47.437534 -122.301216 0 75 10 -32
2022-07-04 03:12:30 GMT 47.437210 -122.303711 0 91 5 -32
2022-07-04 03:12:18 GMT 47.437210 -122.303711 0 91 5 -32
2022-07-04 03:12:15 GMT 47.437325 -122.302589 0 91 5 -32
2022-07-04 03:12:11 GMT 47.437210 -122.303711 0 91 5 -32
2022-07-04 03:12:05 GMT 47.437210 -122.303711 0 91 5 -32
2022-07-04 03:12:04 GMT 47.437199 -122.303589 0 91 5 -32
2022-07-04 03:12:03 GMT 47.437199 -122.303627 0 91 5 -32
2022-07-04 03:12:02 GMT 47.437210 -122.303658 0 91 5 -32
2022-07-04 03:12:00 GMT 47.437210 -122.303543 0 89 6 -32
2022-07-04 03:11:59 GMT 47.437210 -122.303581 0 89 6 -32
2022-07-04 03:11:58 GMT 47.437210 -122.303627 0 88 6 -32
2022-07-04 03:11:57 GMT 47.437222 -122.303658 0 86 7 -32
2022-07-04 03:11:56 GMT 47.437229 -122.303703 0 85 7 -32
2022-07-04 03:11:54 GMT 47.437229 -122.303780 0 87 10 -32
2022-07-04 03:11:53 GMT 47.437222 -122.303833 0 91 11 -32
2022-07-04 03:11:52 GMT 47.437210 -122.303963 0 91 7 -32
2022-07-04 03:11:50 GMT 47.437229 -122.304031 0 90 9 -32
2022-07-04 03:11:49 GMT 47.437210 -122.304108 0 93 9 -32
2022-07-04 03:11:48 GMT 47.437210 -122.304161 0 94 10 -32
2022-07-04 03:11:47 GMT 47.437241 -122.304298 0 92 9 -32
2022-07-04 03:11:45 GMT 47.437210 -122.304390 0 97 7 -32
2022-07-04 03:11:44 GMT 47.437199 -122.304443 0 95 8 -32
2022-07-04 03:11:42 GMT 47.437229 -122.304527 0 91 10 -32
2022-07-04 03:11:41 GMT 47.437229 -122.304588 0 91 10 -32
2022-07-04 03:11:40 GMT 47.437222 -122.304741 0 91 9 -32
2022-07-04 03:11:38 GMT 47.437241 -122.304787 0 86 10 -32
2022-07-04 03:11:37 GMT 47.437241 -122.304817 0 86 11 -32
2022-07-04 03:11:36 GMT 47.437241 -122.304878 0 90 13 -32
2022-07-04 03:11:35 GMT 47.437222 -122.305092 0 93 10 -32
2022-07-04 03:11:33 GMT 47.437222 -122.305130 0 93 11 -32
2022-07-04 03:11:32 GMT 47.437241 -122.305199 0 85 11 -32
2022-07-04 03:11:31 GMT 47.437241 -122.305267 0 81 11 -32
2022-07-04 03:11:29 GMT 47.437260 -122.305412 0 80 14 -32
2022-07-04 03:11:28 GMT 47.437241 -122.305496 0 88 14 -32
2022-07-04 03:11:27 GMT 47.437241 -122.305588 0 93 13 -32
2022-07-04 03:11:26 GMT 47.437229 -122.305740 0 112 14 -32
2022-07-04 03:11:24 GMT 47.437241 -122.305847 0 122 13 -32
2022-07-04 03:11:23 GMT 47.437260 -122.305939 0 131 13 -32
2022-07-04 03:11:21 GMT 47.437309 -122.306107 0 149 15 -32
2022-07-04 03:11:20 GMT 47.437370 -122.306190 0 156 14 -32
2022-07-04 03:11:19 GMT 47.437439 -122.306252 0 165 12 -32
2022-07-04 03:11:18 GMT 47.437538 -122.306282 0 156 14 -32
2022-07-04 03:11:16 GMT 47.437599 -122.306351 0 166 14 -32
2022-07-04 03:11:15 GMT 47.437641 -122.306389 0 166 15 -32
2022-07-04 03:11:14 GMT 47.437710 -122.306389 0 157 14 -32
2022-07-04 03:11:12 GMT 47.437832 -122.306427 0 134 15 -32
2022-07-04 03:11:11 GMT 47.437901 -122.306488 0 123 14 -32
2022-07-04 03:11:10 GMT 47.437939 -122.306541 0 114 15 -32
2022-07-04 03:11:08 GMT 47.438030 -122.306717 0 98 15 -32
2022-07-04 03:11:07 GMT 47.438030 -122.306831 0 98 14 -32
2022-07-04 03:11:06 GMT 47.438049 -122.306938 0 96 14 -32
2022-07-04 03:11:03 GMT 47.438080 -122.307190 0 91 16 -32
2022-07-04 03:11:02 GMT 47.438110 -122.307281 0 81 17 -32
2022-07-04 03:11:01 GMT 47.438080 -122.307426 0 86 15 -32
2022-07-04 03:10:59 GMT 47.438068 -122.307640 0 89 15 -32
2022-07-04 03:10:58 GMT 47.438061 -122.307762 0 96 13 -32
2022-07-04 03:10:57 GMT 47.438049 -122.307854 0 100 13 -32
2022-07-04 03:10:56 GMT 47.438099 -122.307999 0 83 15 -32
2022-07-04 03:10:54 GMT 47.438068 -122.308151 0 88 12 -32
2022-07-04 03:10:53 GMT 47.438068 -122.308243 0 92 11 -32
2022-07-04 03:10:51 GMT 47.438042 -122.308418 0 105 10 -32
2022-07-04 03:10:50 GMT 47.438068 -122.308472 0 95 10 -32
2022-07-04 03:10:49 GMT 47.438080 -122.308533 0 90 10 -32
2022-07-04 03:10:47 GMT 47.438091 -122.308678 0 83 9 -32
2022-07-04 03:10:46 GMT 47.438091 -122.308739 0 84 9 -32
2022-07-04 03:10:45 GMT 47.438068 -122.308792 0 92 10 -32
2022-07-04 03:10:44 GMT 47.438061 -122.308868 0 92 9 -32
2022-07-04 03:10:43 GMT 47.438080 -122.308960 0 83 7 -32
2022-07-04 03:10:41 GMT 47.438068 -122.309036 0 92 8 -32
2022-07-04 03:10:40 GMT 47.438061 -122.309097 0 103 7 -32
2022-07-04 03:10:39 GMT 47.438049 -122.309189 0 114 5 -32
2022-07-04 03:10:37 GMT 47.438091 -122.309242 0 84 4 -32
2022-07-04 03:10:36 GMT 47.438122 -122.309242 0 84 5 -32
2022-07-04 03:10:35 GMT 47.438080 -122.309303 0 116 4 -32
2022-07-04 03:10:33 GMT 47.438061 -122.309357 0 125 3 -32
2022-07-04 03:10:32 GMT 47.438049 -122.309448 0 126 1 -32
2022-07-04 03:10:31 GMT 47.438061 -122.309448 0 127 2 -32
2022-07-04 03:10:30 GMT 47.438030 -122.309441 0 132 2 -32
2022-07-04 03:10:28 GMT 47.438030 -122.309448 0 133 2 -32
2022-07-04 03:10:27 GMT 47.438030 -122.309464 0 134 2 -32
2022-07-04 03:10:26 GMT 47.438030 -122.309502 0 134 1 -32
2022-07-04 03:10:25 GMT 47.437988 -122.309570 0 134 1 -32
2022-07-04 03:10:23 GMT 47.438011 -122.309563 0 132 0 -32
2022-07-04 03:10:22 GMT 47.438019 -122.309547 0 132 1 -32
2022-07-04 03:10:21 GMT 47.438019 -122.309540 0 132 0 -32
2022-07-04 03:10:20 GMT 47.438000 -122.309502 0 132 1 -32
2022-07-04 03:10:17 GMT 47.438000 -122.309517 0 132 1 -32
2022-07-04 03:10:16 GMT 47.437988 -122.309517 0 132 1 -32
2022-07-04 03:10:14 GMT 47.437988 -122.309517 0 133 1 -32
2022-07-04 03:10:13 GMT 47.438049 -122.309517 0 133 1 -32
2022-07-04 03:10:11 GMT 47.438049 -122.309540 0 133 0 -32
2022-07-04 03:10:10 GMT 47.438011 -122.309570 0 133 0 -32
2022-07-04 03:10:08 GMT 47.438000 -122.309547 0 133 0 -32
2022-07-04 03:10:06 GMT 47.438011 -122.309532 0 131 1 -32
2022-07-04 03:10:05 GMT 47.437981 -122.309540 0 131 1 -32
2022-07-04 03:10:03 GMT 47.438011 -122.309540 0 131 0 -32
2022-07-04 03:10:02 GMT 47.438030 -122.309517 0 132 1 -32
2022-07-04 03:10:01 GMT 47.438019 -122.309517 0 133 0 -32
2022-07-04 03:10:00 GMT 47.438011 -122.309547 0 136 1 -32
2022-07-04 03:09:58 GMT 47.438030 -122.309563 0 140 2 -32
2022-07-04 03:09:57 GMT 47.438019 -122.309547 0 141 2 -32
2022-07-04 03:09:56 GMT 47.438011 -122.309547 0 141 2 -32
2022-07-04 03:09:55 GMT 47.438000 -122.309601 0 141 1 -32
2022-07-04 03:09:53 GMT 47.437988 -122.309563 0 141 1 -32
2022-07-04 03:09:51 GMT 47.437988 -122.309578 0 141 1 -32
2022-07-04 03:09:50 GMT 47.437939 -122.309692 0 137 4 -32
2022-07-04 03:09:49 GMT 47.437950 -122.309669 0 137 5 -32
2022-07-04 03:09:48 GMT 47.437962 -122.309639 0 137 5 -32
2022-07-04 03:09:46 GMT 47.438019 -122.309502 0 137 0 -32
2022-07-04 03:09:45 GMT 47.438042 -122.309547 0 137 0 -32
2022-07-04 03:09:44 GMT 47.437981 -122.309578 0 136 1 -32
2022-07-04 03:09:42 GMT 47.437969 -122.309563 0 135 1 -32
2022-07-04 03:09:41 GMT 47.437981 -122.309563 0 134 1 -32
2022-07-04 03:09:40 GMT 47.437962 -122.309593 0 132 2 -32
2022-07-04 03:09:39 GMT 47.437969 -122.309578 0 131 2 -32
2022-07-04 03:09:37 GMT 47.438011 -122.309540 0 131 0 -32
2022-07-04 03:09:36 GMT 47.438011 -122.309547 0 131 0 -32
2022-07-04 03:09:35 GMT 47.438000 -122.309547 0 131 1 -32
2022-07-04 03:09:34 GMT 47.438011 -122.309563 0 131 1 -32
2022-07-04 03:09:32 GMT 47.438011 -122.309563 0 132 1 -32
2022-07-04 03:09:31 GMT 47.438000 -122.309563 0 132 1 -32
2022-07-04 03:09:30 GMT 47.437969 -122.309570 0 132 1 -32
2022-07-04 03:09:28 GMT 47.438019 -122.309479 0 133 0 -32
2022-07-04 03:09:27 GMT 47.438019 -122.309471 0 134 1 -32
2022-07-04 03:09:26 GMT 47.438000 -122.309509 0 136 1 -32
2022-07-04 03:09:23 GMT 47.438000 -122.309540 0 136 0 -32
2022-07-04 03:09:22 GMT 47.438000 -122.309517 0 136 0 -32
2022-07-04 03:09:21 GMT 47.437988 -122.309540 0 136 0 -32
2022-07-04 03:09:19 GMT 47.437988 -122.309540 0 136 0 -32
2022-07-04 03:09:17 GMT 47.437988 -122.309563 0 136 0 -32
2022-07-04 03:09:16 GMT 47.437981 -122.309578 0 136 1 -32
2022-07-04 03:09:15 GMT 47.437988 -122.309570 0 136 0 -32
2022-07-04 03:09:13 GMT 47.437981 -122.309570 0 136 0 -32
2022-07-04 03:09:12 GMT 47.438068 -122.309540 0 137 1 -32
2022-07-04 03:09:11 GMT 47.438068 -122.309593 0 140 1 -32
2022-07-04 03:09:09 GMT 47.438049 -122.309502 0 142 2 -32
2022-07-04 03:09:08 GMT 47.438042 -122.309486 0 143 2 -32
2022-07-04 03:09:07 GMT 47.438030 -122.309486 0 144 2 -32
2022-07-04 03:09:06 GMT 47.438000 -122.309547 0 145 0 -32
2022-07-04 03:09:04 GMT 47.438000 -122.309540 0 145 0 -32
2022-07-04 03:09:03 GMT 47.438000 -122.309563 0 145 0 -32
2022-07-04 03:09:01 GMT 47.438019 -122.309547 0 145 0 -32
2022-07-04 03:09:00 GMT 47.437988 -122.309593 0 145 0 -32
2022-07-04 03:08:57 GMT 47.437969 -122.309570 0 145 0 -32
2022-07-04 03:08:56 GMT 47.437981 -122.309563 0 144 1 -32
2022-07-04 03:08:53 GMT 47.438000 -122.309540 0 143 0 -32
2022-07-04 03:08:51 GMT 47.438019 -122.309563 0 143 0 -32
2022-07-04 03:08:50 GMT 47.438030 -122.309593 0 143 0 -32
2022-07-04 03:08:46 GMT 47.438000 -122.309608 0 145 0 -32
2022-07-04 03:08:44 GMT 47.437981 -122.309578 0 145 1 -32
2022-07-04 03:08:41 GMT 47.437969 -122.309570 0 143 1 -32
2022-07-04 03:08:39 GMT 47.437969 -122.309570 0 140 2 -32
2022-07-04 03:08:38 GMT 47.437988 -122.309578 0 138 2 -32
2022-07-04 03:08:37 GMT 47.437988 -122.309563 0 138 2 -32
2022-07-04 03:08:36 GMT 47.437988 -122.309532 0 138 0 -32
2022-07-04 03:08:34 GMT 47.437988 -122.309471 0 138 1 -32
2022-07-04 03:08:31 GMT 47.437988 -122.309540 0 138 0 -32
2022-07-04 03:08:28 GMT 47.437981 -122.309532 0 138 1 -32
2022-07-04 03:08:27 GMT 47.437981 -122.309578 0 138 0 -32
2022-07-04 03:08:24 GMT 47.437988 -122.309570 0 138 0 -32
2022-07-04 03:08:23 GMT 47.438019 -122.309578 0 137 0 -32
2022-07-04 03:08:21 GMT 47.438019 -122.309570 0 137 0 -32
2022-07-04 03:08:19 GMT 47.438019 -122.309570 0 137 0 -32
2022-07-04 03:08:16 GMT 47.438011 -122.309563 0 137 0 -32
2022-07-04 03:08:15 GMT 47.438019 -122.309631 0 137 0 -32
2022-07-04 03:08:14 GMT 47.438000 -122.309601 0 136 0 -32
2022-07-04 03:08:13 GMT 47.437981 -122.309578 0 135 0 -32
2022-07-04 03:08:11 GMT 47.438000 -122.309547 0 135 1 -32
2022-07-04 03:08:10 GMT 47.437988 -122.309593 0 135 0 -32
2022-07-04 03:08:09 GMT 47.438019 -122.309669 0 135 1 -32
2022-07-04 03:08:07 GMT 47.437988 -122.309639 0 132 1 -32
2022-07-04 03:08:06 GMT 47.437988 -122.309631 0 131 1 -32
2022-07-04 03:08:05 GMT 47.438019 -122.309631 0 128 1 -32
2022-07-04 03:08:04 GMT 47.438080 -122.309601 0 129 1 -32
2022-07-04 03:08:02 GMT 47.438080 -122.309593 0 131 1 -32
2022-07-04 03:08:01 GMT 47.438091 -122.309624 0 134 1 -32
2022-07-04 03:07:59 GMT 47.438068 -122.309540 0 137 1 -32
2022-07-04 03:07:58 GMT 47.438061 -122.309509 0 138 1 -32
2022-07-04 03:07:57 GMT 47.438061 -122.309502 0 140 1 -32
2022-07-04 03:07:56 GMT 47.438011 -122.309464 0 143 0 -32
2022-07-04 03:07:53 GMT 47.438042 -122.309517 0 144 1 -32
2022-07-04 03:07:52 GMT 47.438049 -122.309570 0 144 1 -32
2022-07-04 03:07:50 GMT 47.438030 -122.309639 0 144 0 -32
2022-07-04 03:07:49 GMT 47.438011 -122.309593 0 144 0 -32
2022-07-04 03:07:48 GMT 47.437988 -122.309563 0 144 0 -32
2022-07-04 03:07:46 GMT 47.437988 -122.309563 0 144 1 -32
2022-07-04 03:07:45 GMT 47.437962 -122.309601 0 143 1 -32
2022-07-04 03:07:44 GMT 47.437962 -122.309593 0 142 2 -32
2022-07-04 03:07:43 GMT 47.438000 -122.309570 0 142 1 -32
2022-07-04 03:07:41 GMT 47.438000 -122.309563 0 142 0 -32
2022-07-04 03:07:39 GMT 47.437988 -122.309631 0 142 1 -32
2022-07-04 03:07:37 GMT 47.438000 -122.309624 0 140 1 -32
2022-07-04 03:07:36 GMT 47.438042 -122.309563 0 140 1 -32
2022-07-04 03:07:34 GMT 47.438000 -122.309631 0 138 1 -32
2022-07-04 03:07:33 GMT 47.437981 -122.309601 0 137 1 -32
2022-07-04 03:07:31 GMT 47.437981 -122.309578 0 134 1 -32
2022-07-04 03:07:30 GMT 47.437981 -122.309563 0 132 1 -32
2022-07-04 03:07:29 GMT 47.437988 -122.309532 0 132 1 -32
2022-07-04 03:07:26 GMT 47.437988 -122.309547 0 132 0 -32
2022-07-04 03:07:25 GMT 47.437988 -122.309563 0 132 0 -32
2022-07-04 03:07:23 GMT 47.438000 -122.309540 0 132 1 -32
2022-07-04 03:07:22 GMT 47.437988 -122.309578 0 131 2 -32
2022-07-04 03:07:21 GMT 47.437988 -122.309540 0 130 1 -32
2022-07-04 03:07:20 GMT 47.438000 -122.309540 0 130 1 -32
2022-07-04 03:07:19 GMT 47.437988 -122.309563 0 130 1 -32
2022-07-04 03:07:17 GMT 47.438000 -122.309532 0 130 1 -32
2022-07-04 03:07:16 GMT 47.438000 -122.309570 0 130 1 -32
2022-07-04 03:07:15 GMT 47.438000 -122.309563 0 127 2 -32
2022-07-04 03:07:13 GMT 47.438011 -122.309509 0 127 0 -32
2022-07-04 03:07:12 GMT 47.438011 -122.309517 0 127 1 -32
2022-07-04 03:07:10 GMT 47.438011 -122.309517 0 124 0 -32
2022-07-04 03:07:09 GMT 47.438019 -122.309532 0 124 0 -32
2022-07-04 03:07:08 GMT 47.438019 -122.309540 0 124 2 -32
2022-07-04 03:07:06 GMT 47.437988 -122.309570 0 127 1 -32
2022-07-04 03:07:05 GMT 47.437988 -122.309563 0 127 2 -32
2022-07-04 03:07:04 GMT 47.438019 -122.309540 0 127 1 -32
2022-07-04 03:07:03 GMT 47.438030 -122.309517 0 130 2 -32
2022-07-04 03:07:01 GMT 47.437988 -122.309532 0 136 3 -32
2022-07-04 03:07:00 GMT 47.437962 -122.309540 0 130 6 -32
2022-07-04 03:06:59 GMT 47.438049 -122.309578 0 127 0 -32
2022-07-04 03:06:57 GMT 47.438000 -122.309631 0 131 2 -32
2022-07-04 03:06:56 GMT 47.438011 -122.309601 0 104 5 -32
2022-07-04 03:06:55 GMT 47.438011 -122.309624 0 90 7 -32
2022-07-04 03:06:54 GMT 47.438068 -122.309639 0 87 5 -32
2022-07-04 03:06:52 GMT 47.438080 -122.309700 0 88 6 -32
2022-07-04 03:06:51 GMT 47.438068 -122.309731 0 95 6 -32
2022-07-04 03:06:50 GMT 47.438049 -122.309769 0 98 7 -32
2022-07-04 03:06:49 GMT 47.438068 -122.309792 0 86 8 -32
2022-07-04 03:06:47 GMT 47.438080 -122.309883 0 85 10 -32
2022-07-04 03:06:46 GMT 47.438068 -122.309937 0 86 11 -32
2022-07-04 03:06:45 GMT 47.438068 -122.310020 0 89 11 -32
2022-07-04 03:06:44 GMT 47.438049 -122.310181 0 95 11 -32
2022-07-04 03:06:42 GMT 47.438068 -122.310249 0 92 11 -32
2022-07-04 03:06:41 GMT 47.438061 -122.310272 0 93 15 -32
2022-07-04 03:06:40 GMT 47.438068 -122.310364 0 94 16 -32
2022-07-04 03:06:38 GMT 47.438091 -122.310593 0 85 15 -32
2022-07-04 03:06:37 GMT 47.438080 -122.310707 0 91 14 -32
2022-07-04 03:06:36 GMT 47.438061 -122.310783 0 94 15 -32
2022-07-04 03:06:35 GMT 47.438068 -122.310997 0 89 13 -32
2022-07-04 03:06:33 GMT 47.438091 -122.311081 0 84 13 -32
2022-07-04 03:06:32 GMT 47.438080 -122.311157 0 87 15 -32
2022-07-04 03:06:31 GMT 47.438061 -122.311287 0 97 13 -32
2022-07-04 03:06:29 GMT 47.438099 -122.311440 0 86 15 -32
2022-07-04 03:06:28 GMT 47.438091 -122.311539 0 88 15 -32
2022-07-04 03:06:27 GMT 47.438099 -122.311623 0 85 17 -32
2022-07-04 03:06:26 GMT 47.438080 -122.311852 0 89 15 -32
2022-07-04 03:06:24 GMT 47.438068 -122.311958 0 93 14 -32
2022-07-04 03:06:23 GMT 47.438068 -122.312073 0 92 13 -32
2022-07-04 03:06:22 GMT 47.438080 -122.312141 0 90 14 -32
2022-07-04 03:06:20 GMT 47.438080 -122.312317 0 97 15 -32
2022-07-04 03:06:19 GMT 47.438080 -122.312439 0 99 13 -32
2022-07-04 03:06:18 GMT 47.438080 -122.312500 0 103 15 -32
2022-07-04 03:06:16 GMT 47.438141 -122.312691 0 90 15 -32
2022-07-04 03:06:15 GMT 47.438141 -122.312767 0 97 16 -32
2022-07-04 03:06:13 GMT 47.438141 -122.312988 0 117 15 -32
2022-07-04 03:06:12 GMT 47.438171 -122.313118 0 127 14 -32
2022-07-04 03:06:11 GMT 47.438202 -122.313217 0 136 13 -32
2022-07-04 03:06:09 GMT 47.438278 -122.313316 0 135 17 -32
2022-07-04 03:06:08 GMT 47.438290 -122.313408 0 145 20 -32
2022-07-04 03:06:07 GMT 47.438351 -122.313553 0 154 20 -32
2022-07-04 03:06:06 GMT 47.438560 -122.313660 0 145 15 -32
2022-07-04 03:06:04 GMT 47.438599 -122.313690 0 143 16 -32
2022-07-04 03:06:03 GMT 47.438660 -122.313751 0 143 16 -32
2022-07-04 03:06:02 GMT 47.438751 -122.313782 0 133 16 -32
2022-07-04 03:06:01 GMT 47.438770 -122.313904 0 147 18 -32
2022-07-04 03:05:59 GMT 47.438881 -122.314041 0 152 21 -32
2022-07-04 03:05:58 GMT 47.438950 -122.314079 0 150 23 -32
2022-07-04 03:05:57 GMT 47.439079 -122.314209 0 152 18 -32
2022-07-04 03:05:56 GMT 47.439121 -122.314247 0 154 22 -32
2022-07-04 03:05:55 GMT 47.439331 -122.314407 0 155 18 -32
2022-07-04 03:05:53 GMT 47.439388 -122.314468 0 155 21 -32
2022-07-04 03:05:52 GMT 47.439468 -122.314484 0 152 24 -32
2022-07-04 03:05:50 GMT 47.439651 -122.314629 0 152 25 -32
2022-07-04 03:05:49 GMT 47.439751 -122.314682 0 148 27 -32
2022-07-04 03:05:46 GMT 47.440079 -122.314987 0 148 26 -32
2022-07-04 03:05:45 GMT 47.440170 -122.315117 0 152 27 -32
2022-07-04 03:05:44 GMT 47.440281 -122.315193 0 151 28 -32
2022-07-04 03:05:43 GMT 47.440399 -122.315247 0 149 29 -32
2022-07-04 03:05:41 GMT 47.440609 -122.315453 0 150 34 -32
2022-07-04 03:05:40 GMT 47.440750 -122.315567 0 151 34 -32
2022-07-04 03:05:39 GMT 47.440880 -122.315681 0 151 35 -32
2022-07-04 03:05:38 GMT 47.441170 -122.315880 0 148 38 -32
2022-07-04 03:05:36 GMT 47.441330 -122.316010 0 146 38 -32
2022-07-04 03:05:35 GMT 47.441608 -122.316330 0 151 38 -32
2022-07-04 03:05:33 GMT 47.441769 -122.316460 0 153 37 -32
2022-07-04 03:05:32 GMT 47.441910 -122.316566 0 151 39 -32
2022-07-04 03:05:30 GMT 47.442249 -122.316780 0 148 39 -32
2022-07-04 03:05:29 GMT 47.442390 -122.316948 0 153 39 -32
2022-07-04 03:05:28 GMT 47.442551 -122.317062 0 154 40 -32
2022-07-04 03:05:27 GMT 47.442879 -122.317253 0 155 43 -32
2022-07-04 03:05:25 GMT 47.443069 -122.317398 0 158 42 -32
2022-07-04 03:05:24 GMT 47.443260 -122.317520 0 161 41 -32
2022-07-04 03:05:23 GMT 47.443459 -122.317589 0 163 41 -32
2022-07-04 03:05:21 GMT 47.443829 -122.317780 0 171 44 -32
2022-07-04 03:05:20 GMT 47.444031 -122.317848 0 174 45 -32
2022-07-04 03:05:19 GMT 47.444221 -122.317902 0 176 49 -32
2022-07-04 03:05:17 GMT 47.444698 -122.317917 0 176 51 -32
2022-07-04 03:05:16 GMT 47.444908 -122.317963 0 178 56 -32
2022-07-04 03:05:15 GMT 47.445160 -122.317970 0 178 58 -32
2022-07-04 03:05:14 GMT 47.445702 -122.318001 0 180 64 -32
2022-07-04 03:05:12 GMT 47.446011 -122.318001 0 180 64 -32
2022-07-04 03:05:11 GMT 47.446289 -122.318024 0 180 68 -32
2022-07-04 03:05:10 GMT 47.446609 -122.317993 0 180 69 -32
2022-07-04 03:05:08 GMT 47.447281 -122.318001 0 180 73 288
2022-07-04 03:05:07 GMT 47.447609 -122.317978 0 179 78 288
2022-07-04 03:05:06 GMT 47.447971 -122.317978 0 179 81 288
2022-07-04 03:05:04 GMT 47.448730 -122.317993 300 180 90 288
2022-07-04 03:05:03 GMT 47.449139 -122.317993 300 180 94 -128
2022-07-04 03:05:02 GMT 47.449570 -122.317970 300 180 99 -128
2022-07-04 03:05:00 GMT 47.450481 -122.317978 300 180 110 -128
2022-07-04 03:04:59 GMT 47.450970 -122.317947 300 179 116 -128
2022-07-04 03:04:58 GMT 47.451481 -122.317963 300 180 123 0
2022-07-04 03:04:56 GMT 47.452599 -122.317970 300 180 132 -256
2022-07-04 03:04:55 GMT 47.453201 -122.317963 300 180 135 -256
2022-07-04 03:04:54 GMT 47.453789 -122.317940 325 180 140 -256
2022-07-04 03:04:53 GMT 47.454430 -122.317909 350 179 143 -256
2022-07-04 03:04:52 GMT 47.455719 -122.317917 350 179 149 -800
2022-07-04 03:04:50 GMT 47.456390 -122.317909 350 179 152 -800
2022-07-04 03:04:49 GMT 47.457119 -122.317970 350 181 151 -800
2022-07-04 03:04:48 GMT 47.458511 -122.317932 350 180 152 -800
2022-07-04 03:04:46 GMT 47.459209 -122.317917 350 180 154 -800
2022-07-04 03:04:45 GMT 47.459919 -122.317902 350 180 155 -800
2022-07-04 03:04:44 GMT 47.460640 -122.317879 375 180 154 -800
2022-07-04 03:04:43 GMT 47.462051 -122.317863 400 179 159 -800
2022-07-04 03:04:41 GMT 47.462780 -122.317871 450 179 159 -800
2022-07-04 03:04:40 GMT 47.463520 -122.317879 450 179 160 -800
2022-07-04 03:04:39 GMT 47.464260 -122.317871 450 179 159 -800
2022-07-04 03:04:37 GMT 47.465771 -122.317909 500 179 155 -800
2022-07-04 03:04:36 GMT 47.467201 -122.317917 500 180 155 -800
2022-07-04 03:04:34 GMT 47.467899 -122.317940 600 181 158 -800
2022-07-04 03:04:33 GMT 47.468639 -122.317902 600 180 157 -800
2022-07-04 03:04:32 GMT 47.469349 -122.317879 600 180 158 -800
2022-07-04 03:04:30 GMT 47.470798 -122.317863 575 180 157 -800
2022-07-04 03:04:29 GMT 47.471519 -122.317810 575 179 156 -800
2022-07-04 03:04:28 GMT 47.472290 -122.317787 575 179 153 -768
2022-07-04 03:04:27 GMT 47.473701 -122.317818 625 180 154 -768
2022-07-04 03:04:25 GMT 47.474411 -122.317818 625 180 154 -768
2022-07-04 03:04:24 GMT 47.475109 -122.317841 700 180 156 -768
2022-07-04 03:04:22 GMT 47.476551 -122.317810 675 180 155 -768
2022-07-04 03:04:21 GMT 47.477291 -122.317780 700 179 154 -768
2022-07-04 03:04:20 GMT 47.478020 -122.317757 700 178 153 -768
2022-07-04 03:04:18 GMT 47.479469 -122.317841 700 179 151 -768
2022-07-04 03:04:17 GMT 47.480141 -122.317871 800 180 152 -768
2022-07-04 03:04:16 GMT 47.480850 -122.317879 800 180 152 -768
2022-07-04 03:04:14 GMT 47.482250 -122.317902 800 181 153 -768
2022-07-04 03:04:13 GMT 47.482960 -122.317810 800 180 153 -768
2022-07-04 03:04:12 GMT 47.483681 -122.317802 800 180 152 -768
2022-07-04 03:04:11 GMT 47.484379 -122.317810 900 180 152 -768
2022-07-04 03:04:10 GMT 47.485779 -122.317787 900 180 152 -768
2022-07-04 03:04:08 GMT 47.486481 -122.317757 900 179 153 -768
2022-07-04 03:04:07 GMT 47.487190 -122.317749 900 179 153 -768
2022-07-04 03:04:06 GMT 47.487888 -122.317749 900 179 153 -768
2022-07-04 03:04:05 GMT 47.489319 -122.317772 900 179 152 -768
2022-07-04 03:04:03 GMT 47.490028 -122.317757 1,000 179 151 -768
2022-07-04 03:04:02 GMT 47.490719 -122.317757 1,000 179 152 -768
2022-07-04 03:04:01 GMT 47.492111 -122.317802 1,000 180 152 -768
2022-07-04 03:03:59 GMT 47.492828 -122.317810 1,000 180 152 -768
2022-07-04 03:03:58 GMT 47.493542 -122.317802 1,000 180 152 -768
2022-07-04 03:03:57 GMT 47.494251 -122.317802 1,000 180 151 -768
2022-07-04 03:03:55 GMT 47.495651 -122.317810 1,000 180 151 -768
2022-07-04 03:03:54 GMT 47.496342 -122.317780 1,200 180 151 -768
2022-07-04 03:03:53 GMT 47.497040 -122.317772 1,200 180 151 -768
2022-07-04 03:03:52 GMT 47.497749 -122.317741 1,200 180 150 -768
2022-07-04 03:03:50 GMT 47.499149 -122.317719 1,200 181 151 -768
2022-07-04 03:03:49 GMT 47.499828 -122.317703 1,200 181 151 -768
2022-07-04 03:03:48 GMT 47.500530 -122.317673 1,200 180 151 -768
2022-07-04 03:03:46 GMT 47.501942 -122.317627 1,200 180 151 -768
2022-07-04 03:03:45 GMT 47.502640 -122.317612 1,200 180 151 -768
2022-07-04 03:03:44 GMT 47.503349 -122.317589 1,200 180 150 -768
2022-07-04 03:03:43 GMT 47.504730 -122.317558 1,200 180 150 -768
2022-07-04 03:03:41 GMT 47.505409 -122.317558 1,200 180 151 -768
2022-07-04 03:03:39 GMT 47.506809 -122.317520 1,300 180 151 -768
2022-07-04 03:03:38 GMT 47.507511 -122.317497 1,300 180 151 -768
2022-07-04 03:03:37 GMT 47.508221 -122.317490 1,300 180 150 -768
2022-07-04 03:03:35 GMT 47.510288 -122.317451 1,400 180 151 -768
2022-07-04 03:03:33 GMT 47.511002 -122.317436 1,400 180 151 -768
2022-07-04 03:03:32 GMT 47.511688 -122.317451 1,400 180 151 -768
2022-07-04 03:03:31 GMT 47.513069 -122.317413 1,400 180 152 -768
2022-07-04 03:03:29 GMT 47.513771 -122.317398 1,400 180 152 -768
2022-07-04 03:03:28 GMT 47.514481 -122.317429 1,400 180 152 -768
2022-07-04 03:03:26 GMT 47.515869 -122.317429 1,500 180 153 -768
2022-07-04 03:03:25 GMT 47.516579 -122.317421 1,500 180 153 -768
2022-07-04 03:03:24 GMT 47.517288 -122.317413 1,500 180 153 -768
2022-07-04 03:03:23 GMT 47.517979 -122.317413 1,500 180 154 -768
2022-07-04 03:03:21 GMT 47.519379 -122.317368 1,500 180 155 -768
2022-07-04 03:03:20 GMT 47.520100 -122.317360 1,500 180 155 -768
2022-07-04 03:03:19 GMT 47.520809 -122.317337 1,500 180 155 -768
2022-07-04 03:03:18 GMT 47.522228 -122.317329 1,600 179 156 -768
2022-07-04 03:03:16 GMT 47.522949 -122.317337 1,600 180 156 -768
2022-07-04 03:03:15 GMT 47.523670 -122.317337 1,600 180 156 -768
2022-07-04 03:03:14 GMT 47.524391 -122.317352 1,600 180 157 -768
2022-07-04 03:03:12 GMT 47.525799 -122.317352 1,700 180 158 -768
2022-07-04 03:03:11 GMT 47.526539 -122.317352 1,700 180 158 -768
2022-07-04 03:03:10 GMT 47.527271 -122.317337 1,700 180 158 -768
2022-07-04 03:03:08 GMT 47.528721 -122.317337 1,700 180 159 -768
2022-07-04 03:03:07 GMT 47.529449 -122.317322 1,700 180 159 -768
2022-07-04 03:03:06 GMT 47.530190 -122.317307 1,700 180 160 -768
2022-07-04 03:03:05 GMT 47.531651 -122.317284 1,700 180 161 -768
2022-07-04 03:03:03 GMT 47.532391 -122.317268 1,900 180 161 -768
2022-07-04 03:03:02 GMT 47.533131 -122.317268 1,900 180 161 -768
2022-07-04 03:03:01 GMT 47.533859 -122.317268 1,900 180 162 -768
2022-07-04 03:03:00 GMT 47.535339 -122.317261 1,900 179 162 -768
2022-07-04 03:02:58 GMT 47.536098 -122.317268 1,900 180 162 -768
2022-07-04 03:02:57 GMT 47.536839 -122.317268 1,900 180 163 -768
2022-07-04 03:02:56 GMT 47.538330 -122.317284 1,900 180 163 -768
2022-07-04 03:02:54 GMT 47.539070 -122.317284 1,900 180 164 -768
2022-07-04 03:02:53 GMT 47.539829 -122.317284 1,900 180 164 -768
2022-07-04 03:02:52 GMT 47.540569 -122.317284 1,900 180 165 -768
2022-07-04 03:02:50 GMT 47.542080 -122.317268 1,900 180 166 -768
2022-07-04 03:02:49 GMT 47.542839 -122.317261 2,100 180 167 -768
2022-07-04 03:02:48 GMT 47.543598 -122.317268 2,100 180 167 -768
2022-07-04 03:02:46 GMT 47.545139 -122.317238 2,100 180 168 -768
2022-07-04 03:02:45 GMT 47.545891 -122.317238 2,100 180 169 -768
2022-07-04 03:02:44 GMT 47.546669 -122.317230 2,100 180 169 -768
2022-07-04 03:02:43 GMT 47.547459 -122.317207 2,100 180 169 -768
2022-07-04 03:02:41 GMT 47.549019 -122.317139 2,100 180 168 -768
2022-07-04 03:02:40 GMT 47.549789 -122.317131 2,100 180 169 -768
2022-07-04 03:02:38 GMT 47.551350 -122.317108 2,100 180 169 -768
2022-07-04 03:02:37 GMT 47.552132 -122.317093 2,100 180 169 -768
2022-07-04 03:02:35 GMT 47.553692 -122.317047 2,200 180 170 -768
2022-07-04 03:02:34 GMT 47.554482 -122.317047 2,200 180 169 -768
2022-07-04 03:02:33 GMT 47.555260 -122.317039 2,200 180 169 -768
2022-07-04 03:02:32 GMT 47.556042 -122.317017 2,200 180 169 -768
2022-07-04 03:02:31 GMT 47.557579 -122.316971 2,300 180 171 -768
2022-07-04 03:02:29 GMT 47.558369 -122.316963 2,300 180 171 -768
2022-07-04 03:02:28 GMT 47.559151 -122.316917 2,300 179 171 -768
2022-07-04 03:02:27 GMT 47.559940 -122.316902 2,300 179 172 -576
2022-07-04 03:02:23 GMT 47.563660 -122.316902 2,325 181 171 -896
2022-07-04 03:02:18 GMT 47.567356 -122.316849 2,400 179 172 -960
2022-07-04 03:02:12 GMT 47.571762 -122.316902 2,500 180 174 -896
2022-07-04 03:02:09 GMT 47.574478 -122.316917 2,525 180 175 -896
2022-07-04 03:02:06 GMT 47.576015 -122.316917 2,550 180 175 -832
2022-07-04 03:02:02 GMT 47.580204 -122.316917 2,625 181 177 -832
2022-07-04 03:01:57 GMT 47.584396 -122.316833 2,700 181 179 -1024
2022-07-04 03:01:50 GMT 47.590214 -122.316780 2,825 181 181 -960
2022-07-04 03:01:46 GMT 47.593094 -122.316765 2,875 181 183 -896
2022-07-04 03:01:41 GMT 47.602020 -122.316628 2,975 181 187 -896
2022-07-04 03:01:36 GMT 47.602020 -122.316628 3,025 181 189 -960
2022-07-04 03:01:31 GMT 47.606552 -122.316628 3,125 181 194 -1024
2022-07-04 03:01:28 GMT 47.609161 -122.316559 3,175 181 196 -1024
2022-07-04 03:01:25 GMT 47.611301 -122.316566 3,200 181 197 -1024
2022-07-04 03:01:21 GMT 47.615753 -122.316490 3,300 181 200 -1216
2022-07-04 03:01:18 GMT 47.619003 -122.316490 3,425 179 202 -1344
2022-07-04 03:01:15 GMT 47.620937 -122.316498 3,425 178 202 -1408
2022-07-04 03:01:12 GMT 47.623871 -122.316566 3,525 175 201 -1600
2022-07-04 03:01:09 GMT 47.626923 -122.316902 3,650 171 202 -1664
2022-07-04 03:01:06 GMT 47.629349 -122.317245 3,675 168 202 -1600
2022-07-04 03:01:02 GMT 47.633087 -122.318466 3,800 157 201 -1408
2022-07-04 03:00:59 GMT 47.635529 -122.319649 3,850 155 202 -1152
2022-07-04 03:00:56 GMT 47.637978 -122.321213 3,900 154 202 -896
2022-07-04 03:00:53 GMT 47.639740 -122.322464 3,925 154 202 -640
2022-07-04 03:00:49 GMT 47.646469 -122.327271 3,975 154 201 -64
2022-07-04 03:00:46 GMT 47.646469 -122.327271 3,975 153 200 0
2022-07-04 03:00:43 GMT 47.648438 -122.328712 3,975 153 200 0
2022-07-04 03:00:40 GMT 47.651848 -122.331215 3,975 153 200 0
2022-07-04 03:00:37 GMT 47.653057 -122.332130 3,975 153 200 0
2022-07-04 03:00:34 GMT 47.655991 -122.334206 3,975 154 200 0
2022-07-04 03:00:31 GMT 47.659286 -122.336609 3,975 154 200 0
2022-07-04 03:00:27 GMT 47.662510 -122.338890 3,950 142 203 -64
2022-07-04 03:00:24 GMT 47.664696 -122.340439 3,950 137 203 0
2022-07-04 03:00:18 GMT 47.670181 -122.344505 3,950 149 202 -64
2022-07-04 03:00:14 GMT 47.673031 -122.346992 3,975 139 203 -64
2022-07-04 03:00:11 GMT 47.674622 -122.348694 3,975 137 203 -64
2022-07-04 03:00:07 GMT 47.678013 -122.353607 3,975 120 205 0
2022-07-04 03:00:04 GMT 47.679520 -122.356522 3,975 113 205 -64
2022-07-04 03:00:00 GMT 47.681717 -122.362907 3,975 113 205 -64
2022-07-04 02:59:56 GMT 47.682449 -122.366478 3,975 91 206 64
2022-07-04 02:59:53 GMT 47.683182 -122.372108 3,975 93 206 64
2022-07-04 02:59:50 GMT 47.683319 -122.374313 3,975 89 207 64
2022-07-04 02:59:45 GMT 47.683037 -122.384529 3,975 85 206 0
2022-07-04 02:59:41 GMT 47.682899 -122.386993 3,975 85 206 0
2022-07-04 02:59:35 GMT 47.682384 -122.397202 3,950 85 207 64
2022-07-04 02:59:32 GMT 47.682156 -122.401428 3,950 85 207 64
2022-07-04 02:59:26 GMT 47.681854 -122.408226 3,950 86 208 64
2022-07-04 02:59:23 GMT 47.681625 -122.412621 3,950 85 208 64
2022-07-04 02:59:20 GMT 47.681316 -122.418961 3,950 84 208 64
2022-07-04 02:59:15 GMT 47.681030 -122.423607 3,950 79 209 -192
2022-07-04 02:59:12 GMT 47.680161 -122.429993 4,000 69 208 -576
2022-07-04 02:59:09 GMT 47.679455 -122.433334 4,000 69 208 -576
2022-07-04 02:59:04 GMT 47.677094 -122.439949 4,075 52 206 -960
2022-07-04 02:59:00 GMT 47.675217 -122.443520 4,125 45 206 -1024
2022-07-04 02:58:55 GMT 47.671635 -122.448402 4,225 31 207 -960
2022-07-04 02:58:52 GMT 47.668076 -122.451691 4,300 23 209 -960
2022-07-04 02:58:49 GMT 47.667206 -122.452309 4,300 19 208 -960
2022-07-04 02:58:44 GMT 47.661346 -122.454811 4,475 1 208 -832
2022-07-04 02:58:40 GMT 47.657433 -122.455444 4,475 1 208 -768
2022-07-04 02:58:37 GMT 47.655029 -122.455536 4,500 0 210 -640
2022-07-04 02:58:32 GMT 47.650177 -122.455605 4,600 0 210 -704
2022-07-04 02:58:28 GMT 47.647285 -122.455582 4,875 0 210 -704
2022-07-04 02:58:22 GMT 47.639557 -122.455673 4,700 0 210 -832
2022-07-04 02:58:19 GMT 47.637222 -122.455673 4,725 0 209 -832
2022-07-04 02:58:13 GMT 47.632252 -122.455658 4,800 0 208 -896
2022-07-04 02:58:10 GMT 47.629688 -122.455658 4,875 0 208 -320
2022-07-04 02:58:07 GMT 47.625408 -122.455658 4,925 0 209 -64
2022-07-04 02:58:04 GMT 47.622986 -122.455658 4,950 0 209 -64
2022-07-04 02:58:01 GMT 47.619598 -122.455673 4,950 0 208 -128
2022-07-04 02:57:56 GMT 47.615166 -122.455582 4,950 0 210 -64
2022-07-04 02:57:52 GMT 47.611115 -122.455582 4,975 0 211 0
2022-07-04 02:57:49 GMT 47.607624 -122.455513 4,975 0 212 0
2022-07-04 02:57:46 GMT 47.606049 -122.455536 4,975 0 213 -64
2022-07-04 02:57:43 GMT 47.602066 -122.455467 4,975 0 214 -64
2022-07-04 02:57:40 GMT 47.599010 -122.455444 4,975 0 214 -64
2022-07-04 02:57:36 GMT 47.595428 -122.455376 4,975 0 216 -64
2022-07-04 02:57:33 GMT 47.593185 -122.455399 4,975 359 218 256
2022-07-04 02:57:29 GMT 47.589157 -122.455261 4,950 0 235 -832
2022-07-04 02:57:26 GMT 47.585861 -122.455193 4,950 359 223 64
2022-07-04 02:57:19 GMT 47.578342 -122.454948 4,975 359 229 -576
2022-07-04 02:57:14 GMT 47.572895 -122.454880 5,025 0 232 -768
2022-07-04 02:57:08 GMT 47.567139 -122.454781 5,100 0 235 -768
2022-07-04 02:57:05 GMT 47.563492 -122.454811 5,150 0 235 -768
2022-07-04 02:57:02 GMT 47.560730 -122.454781 5,175 0 235 -832
2022-07-04 02:56:59 GMT 47.553452 -122.454712 5,225 0 235 -896
2022-07-04 02:56:56 GMT 47.552902 -122.454712 5,300 0 235 -1024
2022-07-04 02:56:53 GMT 47.549377 -122.454712 5,350 0 235 -1024
2022-07-04 02:56:47 GMT 47.544407 -122.454674 5,425 0 234 -1024
2022-07-04 02:56:44 GMT 47.539749 -122.454742 5,500 0 233 -1152
2022-07-04 02:56:41 GMT 47.538025 -122.454781 5,525 0 233 -1152
2022-07-04 02:56:38 GMT 47.534256 -122.454811 5,650 0 231 -1408
2022-07-04 02:56:35 GMT 47.530163 -122.454880 5,725 0 230 -1344
2022-07-04 02:56:32 GMT 47.526810 -122.454948 5,775 1 229 -1280
2022-07-04 02:56:27 GMT 47.522156 -122.455093 5,850 0 228 -1216
2022-07-04 02:56:22 GMT 47.517288 -122.455124 5,950 0 228 -960
2022-07-04 02:56:19 GMT 47.513168 -122.455231 5,975 0 231 0
2022-07-04 02:56:16 GMT 47.510925 -122.455261 5,975 0 232 64
2022-07-04 02:56:13 GMT 47.507263 -122.455261 5,950 0 236 64
2022-07-04 02:56:10 GMT 47.504700 -122.455261 5,950 0 236 64
2022-07-04 02:56:06 GMT 47.499577 -122.455231 6,000 0 241 -768
2022-07-04 02:56:03 GMT 47.496735 -122.455231 6,025 0 241 -768
2022-07-04 02:56:00 GMT 47.493057 -122.455162 6,050 0 241 -704
2022-07-04 02:55:55 GMT 47.487751 -122.455162 6,100 0 243 -640
2022-07-04 02:55:52 GMT 47.483688 -122.455193 6,175 0 245 -832
2022-07-04 02:55:49 GMT 47.480896 -122.455193 6,200 0 246 -832
2022-07-04 02:55:45 GMT 47.475861 -122.455193 6,250 0 247 -768
2022-07-04 02:55:40 GMT 47.470734 -122.455261 6,350 0 249 -768
2022-07-04 02:55:37 GMT 47.466709 -122.455299 6,350 0 249 -768
2022-07-04 02:55:34 GMT 47.464233 -122.455330 6,400 0 250 -1088
2022-07-04 02:55:31 GMT 47.459587 -122.455376 6,500 0 251 -1344
2022-07-04 02:55:26 GMT 47.453861 -122.455376 6,600 0 251 -1216
2022-07-04 02:55:23 GMT 47.452141 -122.455299 6,600 0 251 -1152
2022-07-04 02:55:18 GMT 47.444962 -122.455261 6,725 0 251 -1216
2022-07-04 02:55:13 GMT 47.439941 -122.455231 6,825 0 251 -1344
2022-07-04 02:55:10 GMT 47.435394 -122.455261 6,925 0 252 -1408
2022-07-04 02:55:07 GMT 47.432354 -122.455231 7,050 0 252 -1280
2022-07-04 02:55:04 GMT 47.428848 -122.455261 7,025 0 252 -1216
2022-07-04 02:55:00 GMT 47.423790 -122.455299 7,125 0 253 -1088
2022-07-04 02:54:57 GMT 47.420425 -122.455330 7,225 0 253 -1280
2022-07-04 02:54:53 GMT 47.415783 -122.455376 7,250 0 254 -1408
2022-07-04 02:54:50 GMT 47.412598 -122.455399 7,325 0 254 -1152
2022-07-04 02:54:46 GMT 47.407745 -122.455467 7,375 0 254 -1088
2022-07-04 02:54:42 GMT 47.403305 -122.455444 7,450 0 255 -1216
2022-07-04 02:54:39 GMT 47.399231 -122.455467 7,525 0 255 -1344
2022-07-04 02:54:36 GMT 47.397263 -122.455467 7,900 0 257 -1216
2022-07-04 02:54:32 GMT 47.391014 -122.455376 7,650 0 256 -1216
2022-07-04 02:54:27 GMT 47.385315 -122.455330 7,750 0 257 -1216
2022-07-04 02:54:23 GMT 47.379868 -122.455261 7,850 0 257 -1280
2022-07-04 02:54:19 GMT 47.375187 -122.455231 7,925 0 257 -1216
2022-07-04 02:54:16 GMT 47.372726 -122.455261 7,975 0 257 -1216
2022-07-04 02:54:11 GMT 47.366203 -122.455162 8,100 0 258 -1344
2022-07-04 02:54:08 GMT 47.360245 -122.455093 8,225 1 259 -1216
2022-07-04 02:54:05 GMT 47.360245 -122.455093 8,250 5 262 -832
2022-07-04 02:54:02 GMT 47.354507 -122.455261 8,275 3 260 -1024
2022-07-04 02:53:58 GMT 47.350708 -122.455605 8,325 5 262 -832
2022-07-04 02:53:55 GMT 47.347641 -122.456017 8,375 6 264 -576
2022-07-04 02:53:50 GMT 47.340275 -122.457207 8,425 6 269 -512
2022-07-04 02:53:45 GMT 47.334641 -122.458145 8,450 6 270 -576
2022-07-04 02:53:41 GMT 47.328869 -122.459106 8,500 6 272 -832
2022-07-04 02:53:38 GMT 47.327545 -122.459312 8,525 6 272 -960
2022-07-04 02:53:34 GMT 47.321732 -122.460205 8,625 6 273 -1344
2022-07-04 02:53:29 GMT 47.315182 -122.461220 8,725 5 275 -1344
2022-07-04 02:53:24 GMT 47.307453 -122.462418 8,875 5 274 -1344
2022-07-04 02:53:19 GMT 47.302917 -122.463089 8,975 6 275 -1280
2022-07-04 02:53:16 GMT 47.298019 -122.463844 9,025 6 275 -1280
2022-07-04 02:53:13 GMT 47.294281 -122.464462 9,100 6 275 -1280
2022-07-04 02:53:09 GMT 47.290184 -122.465096 9,300 6 276 -1344
2022-07-04 02:53:06 GMT 47.284653 -122.465904 9,250 5 276 -1344
2022-07-04 02:53:03 GMT 47.282223 -122.466293 9,325 5 276 -1344
2022-07-04 02:53:00 GMT 47.277786 -122.466934 9,375 5 277 -1344
2022-07-04 02:52:56 GMT 47.272541 -122.467697 9,425 5 277 -1344
2022-07-04 02:52:52 GMT 47.267624 -122.468445 9,550 5 277 -1280
2022-07-04 02:52:48 GMT 47.262718 -122.469177 9,625 5 278 -1280
2022-07-04 02:52:44 GMT 47.257549 -122.469955 9,725 5 278 -1344
2022-07-04 02:52:41 GMT 47.254211 -122.470436 9,775 5 278 -1408
2022-07-04 02:52:37 GMT 47.247448 -122.471428 9,900 5 280 -1216
2022-07-04 02:52:31 GMT 47.240139 -122.472488 10,000 5 282 -704
2022-07-04 02:52:27 GMT 47.235905 -122.473053 10,025 5 284 -448
2022-07-04 02:52:24 GMT 47.231094 -122.473732 10,050 5 286 -512
2022-07-04 02:52:20 GMT 47.224079 -122.474739 10,075 5 289 -576
2022-07-04 02:52:17 GMT 47.224079 -122.474739 10,100 5 289 -704
2022-07-04 02:52:14 GMT 47.218586 -122.475517 10,150 5 291 -1152
2022-07-04 02:52:11 GMT 47.214165 -122.476151 10,250 5 291 -1408
2022-07-04 02:52:08 GMT 47.209900 -122.476753 10,300 5 292 -1408
2022-07-04 02:52:03 GMT 47.203766 -122.477715 10,600 7 294 -1344
2022-07-04 02:51:58 GMT 47.198456 -122.478539 10,550 7 294 -1344
2022-07-04 02:51:55 GMT 47.193214 -122.479462 10,600 7 294 -1344
2022-07-04 02:51:51 GMT 47.187103 -122.480598 10,700 7 295 -1344
2022-07-04 02:51:48 GMT 47.184277 -122.481079 10,775 7 295 -1344
2022-07-04 02:51:45 GMT 47.179871 -122.481972 10,900 7 296 -1344
2022-07-04 02:51:42 GMT 47.175201 -122.482841 10,900 7 296 -1344
2022-07-04 02:51:37 GMT 47.169891 -122.483894 10,975 7 297 -1344
2022-07-04 02:51:34 GMT 47.164398 -122.485023 11,075 7 297 -1344
2022-07-04 02:51:31 GMT 47.160069 -122.485870 11,150 7 298 -1344
2022-07-04 02:51:28 GMT 47.155556 -122.486786 11,225 7 299 -1344
2022-07-04 02:51:24 GMT 47.150761 -122.487633 11,325 7 300 -1344
2022-07-04 02:51:20 GMT 47.146545 -122.488426 11,350 7 300 -1344
2022-07-04 02:51:17 GMT 47.136700 -122.490234 11,500 6 301 -1408
2022-07-04 02:51:14 GMT 47.136700 -122.490234 11,550 6 301 -1408
2022-07-04 02:51:11 GMT 47.132420 -122.490936 11,600 6 301 -1408
2022-07-04 02:51:07 GMT 47.127064 -122.491928 11,675 7 302 -1344
2022-07-04 02:51:03 GMT 47.121597 -122.492889 11,800 7 303 -1408
2022-07-04 02:50:59 GMT 47.117104 -122.493683 11,850 7 303 -1344
2022-07-04 02:50:56 GMT 47.112579 -122.494469 11,975 6 304 -1344
2022-07-04 02:50:53 GMT 47.107773 -122.495361 12,025 6 304 -1408
2022-07-04 02:50:50 GMT 47.103333 -122.496117 12,075 6 304 -1408
2022-07-04 02:50:46 GMT 47.097244 -122.497147 12,175 6 305 -1408
2022-07-04 02:50:42 GMT 47.088364 -122.498726 12,350 7 305 -1408
2022-07-04 02:50:38 GMT 47.088364 -122.498726 12,325 9 306 -1408
2022-07-04 02:50:32 GMT 47.076927 -122.501717 12,500 14 309 -1344
2022-07-04 02:50:29 GMT 47.073902 -122.502769 12,550 14 309 -1408
2022-07-04 02:50:24 GMT 47.066639 -122.505585 12,675 16 311 -1472
2022-07-04 02:50:21 GMT 47.063938 -122.506783 12,750 16 311 -1472
2022-07-04 02:50:17 GMT 47.058632 -122.509109 12,825 16 312 -1472
2022-07-04 02:50:11 GMT 47.048996 -122.513420 13,000 16 313 -1408
2022-07-04 02:50:08 GMT 47.044853 -122.515236 13,050 16 313 -1408
2022-07-04 02:50:00 GMT 47.035217 -122.519531 14,425 15 320 -1408
2022-07-04 02:49:56 GMT 47.030190 -122.521782 13,325 16 314 -1408
2022-07-04 02:49:51 GMT 47.021160 -122.525803 13,500 15 319 -1472
2022-07-04 02:49:47 GMT 47.015717 -122.528183 13,550 16 317 -1408
2022-07-04 02:49:42 GMT 47.009380 -122.530937 13,700 16 317 -1408
2022-07-04 02:49:39 GMT 47.005692 -122.532509 13,825 15 319 -1472
2022-07-04 02:49:36 GMT 47.001328 -122.534462 13,800 16 317 -1472
2022-07-04 02:49:32 GMT 46.994484 -122.537346 13,975 16 318 -1472
2022-07-04 02:49:29 GMT 46.990013 -122.539177 14,000 15 319 -1472
2022-07-04 02:49:25 GMT 46.986431 -122.540726 14,075 15 319 -1472
2022-07-04 02:49:19 GMT 46.977215 -122.544533 14,275 16 320 -1472
2022-07-04 02:49:16 GMT 46.971588 -122.546860 14,325 16 320 -1472
2022-07-04 02:49:08 GMT 46.960175 -122.551788 14,525 16 321 -1728
2022-07-04 02:49:05 GMT 46.957077 -122.553108 14,575 16 321 -1728
2022-07-04 02:48:58 GMT 46.945789 -122.558052 14,800 17 323 -1408
2022-07-04 02:48:54 GMT 46.941555 -122.559952 14,850 17 330 -448
2022-07-04 02:48:47 GMT 46.931454 -122.564606 15,050 17 330 -448
2022-07-04 02:48:43 GMT 46.926563 -122.566856 14,950 17 332 -448
2022-07-04 02:48:37 GMT 46.916138 -122.571716 15,000 17 338 -576
2022-07-04 02:48:33 GMT 46.910503 -122.574326 15,050 17 341 -512
2022-07-04 02:48:29 GMT 46.903614 -122.577560 15,075 17 344 -512
2022-07-04 02:48:26 GMT 46.899006 -122.579674 15,100 17 347 -576
2022-07-04 02:48:22 GMT 46.895046 -122.581573 15,125 18 348 -576
2022-07-04 02:48:16 GMT 46.883644 -122.586929 15,700 18 355 -448
2022-07-04 02:48:13 GMT 46.878891 -122.589226 15,225 18 356 -448
2022-07-04 02:48:08 GMT 46.871475 -122.592728 15,275 18 360 -640
2022-07-04 02:48:03 GMT 46.864975 -122.595818 15,325 17 363 -1472
2022-07-04 02:48:00 GMT 46.860508 -122.597946 15,400 17 364 -1600
2022-07-04 02:47:55 GMT 46.850784 -122.602402 15,700 17 369 -1792
2022-07-04 02:47:52 GMT 46.845936 -122.604675 15,675 17 365 -1856
2022-07-04 02:47:44 GMT 46.833694 -122.610237 15,900 17 366 -1856
2022-07-04 02:47:40 GMT 46.828060 -122.612846 16,025 17 367 -1856
2022-07-04 02:47:34 GMT 46.816818 -122.617943 16,225 17 369 -1792
2022-07-04 02:47:31 GMT 46.811722 -122.620262 16,325 17 369 -1792
2022-07-04 02:47:22 GMT 46.798592 -122.626167 16,575 16 376 -1920
2022-07-04 02:47:19 GMT 46.794403 -122.628090 16,650 17 371 -1856
2022-07-04 02:47:13 GMT 46.781975 -122.633652 16,875 17 373 -1856
2022-07-04 02:47:08 GMT 46.774887 -122.636833 17,025 17 374 -1856
2022-07-04 02:47:04 GMT 46.767960 -122.639969 17,150 16 376 -1856
2022-07-04 02:47:01 GMT 46.763718 -122.641853 17,225 16 376 -1920
2022-07-04 02:46:58 GMT 46.759674 -122.643677 17,275 16 376 -1920
2022-07-04 02:46:55 GMT 46.752640 -122.646812 17,450 16 377 -1984
2022-07-04 02:46:51 GMT 46.741241 -122.651848 17,575 16 377 -1984
2022-07-04 02:46:48 GMT 46.741241 -122.651848 17,675 17 378 -1984
2022-07-04 02:46:44 GMT 46.735001 -122.654663 17,825 17 378 -1856
2022-07-04 02:46:41 GMT 46.729248 -122.657196 17,900 17 380 -1856
2022-07-04 02:46:37 GMT 46.724529 -122.659401 17,950 17 380 -1856
2022-07-04 02:46:32 GMT 46.713409 -122.664429 18,200 17 382 -1856
2022-07-04 02:46:29 GMT 46.710094 -122.665924 18,250 17 382 -1920
2022-07-04 02:46:26 GMT 46.704483 -122.668449 18,350 17 383 -1856
2022-07-04 02:46:23 GMT 46.700500 -122.670189 18,425 17 384 -1856
2022-07-04 02:46:20 GMT 46.693665 -122.673271 18,550 17 384 -1856
2022-07-04 02:46:16 GMT 46.689194 -122.675262 18,625 17 392 -1920
2022-07-04 02:46:11 GMT 46.678535 -122.680138 18,825 17 386 -1856
2022-07-04 02:46:07 GMT 46.671295 -122.683388 18,950 17 387 -1856
2022-07-04 02:45:59 GMT 46.657909 -122.689476 19,200 17 389 -1856
2022-07-04 02:45:56 GMT 46.653629 -122.691399 19,275 17 390 -1920
2022-07-04 02:45:49 GMT 46.641571 -122.696892 19,525 17 392 -1920
2022-07-04 02:45:46 GMT 46.634960 -122.699913 19,625 17 392 -1984
2022-07-04 02:45:38 GMT 46.620857 -122.706367 19,875 17 394 -1920
2022-07-04 02:45:35 GMT 46.617271 -122.708015 19,950 17 394 -1920
2022-07-04 02:45:28 GMT 46.605469 -122.713600 20,200 16 395 -1920
2022-07-04 02:45:25 GMT 46.598282 -122.716751 20,300 15 396 -1920
2022-07-04 02:45:17 GMT 46.584499 -122.721748 20,550 11 397 -1920
2022-07-04 02:45:13 GMT 46.579193 -122.723396 20,625 10 398 -1920
2022-07-04 02:45:08 GMT 46.568253 -122.726212 20,850 7 398 -2304
2022-07-04 02:45:04 GMT 46.561111 -122.727600 21,000 6 398 -2688
2022-07-04 02:44:55 GMT 46.545364 -122.729408 21,500 0 394 -3136
2022-07-04 02:44:52 GMT 46.540604 -122.729614 21,825 359 394 -1856
2022-07-04 02:44:47 GMT 46.529568 -122.729439 21,825 359 394 -1856
2022-07-04 02:44:43 GMT 46.522491 -122.729164 22,000 359 392 -1856
2022-07-04 02:44:35 GMT 46.509598 -122.728683 22,150 359 393 -1856
2022-07-04 02:44:32 GMT 46.502472 -122.728477 22,275 359 393 0
2022-07-04 02:44:29 GMT 46.497253 -122.728271 22,350 359 392 -1792
2022-07-04 02:44:25 GMT 46.491718 -122.728065 22,525 359 392 -1792
2022-07-04 02:44:22 GMT 46.484299 -122.727867 22,575 359 392 -1792
2022-07-04 02:44:17 GMT 46.478268 -122.727654 22,675 359 392 -1792
2022-07-04 02:44:14 GMT 46.471298 -122.727402 22,800 359 392 -1792
2022-07-04 02:44:11 GMT 46.465000 -122.727242 22,900 359 393 -1856
2022-07-04 02:44:03 GMT 46.449692 -122.726730 23,150 359 393 -1856
2022-07-04 02:44:00 GMT 46.445679 -122.726555 23,225 359 394 -1856
2022-07-04 02:43:57 GMT 46.440308 -122.726395 23,325 359 395 -1856
2022-07-04 02:43:53 GMT 46.433441 -122.726196 23,425 359 395 -1856
2022-07-04 02:43:50 GMT 46.426731 -122.726006 23,725 359 397 -1920
2022-07-04 02:43:46 GMT 46.421265 -122.725792 23,650 359 397 -1920
2022-07-04 02:43:42 GMT 46.411148 -122.725456 23,825 359 398 -1856
2022-07-04 02:43:37 GMT 46.402267 -122.725189 23,975 359 399 -1856
2022-07-04 02:43:32 GMT 46.395676 -122.724922 24,250 359 401 -1920
2022-07-04 02:43:29 GMT 46.388260 -122.724586 24,200 359 401 -1920
2022-07-04 02:43:25 GMT 46.382603 -122.724358 24,300 359 402 -1920
2022-07-04 02:43:21 GMT 46.371799 -122.723946 24,475 359 403 -1856
2022-07-04 02:43:18 GMT 46.368122 -122.723808 24,550 359 404 -1856
2022-07-04 02:43:15 GMT 46.361206 -122.723518 24,650 359 404 -1856
2022-07-04 02:43:11 GMT 46.356159 -122.723328 25,075 359 406 -1920
2022-07-04 02:43:08 GMT 46.348106 -122.723053 24,875 359 407 -1920
2022-07-04 02:43:04 GMT 46.336422 -122.722641 25,075 358 408 -1920
2022-07-04 02:43:01 GMT 46.334793 -122.722580 25,100 358 408 -1920
2022-07-04 02:42:56 GMT 46.328751 -122.722176 25,200 357 409 -1920
2022-07-04 02:42:53 GMT 46.322525 -122.721642 25,300 356 410 -1920
2022-07-04 02:42:50 GMT 46.315887 -122.720833 26,250 353 412 -1920
2022-07-04 02:42:47 GMT 46.308289 -122.719627 25,550 353 412 -1920
2022-07-04 02:42:41 GMT 46.298576 -122.717697 25,775 352 416 -1920
2022-07-04 02:42:38 GMT 46.292679 -122.716484 25,850 352 416 -1984
2022-07-04 02:42:35 GMT 46.288799 -122.715637 25,875 353 417 -1984
2022-07-04 02:42:29 GMT 46.274738 -122.712822 26,150 353 419 -1920
2022-07-04 02:42:26 GMT 46.265945 -122.711052 26,225 353 419 -1920
2022-07-04 02:42:18 GMT 46.254910 -122.708839 26,475 353 421 -1920
2022-07-04 02:42:15 GMT 46.248734 -122.707642 26,550 353 422 -1920
2022-07-04 02:42:08 GMT 46.235870 -122.705162 26,825 353 424 -1984
2022-07-04 02:42:05 GMT 46.227814 -122.703621 27,175 353 429 -1984
2022-07-04 02:41:57 GMT 46.214813 -122.701004 27,125 353 428 -1984
2022-07-04 02:41:54 GMT 46.207626 -122.699600 27,250 353 429 -1984
2022-07-04 02:41:51 GMT 46.203327 -122.698677 27,300 353 430 -1984
2022-07-04 02:41:47 GMT 46.193253 -122.696716 27,500 353 432 -2048
2022-07-04 02:41:44 GMT 46.186707 -122.695442 27,575 353 431 -1984
2022-07-04 02:41:39 GMT 46.178925 -122.693909 27,725 353 433 -2048
2022-07-04 02:41:35 GMT 46.171326 -122.692429 27,925 353 434 -2048
2022-07-04 02:41:32 GMT 46.165054 -122.691223 27,950 353 435 -2048
2022-07-04 02:41:26 GMT 46.151142 -122.688583 28,225 353 437 -2112
2022-07-04 02:41:23 GMT 46.145092 -122.687416 28,300 353 438 -2048
2022-07-04 02:41:18 GMT 46.136948 -122.685867 28,425 353 439 -2048
2022-07-04 02:41:15 GMT 46.129265 -122.684326 28,550 353 441 -2048
2022-07-04 02:41:11 GMT 46.114925 -122.681511 28,875 353 444 -2112
2022-07-04 02:41:05 GMT 46.108612 -122.680305 28,900 353 444 -2112
2022-07-04 02:41:02 GMT 46.102821 -122.679108 29,000 352 444 -2112
2022-07-04 02:40:59 GMT 46.100075 -122.678558 29,050 352 445 -2112
2022-07-04 02:40:56 GMT 46.092224 -122.676826 29,375 350 448 -1984
2022-07-04 02:40:53 GMT 46.084854 -122.674988 29,325 350 448 -1984
2022-07-04 02:40:50 GMT 46.073818 -122.672173 29,425 351 450 -1984
2022-07-04 02:40:47 GMT 46.073818 -122.672173 29,550 351 450 -1984
2022-07-04 02:40:44 GMT 46.060730 -122.668854 29,625 351 451 -1984
2022-07-04 02:40:41 GMT 46.060730 -122.668854 29,725 351 452 -2112
2022-07-04 02:40:38 GMT 46.054367 -122.667244 29,800 351 452 -2496
2022-07-04 02:40:34 GMT 46.048050 -122.665703 30,000 351 452 -2688
2022-07-04 02:40:31 GMT 46.033180 -122.661942 30,575 351 453 -2752
2022-07-04 02:40:28 GMT 46.033180 -122.661942 30,250 351 453 -2624
2022-07-04 02:40:25 GMT 46.027267 -122.660477 30,375 350 453 -2624
2022-07-04 02:40:21 GMT 46.019169 -122.658440 30,575 350 453 -2624
2022-07-04 02:40:17 GMT 46.013626 -122.656998 30,875 351 453 -2624
2022-07-04 02:40:13 GMT 46.004597 -122.654732 30,875 351 453 -2624
2022-07-04 02:40:10 GMT 45.996635 -122.652740 31,050 351 453 -2688
2022-07-04 02:40:07 GMT 45.980206 -122.648689 31,375 351 453 -2688
2022-07-04 02:40:02 GMT 45.980206 -122.648689 31,400 351 453 -2688
2022-07-04 02:39:57 GMT 45.969963 -122.646149 31,800 351 452 -2624
2022-07-04 02:39:54 GMT 45.964935 -122.644913 31,800 351 452 -2624
2022-07-04 02:39:51 GMT 45.958324 -122.643333 31,950 351 452 -2560
2022-07-04 02:39:48 GMT 45.951004 -122.641518 32,025 351 452 -2560
2022-07-04 02:39:44 GMT 45.944267 -122.639900 32,250 351 452 -2624
2022-07-04 02:39:41 GMT 45.935932 -122.637909 32,350 351 452 -2624
2022-07-04 02:39:38 GMT 45.931511 -122.636810 32,450 351 452 -2560
2022-07-04 02:39:35 GMT 45.924667 -122.635162 32,700 351 452 -2496
2022-07-04 02:39:32 GMT 45.918777 -122.633820 32,700 351 452 -2496
2022-07-04 02:39:28 GMT 45.902184 -122.629807 32,950 351 452 -2432
2022-07-04 02:39:24 GMT 45.902184 -122.629807 33,025 351 452 -2432
2022-07-04 02:39:19 GMT 45.891987 -122.627266 33,225 351 452 -2432
2022-07-04 02:39:16 GMT 45.885796 -122.625755 33,350 351 452 -2368
2022-07-04 02:39:12 GMT 45.879513 -122.624176 33,575 351 453 -2176
2022-07-04 02:39:08 GMT 45.868385 -122.621429 33,650 351 454 -1920
2022-07-04 02:39:04 GMT 45.859222 -122.619148 33,800 351 454 -1664
2022-07-04 02:38:57 GMT 45.845482 -122.615799 33,950 351 455 -960
2022-07-04 02:38:53 GMT 45.836426 -122.613518 34,000 351 456 64
2022-07-04 02:38:49 GMT 45.830978 -122.612175 34,000 351 456 -64
2022-07-04 02:38:46 GMT 45.822300 -122.610100 34,000 351 456 64
2022-07-04 02:38:43 GMT 45.816013 -122.608521 34,000 351 456 0
2022-07-04 02:38:39 GMT 45.809731 -122.607010 34,000 351 456 0
2022-07-04 02:38:36 GMT 45.801956 -122.605087 34,000 351 456 0
2022-07-04 02:38:32 GMT 45.795532 -122.603508 34,000 351 456 0
2022-07-04 02:38:28 GMT 45.784607 -122.600792 34,000 350 457 0
2022-07-04 02:38:25 GMT 45.778473 -122.599251 34,000 351 456 0
2022-07-04 02:38:22 GMT 45.771976 -122.597603 34,000 351 456 0
2022-07-04 02:38:18 GMT 45.765923 -122.596161 34,000 359 459 64
2022-07-04 02:38:15 GMT 45.757782 -122.594490 34,000 354 458 -64
2022-07-04 02:37:52 GMT 45.680061 -122.602150 34,000 344 269 -128
2022-07-04 02:37:50 GMT 45.677662 -122.601196 34,000 344 269 -128
2022-07-04 02:37:49 GMT 45.676460 -122.600731 34,000 344 269 -128
2022-07-04 02:37:48 GMT 45.675259 -122.600258 34,000 344 269 -128
2022-07-04 02:37:46 GMT 45.672859 -122.599312 34,000 344 269 -128
2022-07-04 02:37:45 GMT 45.671669 -122.598831 34,000 344 269 -128
2022-07-04 02:37:44 GMT 45.670471 -122.598358 34,000 344 269 -128
2022-07-04 02:37:42 GMT 45.668072 -122.597412 34,000 344 269 -128
2022-07-04 02:37:41 GMT 45.666870 -122.596931 34,000 344 269 -128
2022-07-04 02:37:40 GMT 45.665668 -122.596458 34,000 344 269 -128
2022-07-04 02:37:39 GMT 45.663269 -122.595512 34,000 344 269 -128
2022-07-04 02:37:37 GMT 45.662079 -122.595032 34,000 344 269 -128
2022-07-04 02:37:36 GMT 45.660881 -122.594559 34,000 344 269 -128
2022-07-04 02:37:34 GMT 45.658482 -122.593613 34,000 344 269 -128
2022-07-04 02:37:33 GMT 45.657280 -122.593140 34,000 344 269 -128
2022-07-04 02:37:32 GMT 45.656078 -122.592659 34,000 344 269 -128
2022-07-04 02:37:31 GMT 45.654881 -122.592194 34,000 344 269 -128
2022-07-04 02:37:30 GMT 45.652481 -122.591240 34,000 344 269 -128
2022-07-04 02:37:28 GMT 45.651291 -122.590759 34,000 344 269 -128
2022-07-04 02:37:27 GMT 45.650089 -122.590286 34,000 344 269 -128
2022-07-04 02:37:25 GMT 45.647690 -122.589340 34,000 344 269 -128
2022-07-04 02:37:24 GMT 45.646488 -122.588867 34,000 344 269 -128
2022-07-04 02:37:23 GMT 45.645290 -122.588387 34,000 344 269 -128
2022-07-04 02:37:22 GMT 45.642891 -122.587440 34,000 344 269 -128
2022-07-04 02:37:21 GMT 45.640045 -122.586655 34,000 359 460 0
2022-07-04 02:37:12 GMT 45.625168 -122.585983 34,000 359 460 0
2022-07-04 02:37:09 GMT 45.616379 -122.585648 34,000 359 460 0
2022-07-04 02:37:05 GMT 45.609924 -122.585381 34,000 359 460 0
2022-07-04 02:37:01 GMT 45.601360 -122.584969 34,000 359 460 0
2022-07-04 02:36:58 GMT 45.597244 -122.584778 34,000 359 460 -64
2022-07-04 02:36:53 GMT 45.579163 -122.583977 34,000 359 460 0
2022-07-04 02:36:50 GMT 45.579163 -122.583977 34,000 359 460 0
2022-07-04 02:36:47 GMT 45.571198 -122.583664 34,000 359 460 0
2022-07-04 02:36:44 GMT 45.556549 -122.582970 34,000 359 460 0
2022-07-04 02:36:40 GMT 45.556549 -122.582970 34,000 359 460 0
2022-07-04 02:36:35 GMT 45.546982 -122.582504 34,000 359 460 0
2022-07-04 02:36:30 GMT 45.536423 -122.581963 34,000 359 460 0
2022-07-04 02:36:27 GMT 45.528168 -122.581589 34,000 359 461 0
2022-07-04 02:36:22 GMT 45.518127 -122.581093 34,000 359 461 0
2022-07-04 02:36:19 GMT 45.512589 -122.580894 34,000 359 461 0
2022-07-04 02:36:16 GMT 45.506256 -122.580559 34,000 359 461 -64
2022-07-04 02:36:12 GMT 45.498596 -122.580215 34,000 359 461 0
2022-07-04 02:36:09 GMT 45.493469 -122.579956 34,000 359 461 0
2022-07-04 02:36:06 GMT 45.483025 -122.579491 34,000 359 461 0
2022-07-04 02:36:01 GMT 45.473923 -122.579109 34,000 359 461 0
2022-07-04 02:35:58 GMT 45.466965 -122.578819 34,000 359 461 0
2022-07-04 02:35:54 GMT 45.461754 -122.578613 34,000 359 461 0
2022-07-04 02:35:51 GMT 45.452812 -122.578217 34,000 359 462 0
2022-07-04 02:35:48 GMT 45.447601 -122.578011 34,000 359 462 0
2022-07-04 02:35:45 GMT 45.438400 -122.577599 34,000 359 462 0
2022-07-04 02:35:40 GMT 45.428978 -122.577209 34,000 359 462 0
2022-07-04 02:35:36 GMT 45.421486 -122.576942 34,000 359 462 0
2022-07-04 02:35:33 GMT 45.417023 -122.576752 34,000 359 462 0
2022-07-04 02:35:29 GMT 45.406727 -122.576271 34,000 359 462 0
2022-07-04 02:35:24 GMT 45.392578 -122.575638 34,000 359 462 0
2022-07-04 02:35:20 GMT 45.385639 -122.575333 34,000 359 462 0
2022-07-04 02:35:17 GMT 45.381271 -122.575180 34,000 359 462 0
2022-07-04 02:35:14 GMT 45.372559 -122.574799 34,000 359 462 0
2022-07-04 02:35:11 GMT 45.366600 -122.574600 34,000 359 462 0
2022-07-04 02:35:08 GMT 45.361954 -122.574394 34,000 359 462 0
2022-07-04 02:35:05 GMT 45.353668 -122.574135 34,000 359 462 0
2022-07-04 02:35:01 GMT 45.344971 -122.573875 34,000 359 462 64
2022-07-04 02:34:58 GMT 45.339458 -122.573723 34,000 0 462 0
2022-07-04 02:34:55 GMT 45.333252 -122.573547 34,000 0 463 64
2022-07-04 02:34:52 GMT 45.325817 -122.573395 34,000 0 463 64
2022-07-04 02:34:47 GMT 45.317440 -122.573257 34,000 0 463 0
2022-07-04 02:34:44 GMT 45.308762 -122.573219 34,000 0 463 0
2022-07-04 02:34:41 GMT 45.304359 -122.573257 34,000 0 463 0
2022-07-04 02:34:37 GMT 45.293793 -122.573219 34,000 358 461 -64
2022-07-04 02:34:34 GMT 45.288208 -122.572830 34,000 352 460 0
2022-07-04 02:34:31 GMT 45.281708 -122.572105 34,000 352 460 0
2022-07-04 02:34:27 GMT 45.273262 -122.570442 34,000 349 458 0
2022-07-04 02:34:23 GMT 45.266605 -122.568565 34,000 345 457 0
2022-07-04 02:34:19 GMT 45.258968 -122.565620 34,000 341 455 0
2022-07-04 02:34:15 GMT 45.249985 -122.561333 34,000 336 452 0
2022-07-04 02:34:09 GMT 45.231552 -122.548607 34,000 327 447 -64
2022-07-04 02:34:05 GMT 45.228989 -122.546257 34,000 326 447 -64
2022-07-04 02:34:02 GMT 45.224167 -122.541634 34,000 322 444 -64
2022-07-04 02:33:59 GMT 45.221542 -122.538956 34,000 320 444 -64
2022-07-04 02:33:55 GMT 45.215424 -122.531563 34,025 314 440 -64
2022-07-04 02:33:52 GMT 45.209347 -122.523079 34,025 311 438 0
2022-07-04 02:33:49 GMT 45.205627 -122.516853 34,025 306 434 64
2022-07-04 02:33:45 GMT 45.201050 -122.508018 34,000 302 432 64
2022-07-04 02:33:42 GMT 45.198578 -122.502724 34,000 301 432 0
2022-07-04 02:33:39 GMT 45.195099 -122.494423 34,000 300 431 0
2022-07-04 02:33:34 GMT 45.189972 -122.481796 34,000 300 431 0
2022-07-04 02:33:31 GMT 45.186859 -122.474113 34,000 300 431 0
2022-07-04 02:33:28 GMT 45.183884 -122.466820 34,000 300 431 0
2022-07-04 02:33:24 GMT 45.177597 -122.451340 34,000 300 431 0
2022-07-04 02:33:21 GMT 45.177597 -122.451340 34,000 300 431 0
2022-07-04 02:33:18 GMT 45.174431 -122.443497 34,000 300 431 0
2022-07-04 02:33:13 GMT 45.168797 -122.429695 34,000 301 431 0
2022-07-04 02:33:09 GMT 45.165169 -122.420792 34,000 301 431 0
2022-07-04 02:33:06 GMT 45.163166 -122.415962 34,000 301 431 0
2022-07-04 02:33:02 GMT 45.158752 -122.405159 34,000 301 431 0
2022-07-04 02:32:59 GMT 45.155594 -122.397377 34,000 301 431 0
2022-07-04 02:32:56 GMT 45.152225 -122.389236 34,000 301 432 0
2022-07-04 02:32:52 GMT 45.147663 -122.378052 34,000 301 431 0
2022-07-04 02:32:49 GMT 45.145149 -122.371887 34,000 301 432 0
2022-07-04 02:32:44 GMT 45.141083 -122.362061 34,000 301 432 0
2022-07-04 02:32:41 GMT 45.137650 -122.353821 34,000 301 432 0
2022-07-04 02:32:38 GMT 45.134678 -122.346497 34,000 301 432 64
2022-07-04 02:32:34 GMT 45.131138 -122.338058 34,000 301 432 64
2022-07-04 02:32:31 GMT 45.126938 -122.327927 34,000 301 432 0
2022-07-04 02:32:28 GMT 45.124107 -122.320976 34,000 301 432 0
2022-07-04 02:32:25 GMT 45.121456 -122.314606 34,000 301 432 0
2022-07-04 02:32:22 GMT 45.115776 -122.300812 34,000 301 432 0
2022-07-04 02:32:19 GMT 45.115776 -122.300812 34,000 301 432 0
2022-07-04 02:32:15 GMT 45.110703 -122.288483 34,000 301 432 0
2022-07-04 02:32:10 GMT 45.105423 -122.275742 34,000 301 432 64
2022-07-04 02:32:07 GMT 45.100204 -122.263184 34,000 301 432 64
2022-07-04 02:32:04 GMT 45.100204 -122.263184 34,000 301 433 0
2022-07-04 02:31:58 GMT 45.094482 -122.249321 34,000 301 433 -64
2022-07-04 02:31:55 GMT 45.091873 -122.243042 34,000 301 433 -64
2022-07-04 02:31:52 GMT 45.087982 -122.233559 34,000 301 433 0
2022-07-04 02:31:49 GMT 45.084492 -122.225182 34,000 301 433 0
2022-07-04 02:31:46 GMT 45.081791 -122.218681 34,000 301 433 0
2022-07-04 02:31:43 GMT 45.075832 -122.204277 34,000 301 433 0
2022-07-04 02:31:40 GMT 45.075832 -122.204277 34,000 301 433 64
2022-07-04 02:31:36 GMT 45.068161 -122.185890 34,000 301 433 0
2022-07-04 02:31:33 GMT 45.068161 -122.185890 34,000 301 434 0
2022-07-04 02:31:28 GMT 45.063217 -122.174179 34,000 302 434 64
2022-07-04 02:31:25 GMT 45.060333 -122.167313 34,000 4 473 0
2022-07-04 02:31:22 GMT 45.057632 -122.160973 34,000 303 435 0
2022-07-04 02:31:17 GMT 45.052185 -122.148811 34,000 312 441 0
2022-07-04 02:31:14 GMT 45.049072 -122.142723 34,000 310 439 0
2022-07-04 02:31:10 GMT 45.042892 -122.132004 34,000 313 441 0
2022-07-04 02:31:07 GMT 45.038685 -122.125832 34,000 320 447 -64
2022-07-04 02:31:04 GMT 45.034607 -122.120491 34,000 322 447 -64
2022-07-04 02:30:55 GMT 45.020096 -122.105515 34,000 332 455 0
2022-07-04 02:30:51 GMT 45.010712 -122.098457 34,000 338 458 0
2022-07-04 02:30:46 GMT 45.001053 -122.092766 34,000 343 462 0
2022-07-04 02:30:43 GMT 44.995857 -122.090393 34,000 346 463 0
2022-07-04 02:30:37 GMT 44.982147 -122.085770 34,000 352 467 0
2022-07-04 02:30:34 GMT 44.975876 -122.084526 34,000 357 469 0
2022-07-04 02:30:29 GMT 44.967506 -122.083763 34,000 0 472 0
2022-07-04 02:30:25 GMT 44.957359 -122.083900 34,000 5 473 0
2022-07-04 02:30:21 GMT 44.950466 -122.084770 34,000 8 475 0
2022-07-04 02:30:17 GMT 44.938889 -122.087471 34,000 15 476 0
2022-07-04 02:30:14 GMT 44.933395 -122.089493 34,000 18 477 0
2022-07-04 02:30:11 GMT 44.927902 -122.091782 34,000 18 477 0
2022-07-04 02:30:06 GMT 44.917511 -122.097404 34,000 26 479 0
2022-07-04 02:30:03 GMT 44.911785 -122.101250 34,000 39 480 -64
2022-07-04 02:30:00 GMT 44.907223 -122.104797 34,000 31 479 0
2022-07-04 02:29:56 GMT 44.897587 -122.113503 34,000 58 475 0
2022-07-04 02:29:49 GMT 44.879848 -122.135414 34,025 49 477 -64
2022-07-04 02:29:43 GMT 44.876312 -122.141106 34,025 51 477 0
2022-07-04 02:29:40 GMT 44.872925 -122.146843 34,000 54 476 64
2022-07-04 02:29:35 GMT 44.865742 -122.161339 34,000 57 475 64
2022-07-04 02:29:31 GMT 44.861298 -122.171242 34,000 58 475 0
2022-07-04 02:29:28 GMT 44.858963 -122.176468 34,000 58 475 0
2022-07-04 02:29:24 GMT 44.853592 -122.188599 34,000 58 475 0
2022-07-04 02:29:21 GMT 44.850769 -122.195045 34,000 58 475 0
2022-07-04 02:29:18 GMT 44.847446 -122.202469 34,000 58 475 0
2022-07-04 02:29:14 GMT 44.841721 -122.215462 34,000 58 474 0
2022-07-04 02:29:10 GMT 44.837631 -122.224663 34,000 58 474 0
2022-07-04 02:29:07 GMT 44.834564 -122.231598 34,000 58 474 0
2022-07-04 02:29:04 GMT 44.830921 -122.239914 34,000 58 474 0
2022-07-04 02:29:01 GMT 44.826591 -122.249626 34,000 58 474 0
2022-07-04 02:28:57 GMT 44.822544 -122.258804 34,000 58 475 0
2022-07-04 02:28:52 GMT 44.817398 -122.270439 34,000 58 475 0
2022-07-04 02:28:49 GMT 44.814072 -122.277901 34,000 58 475 0
2022-07-04 02:28:46 GMT 44.810577 -122.285812 34,000 58 475 0
2022-07-04 02:28:42 GMT 44.804764 -122.299019 34,000 58 476 0
2022-07-04 02:28:38 GMT 44.800323 -122.309090 34,000 58 476 0
2022-07-04 02:28:34 GMT 44.794891 -122.321373 34,000 58 476 0
2022-07-04 02:28:31 GMT 44.793121 -122.325264 34,000 58 476 0
2022-07-04 02:28:28 GMT 44.788422 -122.335968 34,000 58 477 0
2022-07-04 02:28:25 GMT 44.786270 -122.340874 34,000 58 477 0
2022-07-04 02:28:22 GMT 44.781017 -122.352730 34,000 58 477 0
2022-07-04 02:28:19 GMT 44.777573 -122.360497 34,000 58 477 64
2022-07-04 02:28:15 GMT 44.768681 -122.380257 34,000 55 478 -64
2022-07-04 02:28:11 GMT 44.768681 -122.380257 34,000 55 478 -64
2022-07-04 02:28:07 GMT 44.762833 -122.392403 34,000 52 479 -64
2022-07-04 02:28:01 GMT 44.754410 -122.406990 34,000 46 480 0
2022-07-04 02:27:56 GMT 44.749039 -122.414825 34,000 43 480 -64
2022-07-04 02:27:53 GMT 44.743698 -122.421829 34,000 35 480 0
2022-07-04 02:27:49 GMT 44.736515 -122.430168 34,000 35 480 0
2022-07-04 02:27:46 GMT 44.731110 -122.435631 34,000 31 480 0
2022-07-04 02:27:43 GMT 44.725529 -122.440750 34,000 29 479 0
2022-07-04 02:27:40 GMT 44.717285 -122.447205 34,000 26 479 0
2022-07-04 02:27:37 GMT 44.712387 -122.450478 34,000 23 477 0
2022-07-04 02:27:34 GMT 44.707443 -122.453545 34,000 19 476 0
2022-07-04 02:27:29 GMT 44.696899 -122.458908 34,000 15 475 0
2022-07-04 02:27:24 GMT 44.684376 -122.463394 34,000 9 473 0
2022-07-04 02:27:19 GMT 44.673660 -122.465775 34,000 4 470 0
2022-07-04 02:27:16 GMT 44.668030 -122.466431 34,000 2 469 0
2022-07-04 02:27:13 GMT 44.662682 -122.466812 34,000 0 468 0
2022-07-04 02:27:05 GMT 44.637264 -122.463928 34,000 350 462 0
2022-07-04 02:27:02 GMT 44.637264 -122.463928 34,000 347 460 0
2022-07-04 02:26:53 GMT 44.620926 -122.457863 34,000 337 452 0
2022-07-04 02:26:50 GMT 44.614174 -122.454216 34,000 337 452 0
2022-07-04 02:26:42 GMT 44.600281 -122.444588 34,000 329 446 0
2022-07-04 02:26:34 GMT 44.586010 -122.430702 34,000 319 438 0
2022-07-04 02:26:31 GMT 44.580917 -122.424515 34,000 309 430 0
2022-07-04 02:26:26 GMT 44.573090 -122.413200 34,000 306 427 0
2022-07-04 02:26:23 GMT 44.571167 -122.409996 34,000 307 428 0
2022-07-04 02:26:19 GMT 44.566925 -122.402367 34,000 304 426 0
2022-07-04 02:26:16 GMT 44.562641 -122.393326 34,000 300 421 0
2022-07-04 02:26:13 GMT 44.559769 -122.386192 34,025 290 413 -64
2022-07-04 02:26:09 GMT 44.556358 -122.376442 34,025 290 413 -64
2022-07-04 02:26:05 GMT 44.553425 -122.365921 34,025 283 408 128
2022-07-04 02:26:01 GMT 44.551346 -122.356766 34,000 284 409 128
2022-07-04 02:25:58 GMT 44.550156 -122.349571 34,000 282 408 128
2022-07-04 02:25:53 GMT 44.548416 -122.337471 34,000 281 407 0
2022-07-04 02:25:49 GMT 44.546768 -122.324661 34,000 281 406 0
2022-07-04 02:25:45 GMT 44.545185 -122.312332 34,000 281 405 0
2022-07-04 02:25:41 GMT 44.544300 -122.305634 34,000 281 405 0
2022-07-04 02:25:37 GMT 44.543137 -122.296455 34,000 281 405 0
2022-07-04 02:25:33 GMT 44.541779 -122.285812 34,000 281 402 -64
2022-07-04 02:25:27 GMT 44.538483 -122.260307 34,000 281 403 0
2022-07-04 02:25:21 GMT 44.536713 -122.246819 34,000 281 403 -64
2022-07-04 02:25:18 GMT 44.536713 -122.246819 34,000 281 401 -64
2022-07-04 02:25:13 GMT 44.534821 -122.232185 34,000 281 402 -64
2022-07-04 02:25:08 GMT 44.533401 -122.221458 34,000 281 401 -64
2022-07-04 02:25:03 GMT 44.531754 -122.209038 34,000 281 401 0
2022-07-04 02:25:00 GMT 44.530334 -122.198250 34,000 281 401 0
2022-07-04 02:24:57 GMT 44.529785 -122.194191 34,000 281 401 0
2022-07-04 02:24:54 GMT 44.528275 -122.182617 34,000 281 400 0
2022-07-04 02:24:51 GMT 44.527729 -122.178688 34,000 281 400 0
2022-07-04 02:24:47 GMT 44.526283 -122.167831 34,000 281 400 0
2022-07-04 02:24:40 GMT 44.523815 -122.149483 34,000 281 400 0
2022-07-04 02:24:37 GMT 44.522736 -122.141220 34,000 281 401 0
2022-07-04 02:24:33 GMT 44.521629 -122.133202 34,000 281 401 0
2022-07-04 02:24:28 GMT 44.519257 -122.115585 34,000 281 400 -64
2022-07-04 02:24:25 GMT 44.518387 -122.109177 34,000 281 400 0
2022-07-04 02:24:21 GMT 44.516830 -122.097931 34,000 282 400 0
2022-07-04 02:24:16 GMT 44.513809 -122.076218 34,000 282 400 0
2022-07-04 02:24:10 GMT 44.512939 -122.070076 34,000 282 400 -64
2022-07-04 02:24:07 GMT 44.512272 -122.065140 34,000 282 400 0
2022-07-04 02:24:04 GMT 44.510876 -122.055222 34,000 282 400 0
2022-07-04 02:23:59 GMT 44.509369 -122.044571 34,000 282 400 0
2022-07-04 02:23:56 GMT 44.507290 -122.029701 34,000 281 400 0
2022-07-04 02:23:53 GMT 44.507290 -122.029701 34,000 281 400 0
2022-07-04 02:23:50 GMT 44.505936 -122.020042 34,000 281 400 0
2022-07-04 02:23:47 GMT 44.504883 -122.012459 34,000 281 400 0
2022-07-04 02:23:43 GMT 44.503658 -122.003441 34,000 281 400 0
2022-07-04 02:23:39 GMT 44.502274 -121.993492 34,000 281 400 0
2022-07-04 02:23:36 GMT 44.501083 -121.985062 34,000 282 400 -64
2022-07-04 02:23:33 GMT 44.500492 -121.980797 34,000 282 400 -64
2022-07-04 02:23:29 GMT 44.498493 -121.966393 34,000 282 400 0
2022-07-04 02:23:24 GMT 44.495560 -121.945900 34,000 282 399 64
2022-07-04 02:23:21 GMT 44.495560 -121.945900 34,000 282 400 64
2022-07-04 02:23:18 GMT 44.494858 -121.941177 34,000 282 400 0
2022-07-04 02:23:14 GMT 44.493233 -121.929817 34,000 282 400 0
2022-07-04 02:23:11 GMT 44.492294 -121.923195 34,000 282 400 0
2022-07-04 02:23:08 GMT 44.490997 -121.914413 34,000 282 402 64
2022-07-04 02:23:01 GMT 44.488449 -121.896713 34,000 282 403 64
2022-07-04 02:22:57 GMT 44.487133 -121.887680 33,975 282 404 64
2022-07-04 02:22:53 GMT 44.485458 -121.875961 33,975 282 404 64
2022-07-04 02:22:49 GMT 44.484295 -121.867920 34,000 282 407 0
2022-07-04 02:22:46 GMT 44.483231 -121.860420 34,000 282 406 0
2022-07-04 02:22:40 GMT 44.480530 -121.841255 34,000 282 408 64
2022-07-04 02:22:36 GMT 44.479340 -121.832954 34,000 282 409 64
2022-07-04 02:22:33 GMT 44.478058 -121.823906 34,000 282 410 0
2022-07-04 02:22:30 GMT 44.477451 -121.819687 34,000 283 411 -64
2022-07-04 02:22:25 GMT 44.475357 -121.805946 34,000 284 412 -64
2022-07-04 02:22:20 GMT 44.470467 -121.783043 34,000 290 417 -64
2022-07-04 02:22:17 GMT 44.470467 -121.783043 34,000 296 422 0
2022-07-04 02:22:13 GMT 44.467442 -121.773537 34,000 302 427 0
2022-07-04 02:22:10 GMT 44.464508 -121.765923 34,000 303 427 0
2022-07-04 02:22:07 GMT 44.462402 -121.761147 34,000 305 430 -64
2022-07-04 02:22:04 GMT 44.459064 -121.754372 34,000 310 434 -64
2022-07-04 02:21:58 GMT 44.449951 -121.739632 34,025 319 441 -64
2022-07-04 02:21:55 GMT 44.444138 -121.732109 34,025 322 445 -64
2022-07-04 02:21:51 GMT 44.438999 -121.726440 34,025 331 453 64
2022-07-04 02:21:48 GMT 44.435509 -121.722954 34,025 336 457 0
2022-07-04 02:21:43 GMT 44.425781 -121.714714 34,000 333 455 128
2022-07-04 02:21:39 GMT 44.419029 -121.709961 34,000 335 458 0
2022-07-04 02:21:36 GMT 44.413971 -121.706612 34,000 335 458 0
2022-07-04 02:21:32 GMT 44.402737 -121.699310 34,000 336 457 0
2022-07-04 02:21:27 GMT 44.396347 -121.695168 34,000 336 457 0
2022-07-04 02:21:23 GMT 44.387280 -121.689262 34,000 336 457 0
2022-07-04 02:21:16 GMT 44.371490 -121.679077 34,000 336 457 0
2022-07-04 02:21:13 GMT 44.366611 -121.675926 34,000 336 457 0
2022-07-04 02:21:06 GMT 44.355576 -121.668762 34,000 336 457 0
2022-07-04 02:21:02 GMT 44.347523 -121.663605 34,000 336 456 0
2022-07-04 02:20:56 GMT 44.333557 -121.654625 34,000 336 456 0
2022-07-04 02:20:52 GMT 44.327507 -121.650673 34,000 336 456 0
2022-07-04 02:20:48 GMT 44.320011 -121.645851 34,000 336 456 0
2022-07-04 02:20:44 GMT 44.313030 -121.641365 34,000 336 456 0
2022-07-04 02:20:41 GMT 44.307072 -121.637474 34,000 336 456 0
2022-07-04 02:20:37 GMT 44.297340 -121.631180 34,000 336 456 0
2022-07-04 02:20:34 GMT 44.293339 -121.628571 34,000 336 455 0
2022-07-04 02:20:30 GMT 44.285332 -121.623405 34,000 336 456 0
2022-07-04 02:20:27 GMT 44.273483 -121.615776 34,000 336 455 0
2022-07-04 02:20:23 GMT 44.273483 -121.615776 34,000 336 455 0
2022-07-04 02:20:19 GMT 44.265034 -121.610344 34,000 336 455 0
2022-07-04 02:20:16 GMT 44.257553 -121.605507 34,000 336 455 0
2022-07-04 02:20:12 GMT 44.250229 -121.600830 34,000 336 455 0
2022-07-04 02:20:09 GMT 44.246063 -121.598122 34,000 336 455 0
2022-07-04 02:20:05 GMT 44.232960 -121.589714 34,000 336 454 0
2022-07-04 02:20:02 GMT 44.232960 -121.589714 34,000 336 454 0
2022-07-04 02:19:59 GMT 44.225143 -121.584709 34,000 336 453 0
2022-07-04 02:19:53 GMT 44.215530 -121.578499 34,000 336 453 0
2022-07-04 02:19:50 GMT 44.208160 -121.573792 34,000 336 453 0
2022-07-04 02:19:42 GMT 44.194695 -121.565125 34,000 336 453 0
2022-07-04 02:19:39 GMT 44.186920 -121.560188 34,000 336 453 0
2022-07-04 02:19:34 GMT 44.177444 -121.554077 34,000 336 453 0
2022-07-04 02:19:31 GMT 44.162842 -121.544746 34,000 336 453 0
2022-07-04 02:19:25 GMT 44.162842 -121.544746 34,000 336 453 0
2022-07-04 02:19:21 GMT 44.154518 -121.539391 34,000 336 453 0
2022-07-04 02:19:18 GMT 44.147861 -121.535141 34,000 336 452 0
2022-07-04 02:19:13 GMT 44.138317 -121.528999 34,000 336 452 0
2022-07-04 02:19:10 GMT 44.132584 -121.525330 34,000 336 452 0
2022-07-04 02:19:02 GMT 44.118256 -121.516197 34,000 336 452 -64
2022-07-04 02:18:57 GMT 44.109695 -121.510704 34,000 336 452 0
2022-07-04 02:18:52 GMT 44.098003 -121.503227 34,000 336 451 0
2022-07-04 02:18:48 GMT 44.090790 -121.498634 34,000 336 451 0
2022-07-04 02:18:44 GMT 44.085014 -121.494926 34,000 336 451 0
2022-07-04 02:18:38 GMT 44.073624 -121.487709 34,000 336 451 0
2022-07-04 02:18:34 GMT 44.064606 -121.481964 34,000 336 451 0
2022-07-04 02:18:31 GMT 44.058746 -121.478195 34,000 336 450 0
2022-07-04 02:18:27 GMT 44.052979 -121.474556 34,000 336 450 0
2022-07-04 02:18:24 GMT 44.047169 -121.470795 34,000 336 450 0
2022-07-04 02:18:18 GMT 44.035172 -121.463181 34,000 336 450 -64
2022-07-04 02:18:15 GMT 44.027344 -121.458199 34,000 336 449 -64
2022-07-04 02:18:11 GMT 44.021072 -121.454178 34,000 336 449 -64
2022-07-04 02:18:08 GMT 44.013657 -121.449516 34,000 336 447 0
2022-07-04 02:18:03 GMT 44.008255 -121.446068 34,000 336 448 0
2022-07-04 02:17:59 GMT 44.000519 -121.441147 34,000 336 447 0
2022-07-04 02:17:56 GMT 43.993332 -121.436546 34,000 336 447 0
2022-07-04 02:17:53 GMT 43.987396 -121.432732 34,000 336 447 0
2022-07-04 02:17:48 GMT 43.977997 -121.426773 34,000 336 446 0
2022-07-04 02:17:45 GMT 43.974106 -121.424286 34,000 336 446 0
2022-07-04 02:17:42 GMT 43.968613 -121.420769 34,000 336 446 64
2022-07-04 02:17:36 GMT 43.955601 -121.412460 34,000 336 447 0
2022-07-04 02:17:32 GMT 43.949734 -121.408737 34,000 336 446 0
2022-07-04 02:17:26 GMT 43.935768 -121.399841 34,000 336 446 0
2022-07-04 02:17:23 GMT 43.929855 -121.396111 34,000 336 446 0
2022-07-04 02:17:17 GMT 43.920265 -121.390030 34,000 336 447 0
2022-07-04 02:17:14 GMT 43.914871 -121.386597 34,000 336 447 0
2022-07-04 02:17:11 GMT 43.909515 -121.383163 34,000 336 447 0
2022-07-04 02:17:07 GMT 43.894943 -121.373947 34,000 336 446 0
2022-07-04 02:17:04 GMT 43.894943 -121.373947 34,000 336 446 0
2022-07-04 02:16:59 GMT 43.884235 -121.367210 34,000 336 446 64
2022-07-04 02:16:56 GMT 43.880466 -121.364792 34,000 336 446 64
2022-07-04 02:16:53 GMT 43.875111 -121.361389 34,000 336 446 64
2022-07-04 02:16:50 GMT 43.869644 -121.357918 34,000 336 446 0
2022-07-04 02:16:44 GMT 43.857056 -121.349937 34,000 336 446 0
2022-07-04 02:16:40 GMT 43.849045 -121.344887 34,000 336 446 0
2022-07-04 02:16:35 GMT 43.841171 -121.339905 34,000 336 446 -64
2022-07-04 02:16:32 GMT 43.835632 -121.336395 34,000 336 446 -64
2022-07-04 02:16:29 GMT 43.830460 -121.333138 34,000 336 446 0
2022-07-04 02:16:25 GMT 43.821121 -121.327255 34,000 336 446 -64
2022-07-04 02:16:22 GMT 43.816544 -121.324387 34,000 336 445 0
2022-07-04 02:16:14 GMT 43.801746 -121.315025 34,000 336 445 0
2022-07-04 02:16:11 GMT 43.795738 -121.311234 34,000 336 445 0
2022-07-04 02:16:08 GMT 43.790222 -121.307716 34,000 336 445 64
2022-07-04 02:16:04 GMT 43.782166 -121.302605 34,000 336 445 0
2022-07-04 02:16:01 GMT 43.774651 -121.297829 34,000 336 445 0
2022-07-04 02:15:57 GMT 43.768982 -121.294296 34,000 336 445 64
2022-07-04 02:15:51 GMT 43.759552 -121.288300 34,000 336 445 64
2022-07-04 02:15:43 GMT 43.743694 -121.278275 34,000 336 445 0
2022-07-04 02:15:40 GMT 43.739914 -121.275841 34,000 336 445 0
2022-07-04 02:15:37 GMT 43.733276 -121.271690 34,000 336 445 0
2022-07-04 02:15:32 GMT 43.723297 -121.265366 34,000 336 445 64
2022-07-04 02:15:29 GMT 43.719673 -121.263100 34,000 336 445 64
2022-07-04 02:15:22 GMT 43.703339 -121.252785 34,000 336 445 0
2022-07-04 02:15:19 GMT 43.699238 -121.250221 34,000 336 445 0
2022-07-04 02:15:09 GMT 43.680614 -121.238510 34,000 336 445 0
2022-07-04 02:15:01 GMT 43.663902 -121.227982 34,000 336 445 0
2022-07-04 02:14:58 GMT 43.661064 -121.226219 34,000 336 444 0
2022-07-04 02:14:50 GMT 43.644817 -121.216019 34,000 336 444 0
2022-07-04 02:14:47 GMT 43.640945 -121.213631 34,000 336 445 0
2022-07-04 02:14:40 GMT 43.625359 -121.203850 34,000 336 445 -64
2022-07-04 02:14:37 GMT 43.621353 -121.201302 34,000 336 444 -64
2022-07-04 02:14:27 GMT 43.601852 -121.189102 34,000 336 443 0
2022-07-04 02:14:19 GMT 43.584766 -121.178352 34,000 336 443 0
2022-07-04 02:14:16 GMT 43.581879 -121.176582 34,000 336 443 0
2022-07-04 02:14:08 GMT 43.566517 -121.166969 34,000 336 443 0
2022-07-04 02:14:05 GMT 43.562561 -121.164482 34,000 336 443 0
2022-07-04 02:13:55 GMT 43.543007 -121.152260 34,000 336 442 -64
2022-07-04 02:13:47 GMT 43.527225 -121.142380 34,000 336 441 64
2022-07-04 02:13:44 GMT 43.523300 -121.139915 34,000 336 441 0
2022-07-04 02:13:34 GMT 43.503754 -121.127716 34,000 336 441 0
2022-07-04 02:13:23 GMT 43.484390 -121.115646 34,000 336 441 0
2022-07-04 02:13:13 GMT 43.464523 -121.103256 34,000 336 440 64
2022-07-04 02:13:06 GMT 43.449738 -121.093994 34,000 336 440 0
2022-07-04 02:13:02 GMT 43.445023 -121.091049 34,000 336 440 0
2022-07-04 02:12:54 GMT 43.429699 -121.081497 34,000 336 439 0
2022-07-04 02:12:51 GMT 43.424744 -121.078407 34,000 336 439 0
2022-07-04 02:12:45 GMT 43.410873 -121.069717 34,000 336 438 64
2022-07-04 02:12:41 GMT 43.405930 -121.066650 34,000 336 438 64
2022-07-04 02:12:31 GMT 43.386795 -121.054710 34,000 336 437 64
2022-07-04 02:12:23 GMT 43.370316 -121.044487 34,000 336 437 0
2022-07-04 02:12:20 GMT 43.367661 -121.042831 34,000 336 437 -64
2022-07-04 02:12:10 GMT 43.348709 -121.031013 34,000 336 435 -64
2022-07-04 02:12:03 GMT 43.333603 -121.021683 34,000 336 435 -64
2022-07-04 02:11:59 GMT 43.328842 -121.018684 34,000 336 435 -64
2022-07-04 02:11:49 GMT 43.309689 -121.006821 34,000 336 434 0
2022-07-04 02:11:38 GMT 43.290207 -120.994728 34,000 336 434 64
2022-07-04 02:11:28 GMT 43.270817 -120.982689 34,000 336 435 0
2022-07-04 02:11:17 GMT 43.251572 -120.970711 34,000 336 435 0
2022-07-04 02:11:07 GMT 43.233109 -120.959343 34,000 336 435 0
2022-07-04 02:11:00 GMT 43.217285 -120.949570 34,000 336 435 0
2022-07-04 02:10:56 GMT 43.213699 -120.947372 34,000 336 435 0
2022-07-04 02:10:49 GMT 43.199081 -120.938347 34,000 336 435 0
2022-07-04 02:10:46 GMT 43.193848 -120.935135 34,000 336 435 0
2022-07-04 02:10:35 GMT 43.175106 -120.923569 34,000 336 435 0
2022-07-04 02:10:27 GMT 43.158371 -120.913231 34,000 336 435 0
2022-07-04 02:10:24 GMT 43.154858 -120.911018 34,000 336 435 0
2022-07-04 02:10:14 GMT 43.136513 -120.899704 34,000 336 435 0
2022-07-04 02:10:03 GMT 43.116543 -120.887405 34,000 336 435 0
2022-07-04 02:09:52 GMT 43.096252 -120.874840 34,000 336 435 64
2022-07-04 02:09:42 GMT 43.077896 -120.863533 34,000 336 435 0
2022-07-04 02:09:32 GMT 43.059052 -120.851898 34,000 336 435 0
2022-07-04 02:09:18 GMT 43.032375 -120.835487 34,000 336 436 0
2022-07-04 02:09:10 GMT 43.017712 -120.826462 34,000 336 436 0
2022-07-04 02:09:00 GMT 42.999279 -120.815079 34,000 336 436 0
2022-07-04 02:08:29 GMT 42.942490 -120.780243 34,000 336 437 0
2022-07-04 02:08:28 GMT 42.940807 -120.779243 34,000 336 437 0
2022-07-04 02:08:18 GMT 42.922234 -120.767929 34,000 336 437 0
2022-07-04 02:08:07 GMT 42.901978 -120.755585 34,000 336 437 0
2022-07-04 02:07:56 GMT 42.882706 -120.743896 34,000 336 437 0
2022-07-04 02:07:46 GMT 42.863617 -120.732269 34,000 336 437 0
2022-07-04 02:07:36 GMT 42.844254 -120.720520 34,000 336 437 0
2022-07-04 02:07:25 GMT 42.824146 -120.708290 34,000 336 436 0
2022-07-04 02:07:15 GMT 42.805855 -120.697075 34,000 336 436 0
We lost coverage of the aircraft here for a total of 8 minutes
2022-07-04 01:59:21 GMT 41.881092 -120.311279 34,000 347 459 -64
2022-07-04 01:59:14 GMT 41.864731 -120.306099 34,000 347 459 0
2022-07-04 01:59:04 GMT 41.844971 -120.299782 34,000 347 458 0
2022-07-04 01:58:53 GMT 41.823578 -120.292992 34,000 347 458 0
2022-07-04 01:58:43 GMT 41.802189 -120.286179 34,000 347 457 0
2022-07-04 01:58:32 GMT 41.780308 -120.279282 34,000 347 456 0
2022-07-04 01:58:22 GMT 41.758102 -120.272377 34,000 347 456 0
2022-07-04 01:57:40 GMT 41.671047 -120.245041 34,000 347 452 0
2022-07-04 01:57:30 GMT 41.652878 -120.239304 34,000 347 450 64
2022-07-04 01:57:20 GMT 41.630550 -120.232269 34,000 347 449 0
2022-07-04 01:57:09 GMT 41.610065 -120.225883 34,000 347 449 0
2022-07-04 01:56:58 GMT 41.589119 -120.219299 34,000 347 448 0
2022-07-04 01:56:43 GMT 41.556530 -120.209084 34,000 347 448 0
2022-07-04 01:56:38 GMT 41.546494 -120.205971 34,000 347 448 0
2022-07-04 01:55:54 GMT 41.456314 -120.177948 34,000 347 447 0
2022-07-04 01:55:45 GMT 41.441711 -120.173325 34,000 347 446 0
2022-07-04 01:55:34 GMT 41.419006 -120.166145 34,000 347 446 0
2022-07-04 01:55:25 GMT 41.400238 -120.160156 34,000 347 445 0
2022-07-04 01:55:15 GMT 41.378220 -120.153198 34,000 347 445 0
2022-07-04 01:55:03 GMT 41.356705 -120.146362 34,000 347 445 0
2022-07-04 01:54:54 GMT 41.336060 -120.139832 34,000 347 445 0
2022-07-04 01:54:42 GMT 41.315250 -120.133316 34,000 347 445 0
2022-07-04 01:54:32 GMT 41.294632 -120.126831 34,000 347 445 64
2022-07-04 01:54:22 GMT 41.272659 -120.119995 34,000 347 445 0
2022-07-04 01:54:11 GMT 41.252518 -120.113708 34,000 347 445 0
2022-07-04 01:54:01 GMT 41.232330 -120.107422 34,000 347 445 0
2022-07-04 01:53:51 GMT 41.211067 -120.100853 34,000 347 446 0
2022-07-04 01:53:39 GMT 41.188980 -120.094116 34,000 348 447 0
2022-07-04 01:53:28 GMT 41.163300 -120.086304 34,000 348 447 0
2022-07-04 01:53:19 GMT 41.147243 -120.081444 34,000 347 447 -64
2022-07-04 01:53:09 GMT 41.127178 -120.075325 34,000 347 447 64
2022-07-04 01:52:59 GMT 41.105953 -120.068771 34,000 347 446 64
2022-07-04 01:52:48 GMT 41.083141 -120.061714 34,000 347 446 0
2022-07-04 01:52:36 GMT 41.061958 -120.055161 34,000 347 445 0
2022-07-04 01:52:26 GMT 41.039337 -120.048172 34,000 347 445 0
2022-07-04 01:52:16 GMT 41.019363 -120.041992 34,000 347 444 0
2022-07-04 01:52:05 GMT 40.998089 -120.035370 34,000 347 444 0
2022-07-04 01:51:55 GMT 40.978363 -120.029236 34,000 347 443 0
2022-07-04 01:51:44 GMT 40.956116 -120.022278 34,000 347 443 -64
2022-07-04 01:51:34 GMT 40.935974 -120.016052 34,000 347 442 0
2022-07-04 01:51:23 GMT 40.913925 -120.009346 34,000 347 442 64
2022-07-04 01:51:12 GMT 40.891953 -120.002602 34,000 347 442 0
2022-07-04 01:51:01 GMT 40.871796 -119.996460 34,000 348 443 0
2022-07-04 01:50:52 GMT 40.851929 -119.990417 34,000 348 443 0
2022-07-04 01:50:40 GMT 40.830597 -119.983948 34,000 347 442 0
2022-07-04 01:50:30 GMT 40.809460 -119.977509 34,000 347 442 0
2022-07-04 01:50:21 GMT 40.788803 -119.971191 34,000 347 442 0
2022-07-04 01:50:10 GMT 40.768124 -119.964836 34,000 347 441 0
2022-07-04 01:49:59 GMT 40.746941 -119.958344 34,000 347 441 -64
2022-07-04 01:49:48 GMT 40.725479 -119.951790 34,000 347 441 0
2022-07-04 01:49:39 GMT 40.705788 -119.945801 34,000 347 441 0
2022-07-04 01:49:27 GMT 40.683884 -119.939087 34,000 348 440 0
2022-07-04 01:49:18 GMT 40.662231 -119.932556 34,000 348 440 -64
2022-07-04 01:49:05 GMT 40.640198 -119.925819 34,000 347 439 64
2022-07-04 01:48:56 GMT 40.621159 -119.920082 34,000 348 438 0
2022-07-04 01:48:45 GMT 40.600628 -119.913834 34,000 347 436 0
2022-07-04 01:48:35 GMT 40.579742 -119.907471 34,000 347 434 0
2022-07-04 01:48:24 GMT 40.559280 -119.901123 34,000 347 434 0
2022-07-04 01:48:14 GMT 40.537674 -119.894531 34,000 347 434 0
2022-07-04 01:48:02 GMT 40.517212 -119.888306 34,000 348 433 0
2022-07-04 01:47:59 GMT 40.508881 -119.885803 34,000 348 433 0
2022-07-04 01:47:51 GMT 40.495789 -119.881897 34,000 348 433 0
2022-07-04 01:47:41 GMT 40.475590 -119.875885 34,000 348 433 0
2022-07-04 01:47:30 GMT 40.454033 -119.869392 34,000 347 434 0
2022-07-04 01:47:21 GMT 40.435833 -119.863838 34,000 347 433 0
2022-07-04 01:47:18 GMT 40.430740 -119.862305 34,000 347 433 0
2022-07-04 01:47:11 GMT 40.416420 -119.857971 34,000 347 433 0
2022-07-04 01:47:02 GMT 40.399616 -119.852783 34,000 347 432 0
2022-07-04 01:46:59 GMT 40.393570 -119.850952 34,000 347 432 0
2022-07-04 01:46:50 GMT 40.370041 -119.843811 34,000 347 432 -64
2022-07-04 01:46:39 GMT 40.353012 -119.838562 34,000 347 432 0
2022-07-04 01:46:29 GMT 40.334908 -119.833000 34,000 347 432 0
2022-07-04 01:46:26 GMT 40.329971 -119.831497 34,000 347 432 0
2022-07-04 01:46:21 GMT 40.318085 -119.827881 34,000 347 432 0
2022-07-04 01:46:18 GMT 40.314056 -119.826660 34,000 347 433 0
2022-07-04 01:46:15 GMT 40.305672 -119.824074 34,000 347 433 0
2022-07-04 01:46:10 GMT 40.297806 -119.821701 34,000 347 433 0
2022-07-04 01:46:07 GMT 40.290401 -119.819450 34,000 347 433 0
2022-07-04 01:45:57 GMT 40.273830 -119.814461 34,000 348 433 0
2022-07-04 01:45:54 GMT 40.265778 -119.812027 34,000 348 433 0
2022-07-04 01:45:49 GMT 40.256096 -119.809151 34,000 348 433 -64
2022-07-04 01:45:45 GMT 40.249191 -119.807068 34,000 348 434 -64
2022-07-04 01:45:37 GMT 40.232540 -119.802223 34,000 348 434 0
2022-07-04 01:45:34 GMT 40.228729 -119.801147 34,000 348 434 0
2022-07-04 01:45:27 GMT 40.212845 -119.796448 34,000 348 433 0
2022-07-04 01:45:24 GMT 40.208542 -119.795166 34,000 347 433 64
2022-07-04 01:45:13 GMT 40.184265 -119.787743 34,000 347 433 0
2022-07-04 01:45:04 GMT 40.166855 -119.782501 34,000 348 433 -64
2022-07-04 01:44:59 GMT 40.158985 -119.780128 34,000 348 433 0
2022-07-04 01:44:55 GMT 40.151138 -119.777771 34,000 348 433 64
2022-07-04 01:44:52 GMT 40.146931 -119.776505 34,000 348 433 64
2022-07-04 01:44:46 GMT 40.135292 -119.773010 34,000 348 436 0
2022-07-04 01:44:43 GMT 40.125595 -119.770081 34,000 348 434 0
2022-07-04 01:44:35 GMT 40.109985 -119.765442 34,000 348 434 -64
2022-07-04 01:44:32 GMT 40.106094 -119.764282 34,000 348 434 -64
2022-07-04 01:44:22 GMT 40.085808 -119.758217 34,000 348 434 -64
2022-07-04 01:44:19 GMT 40.080963 -119.756775 34,000 348 434 0
2022-07-04 01:44:16 GMT 40.074875 -119.754944 34,000 347 434 -64
2022-07-04 01:44:13 GMT 40.068924 -119.753174 34,000 347 435 -64
2022-07-04 01:44:09 GMT 40.062855 -119.751350 34,000 347 434 -64
2022-07-04 01:44:05 GMT 40.054459 -119.748840 34,025 348 436 0
2022-07-04 01:44:00 GMT 40.042328 -119.745178 34,000 347 434 0
2022-07-04 01:43:56 GMT 40.035019 -119.742928 34,000 347 434 64
2022-07-04 01:43:52 GMT 40.028183 -119.740906 34,000 347 434 0
2022-07-04 01:43:49 GMT 40.022598 -119.739197 34,000 347 434 0
2022-07-04 01:43:44 GMT 40.012768 -119.736244 34,000 348 433 0
2022-07-04 01:43:40 GMT 40.003006 -119.733337 34,000 348 433 0
2022-07-04 01:43:32 GMT 39.988174 -119.728882 34,000 348 433 0
2022-07-04 01:43:27 GMT 39.979622 -119.726318 34,000 348 433 0
2022-07-04 01:43:24 GMT 39.973755 -119.724571 34,000 348 433 0
2022-07-04 01:43:20 GMT 39.966751 -119.722473 34,000 347 434 0
2022-07-04 01:43:17 GMT 39.959656 -119.720337 34,000 347 434 0
2022-07-04 01:43:12 GMT 39.948990 -119.717140 34,000 347 435 0
2022-07-04 01:43:08 GMT 39.940018 -119.714478 34,000 347 435 0
2022-07-04 01:43:04 GMT 39.933014 -119.712402 34,000 348 434 0
2022-07-04 01:43:00 GMT 39.926178 -119.710342 34,000 348 434 0
2022-07-04 01:42:57 GMT 39.919739 -119.708466 34,000 348 435 -64
2022-07-04 01:42:53 GMT 39.912643 -119.706314 34,000 348 435 0
2022-07-04 01:42:49 GMT 39.905640 -119.704224 34,000 348 435 -64
2022-07-04 01:42:45 GMT 39.897503 -119.701843 34,000 348 435 -64
2022-07-04 01:42:40 GMT 39.884933 -119.698120 34,000 348 434 -64
2022-07-04 01:42:37 GMT 39.879906 -119.696594 34,000 348 434 0
2022-07-04 01:42:33 GMT 39.871803 -119.694214 34,000 348 434 0
2022-07-04 01:42:29 GMT 39.863052 -119.691589 34,000 348 434 0
2022-07-04 01:42:25 GMT 39.857346 -119.689957 34,000 348 434 0
2022-07-04 01:42:22 GMT 39.851578 -119.688225 34,000 348 434 0
2022-07-04 01:42:16 GMT 39.838753 -119.684448 34,000 348 434 0
2022-07-04 01:42:11 GMT 39.831444 -119.682251 34,000 348 435 0
2022-07-04 01:42:08 GMT 39.823299 -119.679871 34,000 348 435 0
2022-07-04 01:42:05 GMT 39.818409 -119.678406 34,000 348 436 0
2022-07-04 01:42:01 GMT 39.811249 -119.676285 34,000 348 436 0
2022-07-04 01:41:57 GMT 39.802814 -119.673767 34,000 348 436 0
2022-07-04 01:41:51 GMT 39.790619 -119.670105 34,000 348 437 0
2022-07-04 01:41:47 GMT 39.781307 -119.667358 34,000 348 436 0
2022-07-04 01:41:43 GMT 39.776375 -119.665894 34,000 348 436 0
2022-07-04 01:41:39 GMT 39.764557 -119.662369 34,000 348 436 0
2022-07-04 01:41:34 GMT 39.755081 -119.659622 34,000 348 436 0
2022-07-04 01:41:29 GMT 39.746887 -119.657173 34,000 348 436 0
2022-07-04 01:41:25 GMT 39.739830 -119.655090 34,000 348 436 0
2022-07-04 01:41:22 GMT 39.734894 -119.653648 34,000 348 436 -64
2022-07-04 01:41:19 GMT 39.729126 -119.651978 34,000 348 436 -64
2022-07-04 01:41:16 GMT 39.719719 -119.649170 34,000 348 437 -64
2022-07-04 01:41:13 GMT 39.714432 -119.647621 34,000 348 437 0
2022-07-04 01:41:09 GMT 39.707291 -119.645470 34,000 348 437 64
2022-07-04 01:41:05 GMT 39.699829 -119.643265 34,000 348 437 64
2022-07-04 01:41:02 GMT 39.694656 -119.641708 34,000 348 437 64
2022-07-04 01:40:59 GMT 39.688477 -119.639915 34,000 348 437 0
2022-07-04 01:40:55 GMT 39.678406 -119.636932 34,000 348 436 0
2022-07-04 01:40:52 GMT 39.672775 -119.635262 34,000 348 435 0
2022-07-04 01:40:47 GMT 39.666229 -119.633301 34,000 348 435 0
2022-07-04 01:40:44 GMT 39.657898 -119.630844 34,000 348 435 0
2022-07-04 01:40:40 GMT 39.650757 -119.628754 34,000 348 435 0
2022-07-04 01:40:36 GMT 39.641876 -119.626129 34,000 348 434 0
2022-07-04 01:40:31 GMT 39.631226 -119.622986 34,000 348 434 0
2022-07-04 01:40:28 GMT 39.627365 -119.621826 34,000 348 434 0
2022-07-04 01:40:25 GMT 39.621506 -119.620094 34,000 348 434 0
2022-07-04 01:40:22 GMT 39.616241 -119.618546 34,000 348 434 0
2022-07-04 01:40:15 GMT 39.600128 -119.613831 34,000 348 434 0
2022-07-04 01:40:10 GMT 39.592026 -119.611435 34,000 348 433 0
2022-07-04 01:40:07 GMT 39.586212 -119.609711 34,000 348 433 0
2022-07-04 01:40:04 GMT 39.580902 -119.608154 34,000 348 433 0
2022-07-04 01:40:00 GMT 39.570831 -119.605171 34,000 348 433 -64
2022-07-04 01:39:56 GMT 39.564880 -119.603439 34,000 348 433 -64
2022-07-04 01:39:52 GMT 39.554600 -119.600342 34,000 348 433 -64
2022-07-04 01:39:46 GMT 39.544357 -119.597290 34,000 348 432 -64
2022-07-04 01:39:43 GMT 39.539425 -119.595825 34,000 348 432 -64
2022-07-04 01:39:40 GMT 39.534210 -119.594299 34,000 348 432 -64
2022-07-04 01:39:36 GMT 39.526340 -119.591980 34,000 348 431 0
2022-07-04 01:39:30 GMT 39.514610 -119.588501 34,000 348 431 0
2022-07-04 01:39:23 GMT 39.499191 -119.583969 34,000 348 430 0
2022-07-04 01:39:20 GMT 39.494175 -119.582520 34,000 348 430 64
2022-07-04 01:39:13 GMT 39.479691 -119.578239 34,000 348 431 64
2022-07-04 01:39:10 GMT 39.473877 -119.576538 34,000 348 431 64
2022-07-04 01:39:02 GMT 39.458141 -119.571899 34,000 348 431 0
2022-07-04 01:38:59 GMT 39.453068 -119.570435 34,000 348 432 0
2022-07-04 01:38:52 GMT 39.439522 -119.566467 34,000 348 432 0
2022-07-04 01:38:48 GMT 39.433331 -119.564636 34,000 348 432 0
2022-07-04 01:38:44 GMT 39.425446 -119.562355 34,000 348 432 -64
2022-07-04 01:38:41 GMT 39.417252 -119.559967 34,000 348 432 -64
2022-07-04 01:38:38 GMT 39.413311 -119.558777 34,000 348 433 -64
2022-07-04 01:38:34 GMT 39.398254 -119.554359 34,000 348 433 0
2022-07-04 01:38:31 GMT 39.391201 -119.552246 34,000 348 433 0
2022-07-04 01:38:28 GMT 39.391201 -119.552246 34,000 348 433 0
2022-07-04 01:38:24 GMT 39.384216 -119.550171 34,000 348 433 0
2022-07-04 01:38:19 GMT 39.374908 -119.547424 34,000 348 433 0
2022-07-04 01:38:16 GMT 39.367599 -119.545288 34,000 348 432 0
2022-07-04 01:38:11 GMT 39.358242 -119.542542 34,000 348 432 0
2022-07-04 01:38:07 GMT 39.351490 -119.540527 34,000 348 432 0
2022-07-04 01:38:04 GMT 39.347534 -119.539368 34,000 348 433 0
2022-07-04 01:38:01 GMT 39.341576 -119.537659 34,000 348 433 0
2022-07-04 01:37:57 GMT 39.334126 -119.535461 34,000 348 433 0
2022-07-04 01:37:53 GMT 39.323513 -119.532288 34,000 348 433 0
2022-07-04 01:37:50 GMT 39.317650 -119.530579 34,000 348 432 0
2022-07-04 01:37:47 GMT 39.311550 -119.528809 34,000 348 432 0
2022-07-04 01:37:41 GMT 39.302284 -119.526062 34,000 348 432 0
2022-07-04 01:37:36 GMT 39.290176 -119.522530 34,000 348 432 0
2022-07-04 01:37:32 GMT 39.283852 -119.520691 34,000 348 432 0
2022-07-04 01:37:28 GMT 39.273888 -119.517761 34,000 348 433 64
2022-07-04 01:37:25 GMT 39.270069 -119.516663 34,000 348 433 64
2022-07-04 01:37:22 GMT 39.262161 -119.514351 34,000 348 433 0
2022-07-04 01:37:16 GMT 39.253544 -119.511841 34,000 348 433 -64
2022-07-04 01:37:13 GMT 39.246597 -119.509811 34,000 348 433 -64
2022-07-04 01:37:07 GMT 39.233852 -119.506104 34,000 348 433 -64
2022-07-04 01:37:00 GMT 39.221378 -119.502502 34,000 348 433 0
2022-07-04 01:36:57 GMT 39.214508 -119.500443 34,000 348 433 0
2022-07-04 01:36:54 GMT 39.209415 -119.498962 34,000 348 433 0
2022-07-04 01:36:50 GMT 39.202286 -119.496857 34,000 348 433 0
2022-07-04 01:36:46 GMT 39.192810 -119.494110 34,000 348 433 0
2022-07-04 01:36:41 GMT 39.183609 -119.491364 34,000 348 433 0
2022-07-04 01:36:37 GMT 39.174595 -119.488770 34,000 348 433 0
2022-07-04 01:36:33 GMT 39.168961 -119.487129 34,000 348 433 0
2022-07-04 01:36:30 GMT 39.161278 -119.484863 34,000 348 433 0
2022-07-04 01:36:23 GMT 39.149139 -119.481331 34,000 348 433 0
2022-07-04 01:36:19 GMT 39.141308 -119.479004 34,000 348 433 0
2022-07-04 01:36:16 GMT 39.134262 -119.476974 34,000 348 432 64
2022-07-04 01:36:13 GMT 39.127716 -119.475037 34,000 348 432 0
2022-07-04 01:36:09 GMT 39.120026 -119.472794 34,000 348 432 0
2022-07-04 01:36:04 GMT 39.110870 -119.470169 34,000 348 432 0
2022-07-04 01:35:58 GMT 39.098740 -119.466644 34,000 348 432 0
2022-07-04 01:35:55 GMT 39.093361 -119.465088 34,000 348 432 0
2022-07-04 01:35:51 GMT 39.084869 -119.462646 34,000 348 431 0
2022-07-04 01:35:46 GMT 39.075623 -119.459961 34,000 348 431 0
2022-07-04 01:35:43 GMT 39.070686 -119.458557 34,000 348 431 0
2022-07-04 01:35:39 GMT 39.063629 -119.456497 34,000 348 431 0
2022-07-04 01:35:36 GMT 39.055607 -119.454163 34,000 348 431 0
2022-07-04 01:35:33 GMT 39.049255 -119.452377 34,000 348 431 0
2022-07-04 01:35:30 GMT 39.043129 -119.450623 34,000 348 431 0
2022-07-04 01:35:25 GMT 39.034012 -119.447960 34,000 348 431 -64
2022-07-04 01:35:20 GMT 39.025951 -119.445618 34,000 348 431 -64
2022-07-04 01:35:16 GMT 39.019272 -119.443657 34,000 348 431 0
2022-07-04 01:35:12 GMT 39.009476 -119.440849 34,000 348 430 0
2022-07-04 01:35:07 GMT 38.999863 -119.438042 34,000 348 430 0
2022-07-04 01:35:03 GMT 38.990936 -119.435478 34,000 348 430 64
2022-07-04 01:35:00 GMT 38.988098 -119.434639 34,000 348 431 0
2022-07-04 01:34:56 GMT 38.980286 -119.432373 34,000 348 430 64
2022-07-04 01:34:51 GMT 38.968086 -119.428833 34,000 348 430 64
2022-07-04 01:34:45 GMT 38.959030 -119.426224 34,000 348 430 64
2022-07-04 01:34:42 GMT 38.951111 -119.423950 34,000 348 431 0
2022-07-04 01:34:36 GMT 38.939301 -119.420547 34,000 348 431 0
2022-07-04 01:34:31 GMT 38.929497 -119.417664 34,000 348 431 0
2022-07-04 01:34:25 GMT 38.917969 -119.414345 34,000 348 432 0
2022-07-04 01:34:19 GMT 38.907150 -119.411194 34,000 348 433 0
2022-07-04 01:34:13 GMT 38.897232 -119.408371 34,000 348 433 0
2022-07-04 01:34:09 GMT 38.887161 -119.405441 34,000 348 433 0
2022-07-04 01:34:04 GMT 38.877548 -119.402641 34,000 348 434 0
2022-07-04 01:33:58 GMT 38.866463 -119.399414 34,000 348 434 -64
2022-07-04 01:33:52 GMT 38.854176 -119.395874 34,000 348 434 0
2022-07-04 01:33:49 GMT 38.848450 -119.394226 34,000 348 435 0
2022-07-04 01:33:46 GMT 38.844025 -119.392944 34,000 348 435 0
2022-07-04 01:33:43 GMT 38.834480 -119.390137 34,000 348 435 64
2022-07-04 01:33:37 GMT 38.823029 -119.386841 34,000 348 435 0
2022-07-04 01:33:32 GMT 38.815163 -119.384583 34,000 348 435 -64
2022-07-04 01:33:26 GMT 38.804947 -119.381683 34,000 348 435 -64
2022-07-04 01:33:22 GMT 38.794495 -119.378662 34,000 348 435 -64
2022-07-04 01:33:17 GMT 38.784302 -119.375710 34,025 348 434 0
2022-07-04 01:33:13 GMT 38.777023 -119.373619 34,000 348 434 64
2022-07-04 01:33:10 GMT 38.773079 -119.372498 34,000 348 434 64
2022-07-04 01:33:04 GMT 38.757431 -119.368004 34,000 348 434 64
2022-07-04 01:33:01 GMT 38.752735 -119.366638 34,000 348 434 64
2022-07-04 01:32:56 GMT 38.742828 -119.363770 34,000 348 434 0
2022-07-04 01:32:49 GMT 38.731979 -119.360664 34,000 348 434 0
2022-07-04 01:32:44 GMT 38.722275 -119.357857 34,000 348 433 -64
2022-07-04 01:32:40 GMT 38.711563 -119.354752 34,000 348 433 0
2022-07-04 01:32:35 GMT 38.702320 -119.352051 34,000 348 433 0
2022-07-04 01:32:31 GMT 38.695999 -119.350273 34,000 348 433 0
2022-07-04 01:32:28 GMT 38.690872 -119.348778 34,000 348 433 0
2022-07-04 01:32:24 GMT 38.681717 -119.346153 34,000 348 433 -64
2022-07-04 01:32:20 GMT 38.674759 -119.344124 34,000 348 433 -64
2022-07-04 01:32:14 GMT 38.661587 -119.340332 34,000 348 433 0
2022-07-04 01:32:08 GMT 38.649529 -119.336853 34,000 348 434 64
2022-07-04 01:32:02 GMT 38.639336 -119.333984 34,000 348 435 0
2022-07-04 01:31:59 GMT 38.633282 -119.332214 34,000 348 435 0
2022-07-04 01:31:56 GMT 38.625648 -119.330017 34,000 348 436 0
2022-07-04 01:31:53 GMT 38.619919 -119.328362 34,000 348 436 0
2022-07-04 01:31:50 GMT 38.613686 -119.326538 34,000 348 437 0
2022-07-04 01:31:46 GMT 38.607773 -119.324890 34,000 348 437 0
2022-07-04 01:31:42 GMT 38.599209 -119.322388 34,000 348 437 0
2022-07-04 01:31:39 GMT 38.594227 -119.320984 34,000 348 438 0
2022-07-04 01:31:36 GMT 38.586090 -119.318626 34,000 348 438 64
2022-07-04 01:31:32 GMT 38.577793 -119.316223 34,000 348 439 0
2022-07-04 01:31:27 GMT 38.570801 -119.314209 34,000 348 439 0
2022-07-04 01:31:24 GMT 38.564991 -119.312561 34,000 348 440 0
2022-07-04 01:31:19 GMT 38.552513 -119.309021 34,000 348 440 -64
2022-07-04 01:31:15 GMT 38.543858 -119.306519 34,000 348 440 -64
2022-07-04 01:31:10 GMT 38.536972 -119.304535 34,000 348 440 -64
2022-07-04 01:31:07 GMT 38.531612 -119.302979 34,000 348 440 -64
2022-07-04 01:31:02 GMT 38.521420 -119.300110 34,000 348 440 64
2022-07-04 01:30:58 GMT 38.511658 -119.297310 34,000 348 440 64
2022-07-04 01:30:54 GMT 38.495544 -119.292656 34,000 348 441 64
2022-07-04 01:30:49 GMT 38.495544 -119.292656 34,000 348 441 64
2022-07-04 01:30:45 GMT 38.487434 -119.290344 34,000 348 441 64
2022-07-04 01:30:40 GMT 38.474541 -119.286682 34,000 348 442 0
2022-07-04 01:30:36 GMT 38.469746 -119.285339 34,000 348 442 0
2022-07-04 01:30:27 GMT 38.449356 -119.279518 34,000 348 443 -128
2022-07-04 01:30:21 GMT 38.438461 -119.276367 34,000 348 443 -128
2022-07-04 01:30:18 GMT 38.416077 -119.270027 34,025 348 442 0
2022-07-04 01:30:11 GMT 38.416077 -119.270027 34,000 348 442 0
2022-07-04 01:30:08 GMT 38.412159 -119.268890 34,000 348 442 64
2022-07-04 01:29:58 GMT 38.391117 -119.262863 34,000 348 442 64
2022-07-04 01:29:46 GMT 38.368076 -119.256355 34,000 348 442 0
2022-07-04 01:29:35 GMT 38.344193 -119.249542 34,000 348 442 0
2022-07-04 01:29:26 GMT 38.328003 -119.244965 34,000 348 442 0
2022-07-04 01:29:23 GMT 38.323246 -119.243576 34,000 348 442 0
2022-07-04 01:29:16 GMT 38.307449 -119.239120 34,000 348 442 -64
2022-07-04 01:29:13 GMT 38.302250 -119.237663 34,000 348 442 0
2022-07-04 01:29:03 GMT 38.280396 -119.231461 34,000 348 442 64
2022-07-04 01:28:52 GMT 38.258789 -119.225388 34,000 348 442 0
2022-07-04 01:28:43 GMT 38.242897 -119.220886 34,000 348 442 -64
2022-07-04 01:28:40 GMT 38.234749 -119.218620 34,000 348 442 -64
2022-07-04 01:28:33 GMT 38.223808 -119.215515 34,000 348 442 -64
2022-07-04 01:28:30 GMT 38.214798 -119.212936 34,000 348 442 -64
2022-07-04 01:28:24 GMT 38.203125 -119.209663 34,000 348 441 0
2022-07-04 01:28:18 GMT 38.192619 -119.206673 34,025 348 441 0
2022-07-04 01:28:12 GMT 38.181747 -119.203590 34,025 348 441 -64
2022-07-04 01:28:07 GMT 38.171494 -119.200722 34,025 348 441 -64
2022-07-04 01:28:03 GMT 38.161243 -119.197777 34,025 348 440 -64
2022-07-04 01:27:58 GMT 38.151001 -119.194855 34,025 348 440 -64
2022-07-04 01:27:52 GMT 38.140549 -119.191902 34,025 348 440 0
2022-07-04 01:27:47 GMT 38.129471 -119.188690 34,025 348 439 64
2022-07-04 01:27:42 GMT 38.119263 -119.185768 34,000 348 438 64
2022-07-04 01:27:35 GMT 38.107819 -119.182495 34,000 348 438 128
2022-07-04 01:27:31 GMT 38.098572 -119.179863 34,000 348 437 64
2022-07-04 01:27:24 GMT 38.086121 -119.176300 34,000 348 436 64
2022-07-04 01:27:21 GMT 38.078018 -119.174019 34,000 348 435 64
2022-07-04 01:27:15 GMT 38.063854 -119.170013 34,000 348 434 64
2022-07-04 01:27:10 GMT 38.057899 -119.168282 34,000 348 434 64
2022-07-04 01:27:02 GMT 38.040848 -119.163498 34,000 348 434 0
2022-07-04 01:26:59 GMT 38.037460 -119.162552 34,000 348 434 0
2022-07-04 01:26:53 GMT 38.022240 -119.158249 34,000 348 435 0
2022-07-04 01:26:49 GMT 38.016861 -119.156776 34,000 348 436 0
2022-07-04 01:26:46 GMT 38.011826 -119.155319 34,000 348 436 0
2022-07-04 01:26:42 GMT 38.001335 -119.152405 34,000 348 437 -64
2022-07-04 01:26:38 GMT 37.996170 -119.150932 34,000 348 438 -64
2022-07-04 01:26:31 GMT 37.979370 -119.146202 34,000 348 439 -64
2022-07-04 01:26:28 GMT 37.974426 -119.144798 34,000 348 439 -64
2022-07-04 01:26:22 GMT 37.964401 -119.141998 34,000 348 439 -64
2022-07-04 01:26:19 GMT 37.956711 -119.139832 34,000 348 440 0
2022-07-04 01:26:16 GMT 37.948975 -119.137672 34,000 348 440 0
2022-07-04 01:26:06 GMT 37.930984 -119.132584 34,000 348 442 0
2022-07-04 01:25:59 GMT 37.915237 -119.128143 34,000 348 442 0
2022-07-04 01:25:56 GMT 37.909286 -119.126450 34,000 348 443 0
2022-07-04 01:25:47 GMT 37.891613 -119.121475 34,000 348 444 0
2022-07-04 01:25:44 GMT 37.887360 -119.120255 34,000 348 444 64
2022-07-04 01:25:37 GMT 37.870804 -119.115623 34,000 348 446 64
2022-07-04 01:25:34 GMT 37.867825 -119.114784 34,000 348 446 64
2022-07-04 01:25:28 GMT 37.855087 -119.111198 34,000 348 447 0
2022-07-04 01:25:24 GMT 37.846691 -119.108810 34,000 348 447 0
2022-07-04 01:25:19 GMT 37.834854 -119.105469 34,000 348 448 -64
2022-07-04 01:25:16 GMT 37.830872 -119.104362 34,000 348 448 0
2022-07-04 01:25:13 GMT 37.824417 -119.102547 34,000 348 448 0
2022-07-04 01:25:08 GMT 37.814529 -119.099800 34,000 348 448 0
2022-07-04 01:25:03 GMT 37.797775 -119.095070 34,000 348 448 0
2022-07-04 01:24:58 GMT 37.793518 -119.093903 34,000 348 448 0
2022-07-04 01:24:54 GMT 37.786171 -119.091858 34,000 348 448 0
2022-07-04 01:24:48 GMT 37.758224 -119.084023 34,000 348 447 0
2022-07-04 01:24:40 GMT 37.758224 -119.084023 34,000 348 447 0
2022-07-04 01:24:37 GMT 37.751259 -119.082062 34,000 348 447 0
2022-07-04 01:24:31 GMT 37.738178 -119.078423 34,000 348 447 0
2022-07-04 01:24:27 GMT 37.731194 -119.076454 34,000 348 447 0
2022-07-04 01:24:24 GMT 37.724258 -119.074501 34,000 348 447 64
2022-07-04 01:24:17 GMT 37.710068 -119.070465 34,000 348 447 64
2022-07-04 01:24:12 GMT 37.700096 -119.067673 34,000 348 447 0
2022-07-04 01:24:05 GMT 37.687855 -119.064270 34,000 348 447 0
2022-07-04 01:24:02 GMT 37.680634 -119.062225 34,000 348 447 0
2022-07-04 01:23:57 GMT 37.671795 -119.059731 34,000 348 447 0
2022-07-04 01:23:51 GMT 37.658066 -119.055916 34,000 348 447 0
2022-07-04 01:23:47 GMT 37.651978 -119.054222 34,000 348 447 0
2022-07-04 01:23:44 GMT 37.641907 -119.051437 34,000 348 447 0
2022-07-04 01:23:41 GMT 37.638336 -119.050423 34,000 348 446 0
2022-07-04 01:23:35 GMT 37.625839 -119.046974 34,000 348 446 0
2022-07-04 01:23:30 GMT 37.615513 -119.044090 34,000 348 446 0
2022-07-04 01:23:24 GMT 37.604279 -119.040955 34,000 348 445 0
2022-07-04 01:23:19 GMT 37.595493 -119.038536 34,000 348 445 0
2022-07-04 01:23:15 GMT 37.584869 -119.035637 34,000 348 445 0
2022-07-04 01:23:10 GMT 37.575336 -119.032982 34,000 348 445 0
2022-07-04 01:23:04 GMT 37.563095 -119.029579 34,000 348 445 0
2022-07-04 01:22:59 GMT 37.551361 -119.026344 34,000 348 445 0
2022-07-04 01:22:54 GMT 37.543495 -119.024147 34,000 348 445 0
2022-07-04 01:22:50 GMT 37.537582 -119.022491 34,000 348 445 0
2022-07-04 01:22:48 GMT 37.533253 -119.021339 34,000 348 445 0
2022-07-04 01:22:44 GMT 37.522659 -119.018341 34,000 348 445 0
2022-07-04 01:22:38 GMT 37.512085 -119.015419 34,000 348 444 0
2022-07-04 01:22:33 GMT 37.501644 -119.012505 34,000 348 444 0
2022-07-04 01:22:30 GMT 37.495285 -119.010742 34,000 348 444 0
2022-07-04 01:22:27 GMT 37.490471 -119.009399 34,000 348 444 0
2022-07-04 01:22:23 GMT 37.481369 -119.006889 34,000 348 445 0
2022-07-04 01:22:20 GMT 37.475510 -119.005249 34,000 348 444 0
2022-07-04 01:22:18 GMT 37.469662 -119.003670 34,000 348 444 0
2022-07-04 01:22:13 GMT 37.460266 -119.001045 34,000 348 445 0
2022-07-04 01:22:05 GMT 37.443222 -118.996323 34,000 348 445 0
2022-07-04 01:22:01 GMT 37.438381 -118.994949 34,000 348 445 0
2022-07-04 01:21:57 GMT 37.428230 -118.992142 34,000 348 445 0
2022-07-04 01:21:51 GMT 37.418610 -118.989471 34,000 348 445 0
2022-07-04 01:21:46 GMT 37.406891 -118.986198 34,000 348 445 0
2022-07-04 01:21:42 GMT 37.397461 -118.983627 34,000 348 445 0
2022-07-04 01:21:36 GMT 37.385696 -118.980354 34,000 348 445 0
2022-07-04 01:21:31 GMT 37.376770 -118.977844 34,000 348 445 0
2022-07-04 01:21:27 GMT 37.369446 -118.975800 34,000 348 445 0
2022-07-04 01:21:23 GMT 37.359421 -118.972992 34,000 348 445 0
2022-07-04 01:21:20 GMT 37.356075 -118.972084 34,000 348 445 0
2022-07-04 01:21:17 GMT 37.348812 -118.970055 34,000 348 445 0
2022-07-04 01:21:14 GMT 37.341042 -118.967903 34,000 348 445 0
2022-07-04 01:21:11 GMT 37.335159 -118.966270 34,000 348 445 0
2022-07-04 01:21:07 GMT 37.328796 -118.964500 34,000 348 445 0
2022-07-04 01:21:00 GMT 37.314037 -118.960442 34,000 348 445 0
2022-07-04 01:20:57 GMT 37.308964 -118.959007 34,000 348 445 0
2022-07-04 01:20:54 GMT 37.301743 -118.957039 34,000 348 445 0
2022-07-04 01:20:51 GMT 37.295151 -118.955170 34,000 348 445 0
2022-07-04 01:20:47 GMT 37.289383 -118.953590 34,000 348 445 0
2022-07-04 01:20:43 GMT 37.280228 -118.951080 34,000 348 445 0
2022-07-04 01:20:38 GMT 37.268696 -118.947838 34,000 348 445 0
2022-07-04 01:20:30 GMT 37.251938 -118.943192 34,000 348 445 0
2022-07-04 01:20:27 GMT 37.247589 -118.941963 34,000 348 445 0
2022-07-04 01:20:18 GMT 37.230927 -118.937401 34,000 348 445 -64
2022-07-04 01:20:15 GMT 37.224148 -118.935478 34,000 348 445 0
2022-07-04 01:20:09 GMT 37.210052 -118.931618 34,000 348 445 0
2022-07-04 01:20:02 GMT 37.196777 -118.927940 34,000 348 445 0
2022-07-04 01:19:58 GMT 37.189606 -118.925987 34,000 348 445 0
2022-07-04 01:19:55 GMT 37.183823 -118.924370 34,000 348 445 0
2022-07-04 01:19:50 GMT 37.172985 -118.921387 34,000 348 446 0
2022-07-04 01:19:47 GMT 37.168701 -118.920197 34,000 348 446 0
2022-07-04 01:19:44 GMT 37.162399 -118.918472 34,000 348 446 0
2022-07-04 01:19:39 GMT 37.151432 -118.915421 34,000 348 446 0
2022-07-04 01:19:37 GMT 37.147156 -118.914261 34,000 348 446 0
2022-07-04 01:19:34 GMT 37.138908 -118.911957 34,000 348 446 0
2022-07-04 01:19:30 GMT 37.132858 -118.910286 34,000 348 446 0
2022-07-04 01:19:26 GMT 37.126053 -118.908417 34,000 348 446 0
2022-07-04 01:19:20 GMT 37.111816 -118.904495 34,000 348 446 0
2022-07-04 01:19:16 GMT 37.103718 -118.902283 34,000 348 446 0
2022-07-04 01:19:12 GMT 37.096436 -118.900299 34,000 348 446 -64
2022-07-04 01:19:07 GMT 37.085541 -118.897316 34,000 348 446 0
2022-07-04 01:19:03 GMT 37.078491 -118.895386 34,000 348 446 0
2022-07-04 01:18:56 GMT 37.064987 -118.891708 34,000 348 446 0
2022-07-04 01:18:53 GMT 37.057213 -118.889565 34,000 348 446 0
2022-07-04 01:18:44 GMT 37.040039 -118.884865 34,000 348 446 0
2022-07-04 01:18:38 GMT 37.028503 -118.881714 34,000 348 446 0
2022-07-04 01:18:34 GMT 37.018295 -118.878906 34,000 348 446 0
2022-07-04 01:18:29 GMT 37.009914 -118.876610 34,000 348 446 0
2022-07-04 01:18:23 GMT 36.998043 -118.873383 34,000 348 445 0
2022-07-04 01:18:19 GMT 36.988770 -118.870842 34,000 348 445 0
2022-07-04 01:18:13 GMT 36.976318 -118.867393 34,000 348 445 0
2022-07-04 01:18:08 GMT 36.968388 -118.865204 34,000 348 445 0
2022-07-04 01:18:05 GMT 36.960056 -118.862938 34,000 348 445 0
2022-07-04 01:18:01 GMT 36.954254 -118.861374 34,000 348 445 0
2022-07-04 01:17:56 GMT 36.944042 -118.858574 34,000 348 445 0
2022-07-04 01:17:54 GMT 36.939972 -118.857460 34,000 348 445 0
2022-07-04 01:17:51 GMT 36.931801 -118.855232 34,000 348 445 0
2022-07-04 01:17:48 GMT 36.927982 -118.854156 34,000 348 445 0
2022-07-04 01:17:44 GMT 36.918961 -118.851730 34,000 348 445 0
2022-07-04 01:17:37 GMT 36.906708 -118.848366 34,000 348 445 0
2022-07-04 01:17:33 GMT 36.895981 -118.845421 34,000 348 445 0
2022-07-04 01:17:28 GMT 36.886459 -118.842796 34,000 348 445 0
2022-07-04 01:17:22 GMT 36.876217 -118.840004 34,000 348 445 0
2022-07-04 01:17:17 GMT 36.865322 -118.837021 34,000 348 445 0
2022-07-04 01:17:13 GMT 36.856384 -118.834572 34,000 348 445 0
2022-07-04 01:17:09 GMT 36.848145 -118.832336 34,000 348 445 0
2022-07-04 01:17:06 GMT 36.842102 -118.830643 34,000 348 445 0
2022-07-04 01:17:03 GMT 36.834595 -118.828644 34,000 348 445 0
2022-07-04 01:16:59 GMT 36.828594 -118.826958 34,000 348 445 0
2022-07-04 01:16:55 GMT 36.821777 -118.825089 34,000 348 445 0
2022-07-04 01:16:52 GMT 36.813446 -118.822800 34,000 348 445 0
2022-07-04 01:16:49 GMT 36.807365 -118.821175 34,000 348 445 0
2022-07-04 01:16:45 GMT 36.801590 -118.819595 34,000 348 445 0
2022-07-04 01:16:38 GMT 36.784378 -118.814850 34,000 348 445 0
2022-07-04 01:16:32 GMT 36.772888 -118.811760 34,000 348 446 0
2022-07-04 01:16:20 GMT 36.751316 -118.805862 34,000 348 446 0
2022-07-04 01:16:15 GMT 36.738514 -118.802353 34,000 348 446 0
2022-07-04 01:16:10 GMT 36.731186 -118.800369 34,000 348 446 0
2022-07-04 01:16:01 GMT 36.711609 -118.794991 34,000 348 446 0
2022-07-04 01:15:50 GMT 36.689495 -118.788971 34,000 348 447 0
2022-07-04 01:15:42 GMT 36.673016 -118.784531 34,000 348 447 0
2022-07-04 01:15:39 GMT 36.668312 -118.783241 34,000 348 447 0
2022-07-04 01:15:30 GMT 36.648903 -118.777985 34,000 348 447 0
2022-07-04 01:15:19 GMT 36.627457 -118.772102 34,000 348 448 0
2022-07-04 01:15:12 GMT 36.611008 -118.767700 34,000 348 448 0
2022-07-04 01:15:08 GMT 36.605236 -118.766121 34,000 348 448 0
2022-07-04 01:14:59 GMT 36.585663 -118.760780 34,000 348 449 0
2022-07-04 01:14:51 GMT 36.569157 -118.756302 34,000 348 449 0
2022-07-04 01:14:47 GMT 36.563232 -118.754707 34,000 348 449 0
2022-07-04 01:14:44 GMT 36.555038 -118.752480 34,000 348 449 0
2022-07-04 01:14:40 GMT 36.547695 -118.750519 34,000 348 449 0
2022-07-04 01:14:37 GMT 36.541901 -118.748932 34,000 348 450 0
2022-07-04 01:14:28 GMT 36.521530 -118.743439 34,000 348 450 0
2022-07-04 01:14:22 GMT 36.510967 -118.740585 34,000 348 451 0
2022-07-04 01:14:19 GMT 36.505611 -118.739120 34,000 348 451 0
2022-07-04 01:14:16 GMT 36.500656 -118.737778 34,000 348 451 0
2022-07-04 01:14:12 GMT 36.480103 -118.732231 34,000 348 453 0
2022-07-04 01:14:07 GMT 36.480103 -118.732231 34,000 348 451 0
2022-07-04 01:14:04 GMT 36.471909 -118.730011 34,000 348 452 0
2022-07-04 01:13:59 GMT 36.462845 -118.727531 34,000 348 452 0
2022-07-04 01:13:54 GMT 36.452774 -118.724838 34,000 348 452 0
2022-07-04 01:13:50 GMT 36.447052 -118.723244 34,000 348 452 0
2022-07-04 01:13:46 GMT 36.437531 -118.720718 34,000 348 452 0
2022-07-04 01:13:43 GMT 36.430435 -118.718781 34,000 348 452 0
2022-07-04 01:13:40 GMT 36.424255 -118.717117 34,000 348 452 0
2022-07-04 01:13:36 GMT 36.416931 -118.715103 34,000 348 453 0
2022-07-04 01:13:31 GMT 36.405853 -118.712082 34,000 348 453 0
2022-07-04 01:13:24 GMT 36.393887 -118.708855 34,000 348 453 0
2022-07-04 01:13:20 GMT 36.383102 -118.705956 34,000 348 453 0
2022-07-04 01:13:16 GMT 36.375359 -118.703827 34,000 348 453 0
2022-07-04 01:13:11 GMT 36.365677 -118.701195 34,000 348 453 0
2022-07-04 01:13:08 GMT 36.361404 -118.700066 34,000 348 453 0
2022-07-04 01:13:05 GMT 36.355225 -118.698402 34,000 348 453 0
2022-07-04 01:13:02 GMT 36.348080 -118.696465 34,000 348 453 0
2022-07-04 01:12:59 GMT 36.340393 -118.694405 34,000 348 453 0
2022-07-04 01:12:55 GMT 36.331646 -118.692024 34,000 348 453 0
2022-07-04 01:12:47 GMT 36.317001 -118.688110 34,000 348 453 0
2022-07-04 01:12:44 GMT 36.310730 -118.686447 34,000 348 453 0
2022-07-04 01:12:37 GMT 36.296734 -118.682671 34,000 348 453 0
2022-07-04 01:12:28 GMT 36.275272 -118.676949 34,000 348 453 0
2022-07-04 01:12:24 GMT 36.267838 -118.674950 34,000 348 453 0
2022-07-04 01:12:17 GMT 36.253784 -118.671165 34,000 348 453 0
2022-07-04 01:12:13 GMT 36.246922 -118.669350 34,000 348 453 0
2022-07-04 01:12:08 GMT 36.234306 -118.666016 34,000 348 453 0
2022-07-04 01:12:03 GMT 36.225861 -118.663734 34,000 348 453 0
2022-07-04 01:11:57 GMT 36.212769 -118.660240 34,000 348 453 0
2022-07-04 01:11:54 GMT 36.209820 -118.659470 34,000 348 453 0
2022-07-04 01:11:51 GMT 36.202045 -118.657425 34,000 348 453 0
2022-07-04 01:11:44 GMT 36.187614 -118.653572 34,000 348 453 0
2022-07-04 01:11:41 GMT 36.182602 -118.652229 34,000 348 453 0
2022-07-04 01:11:35 GMT 36.167179 -118.648132 34,000 348 452 0
2022-07-04 01:11:31 GMT 36.161957 -118.646736 34,000 348 452 0
2022-07-04 01:11:27 GMT 36.151794 -118.643990 34,000 348 452 0
2022-07-04 01:11:22 GMT 36.140762 -118.641068 34,000 348 451 0
2022-07-04 01:11:14 GMT 36.124146 -118.636604 34,000 348 451 0
2022-07-04 01:11:11 GMT 36.112152 -118.633354 34,000 348 451 0
2022-07-04 01:11:08 GMT 36.112152 -118.633354 34,000 348 451 0
2022-07-04 01:11:01 GMT 36.099472 -118.629974 34,000 348 450 0
2022-07-04 01:10:58 GMT 36.092148 -118.627968 34,000 348 450 0
2022-07-04 01:10:53 GMT 36.081989 -118.625229 34,000 348 450 0
2022-07-04 01:10:50 GMT 36.076309 -118.623672 34,000 348 450 0
2022-07-04 01:10:47 GMT 36.069839 -118.621956 34,000 348 450 0
2022-07-04 01:10:40 GMT 36.055359 -118.618042 34,000 348 449 64
2022-07-04 01:10:32 GMT 36.039047 -118.613663 34,000 348 449 0
2022-07-04 01:10:29 GMT 36.035156 -118.612602 34,000 348 449 0
2022-07-04 01:10:26 GMT 36.027569 -118.610558 34,000 348 449 0
2022-07-04 01:10:20 GMT 36.014858 -118.607117 34,000 348 448 0
2022-07-04 01:10:17 GMT 36.010857 -118.606064 34,000 348 448 0
2022-07-04 01:10:11 GMT 35.996517 -118.602203 34,000 348 447 64
2022-07-04 01:10:06 GMT 35.989071 -118.600220 34,000 348 447 0
2022-07-04 01:09:59 GMT 35.974686 -118.596298 34,000 348 447 -64
2022-07-04 01:09:56 GMT 35.967236 -118.594315 34,000 348 447 -64
2022-07-04 01:09:49 GMT 35.951248 -118.590034 34,000 348 447 0
2022-07-04 01:09:45 GMT 35.946075 -118.588654 34,000 348 447 64
2022-07-04 01:09:42 GMT 35.937424 -118.586311 34,000 348 447 64
2022-07-04 01:09:38 GMT 35.931381 -118.584709 34,000 348 447 -64
2022-07-04 01:09:33 GMT 35.921494 -118.582077 34,000 348 447 0
2022-07-04 01:09:28 GMT 35.904343 -118.577484 34,000 348 447 0
2022-07-04 01:09:25 GMT 35.904343 -118.577484 34,000 348 447 0
2022-07-04 01:09:22 GMT 35.898056 -118.575844 34,000 348 447 0
2022-07-04 01:09:18 GMT 35.888981 -118.573395 34,000 348 447 -64
2022-07-04 01:09:15 GMT 35.884964 -118.572350 34,000 348 447 -64
2022-07-04 01:09:12 GMT 35.880157 -118.571030 34,000 348 447 0
2022-07-04 01:09:09 GMT 35.871094 -118.568626 34,000 348 446 0
2022-07-04 01:09:06 GMT 35.866871 -118.567490 34,000 348 446 0
2022-07-04 01:09:03 GMT 35.860680 -118.565910 34,000 348 446 0
2022-07-04 01:09:00 GMT 35.852810 -118.563812 34,000 348 446 0
2022-07-04 01:08:56 GMT 35.845367 -118.561874 34,000 348 446 0
2022-07-04 01:08:53 GMT 35.838100 -118.559952 34,000 348 446 64
2022-07-04 01:08:50 GMT 35.835892 -118.559364 34,000 348 447 64
2022-07-04 01:08:47 GMT 35.827675 -118.557205 34,000 348 447 64
2022-07-04 01:08:44 GMT 35.821014 -118.555397 34,000 348 447 0
2022-07-04 01:08:41 GMT 35.813892 -118.553528 34,000 348 447 0
2022-07-04 01:08:35 GMT 35.803745 -118.550835 34,000 348 448 0
2022-07-04 01:08:32 GMT 35.799507 -118.549728 34,000 348 448 0
2022-07-04 01:08:29 GMT 35.793224 -118.548035 34,000 348 448 0
2022-07-04 01:08:25 GMT 35.782333 -118.545174 34,000 348 448 0
2022-07-04 01:08:22 GMT 35.777161 -118.543800 34,000 348 449 0
2022-07-04 01:08:19 GMT 35.772034 -118.542419 34,000 348 449 0
2022-07-04 01:08:14 GMT 35.761597 -118.539680 34,000 348 449 64
2022-07-04 01:08:11 GMT 35.754913 -118.537903 34,000 348 449 0
2022-07-04 01:08:08 GMT 35.750015 -118.536591 34,000 348 449 0
2022-07-04 01:08:05 GMT 35.743412 -118.534828 34,000 348 449 0
2022-07-04 01:08:01 GMT 35.732803 -118.532066 34,000 348 449 -64
2022-07-04 01:07:57 GMT 35.727905 -118.530746 34,000 348 449 0
2022-07-04 01:07:53 GMT 35.716785 -118.527756 34,000 348 449 0
2022-07-04 01:07:50 GMT 35.711243 -118.526344 34,000 348 449 0
2022-07-04 01:07:45 GMT 35.701702 -118.523781 34,000 348 449 0
2022-07-04 01:07:41 GMT 35.688126 -118.520164 34,000 348 449 0
2022-07-04 01:07:38 GMT 35.688126 -118.520164 34,000 348 449 0
2022-07-04 01:07:34 GMT 35.678055 -118.517532 34,000 348 449 0
2022-07-04 01:07:30 GMT 35.666153 -118.514381 34,000 348 449 0
2022-07-04 01:07:27 GMT 35.666153 -118.514381 34,000 348 449 0
2022-07-04 01:07:24 GMT 35.659061 -118.512505 34,000 348 449 0
2022-07-04 01:07:20 GMT 35.652924 -118.510895 34,000 348 449 0
2022-07-04 01:07:17 GMT 35.646973 -118.509293 34,000 348 449 0
2022-07-04 01:07:13 GMT 35.635647 -118.506310 34,000 348 449 0
2022-07-04 01:07:09 GMT 35.623581 -118.503113 34,000 348 449 -64
2022-07-04 01:07:06 GMT 35.623581 -118.503113 34,000 348 449 0
2022-07-04 01:07:03 GMT 35.616577 -118.501228 34,000 348 449 0
2022-07-04 01:06:58 GMT 35.605293 -118.498245 34,000 348 449 0
2022-07-04 01:06:53 GMT 35.589615 -118.494072 34,000 348 449 0
2022-07-04 01:06:50 GMT 35.589615 -118.494072 34,000 348 449 -64
2022-07-04 01:06:46 GMT 35.582611 -118.492188 34,000 348 449 -64
2022-07-04 01:06:43 GMT 35.575268 -118.490234 34,000 348 449 0
2022-07-04 01:06:40 GMT 35.569214 -118.488602 34,000 348 449 0
2022-07-04 01:06:37 GMT 35.562332 -118.486809 34,000 348 449 0
2022-07-04 01:06:34 GMT 35.559402 -118.486008 34,000 348 449 0
2022-07-04 01:06:31 GMT 35.551346 -118.483826 34,000 348 449 0
2022-07-04 01:06:28 GMT 35.544113 -118.481941 34,000 348 449 0
2022-07-04 01:06:25 GMT 35.537979 -118.480286 34,000 348 449 0
2022-07-04 01:06:21 GMT 35.525177 -118.476913 34,000 348 449 0
2022-07-04 01:06:17 GMT 35.525177 -118.476913 34,000 348 449 0
2022-07-04 01:06:14 GMT 35.517357 -118.474808 34,000 348 449 -64
2022-07-04 01:06:11 GMT 35.510372 -118.472939 34,000 348 449 0
2022-07-04 01:06:08 GMT 35.503738 -118.471184 34,000 348 449 64
2022-07-04 01:06:04 GMT 35.496037 -118.469139 34,000 348 449 64
2022-07-04 01:05:59 GMT 35.487030 -118.466782 34,000 348 449 0
2022-07-04 01:05:56 GMT 35.481743 -118.465401 34,000 348 449 0
2022-07-04 01:05:53 GMT 35.474808 -118.463593 34,000 348 449 0
2022-07-04 01:05:50 GMT 35.467079 -118.461540 34,000 348 449 0
2022-07-04 01:05:47 GMT 35.460934 -118.459908 34,000 348 449 -64
2022-07-04 01:05:44 GMT 35.454838 -118.458328 34,000 348 449 0
2022-07-04 01:05:41 GMT 35.449493 -118.456940 34,000 348 449 -64
2022-07-04 01:05:37 GMT 35.440842 -118.454643 34,000 348 449 -64
2022-07-04 01:05:33 GMT 35.432400 -118.452431 34,000 348 449 0
2022-07-04 01:05:30 GMT 35.428303 -118.451378 34,000 348 449 0
2022-07-04 01:05:27 GMT 35.421799 -118.449669 34,000 348 449 64
2022-07-04 01:05:24 GMT 35.416260 -118.448235 34,000 348 449 64
2022-07-04 01:05:21 GMT 35.410172 -118.446632 34,000 348 449 0
2022-07-04 01:05:18 GMT 35.403351 -118.444885 34,000 348 449 0
2022-07-04 01:05:15 GMT 35.396942 -118.443207 34,000 348 449 0
2022-07-04 01:05:12 GMT 35.391945 -118.441910 34,000 348 449 0
2022-07-04 01:05:09 GMT 35.384869 -118.440041 34,000 348 450 0
2022-07-04 01:05:06 GMT 35.379684 -118.438683 34,000 348 450 0
2022-07-04 01:05:03 GMT 35.371399 -118.436562 34,000 348 450 0
2022-07-04 01:05:00 GMT 35.366295 -118.435249 34,000 348 450 0
2022-07-04 01:04:57 GMT 35.360336 -118.433670 34,000 348 450 0
2022-07-04 01:04:54 GMT 35.354469 -118.432152 34,000 348 450 0
2022-07-04 01:04:51 GMT 35.346176 -118.429985 34,000 348 451 0
2022-07-04 01:04:47 GMT 35.339813 -118.428329 34,000 348 451 0
2022-07-04 01:04:44 GMT 35.332729 -118.426483 34,000 348 452 0
2022-07-04 01:04:41 GMT 35.322208 -118.423737 34,000 348 452 0
2022-07-04 01:04:38 GMT 35.322208 -118.423737 34,000 348 452 0
2022-07-04 01:04:35 GMT 35.313812 -118.421516 34,000 348 452 0
2022-07-04 01:04:32 GMT 35.308777 -118.420197 34,000 348 452 0
2022-07-04 01:04:28 GMT 35.301865 -118.418365 34,000 348 452 0
2022-07-04 01:04:23 GMT 35.289669 -118.415199 34,000 348 452 0
2022-07-04 01:04:19 GMT 35.281338 -118.412979 34,000 348 453 0
2022-07-04 01:04:16 GMT 35.277054 -118.411873 34,000 348 453 0
2022-07-04 01:04:13 GMT 35.270721 -118.410233 34,000 348 453 0
2022-07-04 01:04:10 GMT 35.263321 -118.408295 34,000 348 453 0
2022-07-04 01:04:07 GMT 35.257549 -118.406792 34,000 348 453 0
2022-07-04 01:04:04 GMT 35.253635 -118.405739 34,000 348 453 0
2022-07-04 01:04:01 GMT 35.238785 -118.401833 34,000 348 453 0
2022-07-04 01:03:57 GMT 35.238785 -118.401833 34,000 348 453 0
2022-07-04 01:03:54 GMT 35.232010 -118.400063 34,000 348 453 0
2022-07-04 01:03:50 GMT 35.223797 -118.397881 34,000 348 454 0
2022-07-04 01:03:47 GMT 35.216400 -118.395958 34,000 348 454 0
2022-07-04 01:03:43 GMT 35.210575 -118.394447 34,000 348 454 0
2022-07-04 01:03:40 GMT 35.201660 -118.392090 34,000 348 454 0
2022-07-04 01:03:37 GMT 35.195297 -118.390411 34,000 348 454 0
2022-07-04 01:03:34 GMT 35.189026 -118.388786 34,000 348 454 0
2022-07-04 01:03:30 GMT 35.181576 -118.386841 34,000 348 454 0
2022-07-04 01:03:27 GMT 35.174915 -118.385071 34,000 348 455 0
2022-07-04 01:03:24 GMT 35.169662 -118.383682 34,000 348 455 0
2022-07-04 01:03:20 GMT 35.159973 -118.381180 34,000 348 455 -64
2022-07-04 01:03:16 GMT 35.144073 -118.376961 34,000 348 455 -64
2022-07-04 01:03:12 GMT 35.144073 -118.376961 34,000 348 455 0
2022-07-04 01:03:09 GMT 35.139221 -118.375725 34,000 348 456 0
2022-07-04 01:03:06 GMT 35.131760 -118.373764 34,000 348 456 0
2022-07-04 01:03:02 GMT 35.124710 -118.371910 34,000 348 456 -64
2022-07-04 01:02:59 GMT 35.116306 -118.369675 34,000 348 456 -64
2022-07-04 01:02:55 GMT 35.109100 -118.367767 34,000 348 456 0
2022-07-04 01:02:52 GMT 35.102829 -118.366081 34,000 348 456 0
2022-07-04 01:02:48 GMT 35.094940 -118.364014 34,000 348 456 64
2022-07-04 01:02:44 GMT 35.084747 -118.361382 34,000 348 456 0
2022-07-04 01:02:41 GMT 35.081360 -118.360474 34,000 348 456 0
2022-07-04 01:02:37 GMT 35.071480 -118.357887 34,000 348 457 -64
2022-07-04 01:02:34 GMT 35.059422 -118.354683 34,000 348 456 -64
2022-07-04 01:02:31 GMT 35.059422 -118.354683 34,000 348 457 -64
2022-07-04 01:02:28 GMT 35.055222 -118.353584 34,000 348 457 -64
2022-07-04 01:02:25 GMT 35.049740 -118.352165 34,000 348 457 0
2022-07-04 01:02:22 GMT 35.041351 -118.349998 34,000 348 457 0
2022-07-04 01:02:19 GMT 35.035446 -118.348450 34,000 348 458 64
2022-07-04 01:02:15 GMT 35.026184 -118.346046 34,000 348 457 0
2022-07-04 01:02:12 GMT 35.019852 -118.344383 34,000 348 457 0
2022-07-04 01:02:08 GMT 35.012604 -118.342484 34,000 348 458 64
2022-07-04 01:02:05 GMT 35.002953 -118.339973 34,000 348 458 64
2022-07-04 01:02:02 GMT 34.999741 -118.339119 34,000 348 458 64
2022-07-04 01:01:59 GMT 34.995041 -118.337914 34,000 348 458 0
2022-07-04 01:01:55 GMT 34.979095 -118.333794 34,000 348 458 -64
2022-07-04 01:01:52 GMT 34.972870 -118.332169 34,000 348 458 -64
2022-07-04 01:01:49 GMT 34.972870 -118.332169 34,000 348 458 -64
2022-07-04 01:01:45 GMT 34.965866 -118.330322 34,000 348 458 0
2022-07-04 01:01:42 GMT 34.957489 -118.328133 34,000 348 459 0
2022-07-04 01:01:39 GMT 34.947277 -118.325500 34,000 348 459 0
2022-07-04 01:01:36 GMT 34.947277 -118.325500 34,000 348 459 64
2022-07-04 01:01:33 GMT 34.939411 -118.323441 34,000 348 459 64
2022-07-04 01:01:30 GMT 34.931946 -118.321518 34,000 348 459 64
2022-07-04 01:01:26 GMT 34.924652 -118.319664 34,000 348 459 0
2022-07-04 01:01:23 GMT 34.919159 -118.318230 34,000 348 459 0
2022-07-04 01:01:19 GMT 34.912582 -118.316528 34,000 348 459 0
2022-07-04 01:01:16 GMT 34.905899 -118.314796 34,000 348 459 -64
2022-07-04 01:01:12 GMT 34.895279 -118.312057 34,000 348 460 0
2022-07-04 01:01:09 GMT 34.888344 -118.310226 34,000 348 460 0
2022-07-04 01:01:05 GMT 34.880196 -118.308105 34,000 348 460 0
2022-07-04 01:01:02 GMT 34.869827 -118.305435 34,000 348 460 0
2022-07-04 01:00:59 GMT 34.869827 -118.305435 34,000 348 460 0
2022-07-04 01:00:56 GMT 34.861389 -118.303246 34,000 348 460 64
2022-07-04 01:00:53 GMT 34.858547 -118.302498 34,000 348 460 64
2022-07-04 01:00:50 GMT 34.851105 -118.300560 34,000 348 461 -64
2022-07-04 01:00:47 GMT 34.844833 -118.298935 34,000 348 461 -64
2022-07-04 01:00:44 GMT 34.836342 -118.296722 34,000 348 461 -64
2022-07-04 01:00:40 GMT 34.829315 -118.294891 34,000 348 461 0
2022-07-04 01:00:36 GMT 34.820297 -118.292542 34,000 348 461 0
2022-07-04 01:00:33 GMT 34.805943 -118.288818 34,000 348 461 0
2022-07-04 01:00:29 GMT 34.805943 -118.288818 34,000 348 461 0
2022-07-04 01:00:26 GMT 34.800217 -118.287331 34,000 348 461 64
2022-07-04 01:00:22 GMT 34.791328 -118.284988 34,000 348 461 0
2022-07-04 01:00:17 GMT 34.774334 -118.280579 34,000 348 461 0
2022-07-04 01:00:14 GMT 34.774334 -118.280579 34,000 348 461 0
2022-07-04 01:00:11 GMT 34.769493 -118.279327 34,000 348 461 0
2022-07-04 01:00:07 GMT 34.761383 -118.277237 34,000 348 461 64
2022-07-04 01:00:05 GMT 34.755890 -118.275780 34,000 348 461 0
2022-07-04 01:00:01 GMT 34.746368 -118.273315 34,000 348 461 0
2022-07-04 00:59:57 GMT 34.738815 -118.271370 34,000 348 461 64
2022-07-04 00:59:54 GMT 34.732346 -118.269714 34,000 348 461 64
2022-07-04 00:59:50 GMT 34.725410 -118.267876 34,000 349 462 64
2022-07-04 00:59:46 GMT 34.716064 -118.265526 34,000 349 462 64
2022-07-04 00:59:43 GMT 34.711582 -118.264336 34,000 349 461 64
2022-07-04 00:59:40 GMT 34.703388 -118.262276 34,000 349 462 0
2022-07-04 00:59:37 GMT 34.698223 -118.260956 34,000 349 461 -64
2022-07-04 00:59:34 GMT 34.686584 -118.257957 34,000 349 461 -64
2022-07-04 00:59:32 GMT 34.686584 -118.257957 34,000 349 461 -64
2022-07-04 00:59:28 GMT 34.672714 -118.254425 34,000 349 462 -64
2022-07-04 00:59:25 GMT 34.672714 -118.254425 34,000 349 462 -64
2022-07-04 00:59:22 GMT 34.660049 -118.251228 34,000 349 464 -64
2022-07-04 00:59:19 GMT 34.660049 -118.251228 34,000 349 465 -64
2022-07-04 00:59:16 GMT 34.653393 -118.249512 34,000 349 465 -64
2022-07-04 00:59:13 GMT 34.646873 -118.247849 34,000 348 466 -64
2022-07-04 00:59:10 GMT 34.641010 -118.246368 34,000 349 467 -64
2022-07-04 00:59:05 GMT 34.631424 -118.243889 34,000 348 468 0
2022-07-04 00:59:01 GMT 34.623413 -118.241814 34,000 348 469 64
2022-07-04 00:58:58 GMT 34.617920 -118.240417 34,000 348 470 64
2022-07-04 00:58:55 GMT 34.608421 -118.237953 34,000 348 470 64
2022-07-04 00:58:52 GMT 34.605377 -118.237160 34,000 348 470 64
2022-07-04 00:58:49 GMT 34.596588 -118.234917 34,000 348 470 0
2022-07-04 00:58:46 GMT 34.592239 -118.233795 34,000 348 471 0
2022-07-04 00:58:43 GMT 34.584000 -118.231667 34,000 348 471 0
2022-07-04 00:58:40 GMT 34.576218 -118.229706 34,000 349 472 -64
2022-07-04 00:58:37 GMT 34.570019 -118.228111 34,000 349 472 0
2022-07-04 00:58:32 GMT 34.562622 -118.226173 34,000 349 472 -64
2022-07-04 00:58:29 GMT 34.543343 -118.221245 34,000 349 472 0
2022-07-04 00:58:24 GMT 34.543343 -118.221245 34,000 349 472 64
2022-07-04 00:58:22 GMT 34.538876 -118.220161 34,000 349 472 64
2022-07-04 00:58:19 GMT 34.532410 -118.218498 34,000 349 472 0
2022-07-04 00:58:16 GMT 34.516205 -118.214317 34,000 349 472 0
2022-07-04 00:58:12 GMT 34.516205 -118.214317 34,000 349 472 0
2022-07-04 00:58:09 GMT 34.509842 -118.212669 34,000 348 473 0
2022-07-04 00:58:06 GMT 34.506428 -118.211800 34,000 348 473 0
2022-07-04 00:58:03 GMT 34.499165 -118.209915 34,000 348 473 0
2022-07-04 00:58:01 GMT 34.494965 -118.208855 34,000 348 473 0
2022-07-04 00:57:58 GMT 34.486404 -118.206673 34,000 348 473 0
2022-07-04 00:57:55 GMT 34.471233 -118.202766 34,000 348 473 0
2022-07-04 00:57:51 GMT 34.471233 -118.202766 34,000 348 473 0
2022-07-04 00:57:47 GMT 34.464249 -118.200951 34,000 348 473 0
2022-07-04 00:57:44 GMT 34.459900 -118.199829 34,000 348 473 0
2022-07-04 00:57:41 GMT 34.450611 -118.197441 34,000 348 473 0
2022-07-04 00:57:38 GMT 34.443211 -118.195557 34,000 348 474 0
2022-07-04 00:57:35 GMT 34.437435 -118.194061 34,000 348 474 0
2022-07-04 00:57:32 GMT 34.433155 -118.192924 34,000 348 474 0
2022-07-04 00:57:29 GMT 34.424030 -118.190575 34,000 348 474 0
2022-07-04 00:57:26 GMT 34.418564 -118.189178 34,000 348 474 0
2022-07-04 00:57:23 GMT 34.413895 -118.188004 34,000 348 474 0
2022-07-04 00:57:20 GMT 34.405643 -118.185883 34,000 348 474 0
2022-07-04 00:57:17 GMT 34.398750 -118.184113 34,000 348 474 0
2022-07-04 00:57:14 GMT 34.393257 -118.182678 34,000 348 474 0
2022-07-04 00:57:11 GMT 34.389816 -118.181778 34,000 348 474 0
2022-07-04 00:57:08 GMT 34.381107 -118.179527 34,000 348 474 0
2022-07-04 00:57:05 GMT 34.373337 -118.177521 34,000 348 474 0
2022-07-04 00:57:02 GMT 34.368587 -118.176331 34,000 348 474 0
2022-07-04 00:56:59 GMT 34.359650 -118.174042 34,000 348 473 0
2022-07-04 00:56:56 GMT 34.354340 -118.172646 34,000 348 473 0
2022-07-04 00:56:52 GMT 34.344799 -118.170204 34,000 348 473 0
2022-07-04 00:56:49 GMT 34.338730 -118.168610 34,000 348 473 0
2022-07-04 00:56:46 GMT 34.332275 -118.166946 34,000 348 473 0
2022-07-04 00:56:43 GMT 34.325775 -118.165298 34,000 348 473 0
2022-07-04 00:56:39 GMT 34.310860 -118.161446 34,000 348 473 0
2022-07-04 00:56:36 GMT 34.304390 -118.159790 34,000 348 473 0
2022-07-04 00:56:33 GMT 34.297874 -118.158134 34,000 348 473 0
2022-07-04 00:56:30 GMT 34.297874 -118.158134 34,000 348 473 0
2022-07-04 00:56:26 GMT 34.291405 -118.156410 34,000 349 473 0
2022-07-04 00:56:23 GMT 34.283203 -118.154320 34,000 349 473 0
2022-07-04 00:56:20 GMT 34.278973 -118.153267 34,000 349 473 0
2022-07-04 00:56:18 GMT 34.273636 -118.151901 34,000 341 466 0
2022-07-04 00:56:15 GMT 34.266914 -118.150177 34,000 349 473 0
2022-07-04 00:56:12 GMT 34.258896 -118.148148 34,000 349 472 0
2022-07-04 00:56:09 GMT 34.253265 -118.146751 34,000 349 472 0
2022-07-04 00:56:06 GMT 34.246399 -118.145065 34,000 349 473 0
2022-07-04 00:56:02 GMT 34.238705 -118.143143 34,000 347 472 64
2022-07-04 00:55:59 GMT 34.233307 -118.141647 34,000 347 471 64
2022-07-04 00:55:56 GMT 34.224884 -118.139183 34,000 345 469 0
2022-07-04 00:55:53 GMT 34.219852 -118.137527 34,000 344 469 0
2022-07-04 00:55:49 GMT 34.213520 -118.135361 34,000 342 468 0
2022-07-04 00:55:47 GMT 34.207169 -118.132957 34,000 341 466 0
2022-07-04 00:55:44 GMT 34.194717 -118.127800 34,000 339 465 0
2022-07-04 00:55:41 GMT 34.194717 -118.127800 34,000 339 465 0
2022-07-04 00:55:38 GMT 34.189499 -118.125450 34,000 339 464 0
2022-07-04 00:55:35 GMT 34.182701 -118.122192 34,000 337 463 0
2022-07-04 00:55:32 GMT 34.176910 -118.119225 34,000 336 461 0
2022-07-04 00:55:28 GMT 34.168854 -118.114799 34,000 335 459 64
2022-07-04 00:55:23 GMT 34.161243 -118.110291 34,000 329 454 0
2022-07-04 00:55:20 GMT 34.149418 -118.102737 34,000 330 456 0
2022-07-04 00:55:17 GMT 34.149418 -118.102737 34,000 330 455 0
2022-07-04 00:55:14 GMT 34.142944 -118.098099 34,000 329 454 0
2022-07-04 00:55:11 GMT 34.137634 -118.094231 34,000 329 454 0
2022-07-04 00:55:08 GMT 34.129074 -118.087952 34,000 329 454 0
2022-07-04 00:55:02 GMT 34.120926 -118.082008 34,000 329 454 0
2022-07-04 00:54:58 GMT 34.115295 -118.077858 34,000 329 454 0
2022-07-04 00:54:56 GMT 34.109619 -118.073715 34,000 329 454 0
2022-07-04 00:54:52 GMT 34.102818 -118.068748 34,000 329 454 0
2022-07-04 00:54:49 GMT 34.099140 -118.066116 34,000 329 454 0
2022-07-04 00:54:46 GMT 34.086899 -118.057137 34,000 329 454 0
2022-07-04 00:54:43 GMT 34.086899 -118.057137 34,000 329 454 -64
2022-07-04 00:54:40 GMT 34.081497 -118.053185 34,000 329 454 -64
2022-07-04 00:54:37 GMT 34.069859 -118.044724 34,000 329 454 0
2022-07-04 00:54:34 GMT 34.069859 -118.044724 34,000 329 453 0
2022-07-04 00:54:31 GMT 34.065445 -118.041481 34,000 329 453 0
2022-07-04 00:54:26 GMT 34.057526 -118.035706 34,000 329 453 0
2022-07-04 00:54:22 GMT 34.047375 -118.028297 34,000 329 453 0
2022-07-04 00:54:19 GMT 34.043884 -118.025787 34,000 329 453 0
2022-07-04 00:54:16 GMT 34.038666 -118.021973 34,000 329 453 0
2022-07-04 00:54:12 GMT 34.032486 -118.017494 34,000 329 453 0
2022-07-04 00:54:09 GMT 34.027172 -118.013596 34,000 329 453 0
2022-07-04 00:54:06 GMT 34.022369 -118.010094 34,000 329 453 0
2022-07-04 00:54:04 GMT 34.017746 -118.006729 34,000 329 453 0
2022-07-04 00:54:01 GMT 34.010925 -118.001801 34,000 329 453 0
2022-07-04 00:53:58 GMT 34.006226 -117.998367 34,000 329 453 0
2022-07-04 00:53:55 GMT 34.000591 -117.994247 34,000 329 453 0
2022-07-04 00:53:52 GMT 33.996029 -117.990929 34,000 329 453 0
2022-07-04 00:53:48 GMT 33.989502 -117.986214 34,000 329 453 0
2022-07-04 00:53:44 GMT 33.981995 -117.980721 34,000 329 453 0
2022-07-04 00:53:41 GMT 33.975586 -117.976067 34,000 329 453 0
2022-07-04 00:53:38 GMT 33.970047 -117.972031 34,000 329 453 0
2022-07-04 00:53:35 GMT 33.966141 -117.969193 34,000 329 453 0
2022-07-04 00:53:33 GMT 33.961906 -117.966103 34,000 329 453 0
2022-07-04 00:53:30 GMT 33.956181 -117.961922 34,000 329 453 0
2022-07-04 00:53:27 GMT 33.950043 -117.957512 34,000 329 453 0
2022-07-04 00:53:24 GMT 33.946472 -117.954880 34,000 329 453 0
2022-07-04 00:53:22 GMT 33.936302 -117.947502 34,000 329 453 0
2022-07-04 00:53:19 GMT 33.930996 -117.943665 34,000 329 453 0
2022-07-04 00:53:16 GMT 33.925037 -117.939377 34,000 329 453 0
2022-07-04 00:53:13 GMT 33.925037 -117.939377 34,000 329 453 0
2022-07-04 00:53:10 GMT 33.920708 -117.936234 34,000 329 453 0
2022-07-04 00:53:07 GMT 33.914841 -117.931953 34,000 329 453 0
2022-07-04 00:53:04 GMT 33.908745 -117.927589 34,000 329 453 0
2022-07-04 00:53:01 GMT 33.904495 -117.924500 34,000 329 453 0
2022-07-04 00:52:57 GMT 33.896591 -117.918716 34,000 329 453 64
2022-07-04 00:52:54 GMT 33.891312 -117.914917 34,000 329 453 64
2022-07-04 00:52:51 GMT 33.885635 -117.910820 34,000 329 453 0
2022-07-04 00:52:48 GMT 33.881882 -117.908134 34,000 329 453 -64
2022-07-04 00:52:45 GMT 33.875061 -117.903198 34,000 329 453 0
2022-07-04 00:52:42 GMT 33.869453 -117.899094 34,000 329 453 0
2022-07-04 00:52:39 GMT 33.865036 -117.895912 34,000 329 453 -64
2022-07-04 00:52:36 GMT 33.859165 -117.891655 34,000 329 453 0
2022-07-04 00:52:33 GMT 33.849995 -117.885017 34,000 329 453 0
2022-07-04 00:52:31 GMT 33.849995 -117.885017 34,000 329 453 -64
2022-07-04 00:52:28 GMT 33.845573 -117.881813 34,000 329 453 0
2022-07-04 00:52:25 GMT 33.839218 -117.877251 34,000 329 453 0
2022-07-04 00:52:22 GMT 33.832993 -117.872765 34,000 329 453 0
2022-07-04 00:52:19 GMT 33.828533 -117.869514 34,000 329 453 0
2022-07-04 00:52:16 GMT 33.823135 -117.865623 34,000 329 453 0
2022-07-04 00:52:13 GMT 33.812195 -117.857666 34,000 329 453 0
2022-07-04 00:52:10 GMT 33.806095 -117.853317 34,000 329 453 0
2022-07-04 00:52:07 GMT 33.806095 -117.853317 34,000 329 453 0
2022-07-04 00:52:04 GMT 33.801765 -117.850166 34,000 329 453 0
2022-07-04 00:52:01 GMT 33.798340 -117.847649 34,000 329 453 0
2022-07-04 00:51:58 GMT 33.790733 -117.842216 34,000 329 453 0
2022-07-04 00:51:54 GMT 33.777977 -117.832947 34,000 329 453 0
2022-07-04 00:51:50 GMT 33.777977 -117.832947 34,000 329 453 0
2022-07-04 00:51:46 GMT 33.771744 -117.828423 34,000 329 453 0
2022-07-04 00:51:43 GMT 33.763458 -117.822487 34,000 329 452 0
2022-07-04 00:51:40 GMT 33.758797 -117.819099 34,000 329 452 0
2022-07-04 00:51:37 GMT 33.753662 -117.815369 34,000 329 452 0
2022-07-04 00:51:33 GMT 33.747665 -117.811050 34,000 329 451 0
2022-07-04 00:51:31 GMT 33.743996 -117.808395 34,000 329 450 0
2022-07-04 00:51:29 GMT 33.738548 -117.804451 34,000 329 450 0
2022-07-04 00:51:26 GMT 33.734802 -117.801743 34,000 329 450 0
2022-07-04 00:51:22 GMT 33.726444 -117.795692 34,000 329 450 0
2022-07-04 00:51:19 GMT 33.715923 -117.788086 34,000 329 451 0
2022-07-04 00:51:16 GMT 33.715923 -117.788086 34,000 329 450 0
2022-07-04 00:51:11 GMT 33.707886 -117.782234 34,000 329 450 0
2022-07-04 00:51:08 GMT 33.702393 -117.778259 34,000 329 450 0
2022-07-04 00:51:05 GMT 33.697311 -117.774559 34,000 329 450 0
2022-07-04 00:51:01 GMT 33.688457 -117.768173 34,000 329 450 -64
2022-07-04 00:50:58 GMT 33.685455 -117.765984 34,000 329 450 0
2022-07-04 00:50:55 GMT 33.677719 -117.760376 34,000 329 450 64
2022-07-04 00:50:52 GMT 33.673424 -117.757301 34,000 329 450 0
2022-07-04 00:50:49 GMT 33.662109 -117.749054 34,000 329 450 0
2022-07-04 00:50:46 GMT 33.662109 -117.749054 34,000 329 450 0
2022-07-04 00:50:43 GMT 33.657394 -117.745636 34,000 329 450 0
2022-07-04 00:50:40 GMT 33.650890 -117.740990 34,000 329 449 0
2022-07-04 00:50:37 GMT 33.646179 -117.737564 34,000 329 449 0
2022-07-04 00:50:34 GMT 33.640594 -117.733528 34,000 329 449 0
2022-07-04 00:50:30 GMT 33.634087 -117.728867 34,000 329 449 0
2022-07-04 00:50:28 GMT 33.629333 -117.725456 34,000 329 449 0
2022-07-04 00:50:25 GMT 33.623703 -117.721367 34,000 329 449 0
2022-07-04 00:50:22 GMT 33.619446 -117.718285 34,000 329 449 0
2022-07-04 00:50:18 GMT 33.612392 -117.713242 34,000 329 450 0
2022-07-04 00:50:15 GMT 33.606857 -117.709259 34,000 329 450 0
2022-07-04 00:50:12 GMT 33.602615 -117.706200 34,000 329 450 0
2022-07-04 00:50:08 GMT 33.595306 -117.700935 34,000 329 450 0
2022-07-04 00:50:06 GMT 33.590744 -117.697655 34,000 329 450 0
2022-07-04 00:50:01 GMT 33.580921 -117.690582 34,000 329 450 0
2022-07-04 00:49:57 GMT 33.574825 -117.686172 34,000 329 450 0
2022-07-04 00:49:54 GMT 33.569702 -117.682510 34,000 329 450 0
2022-07-04 00:49:50 GMT 33.562271 -117.677139 34,000 329 450 0
2022-07-04 00:49:47 GMT 33.557648 -117.673836 34,000 329 450 0
2022-07-04 00:49:45 GMT 33.552525 -117.670158 34,000 329 450 0
2022-07-04 00:49:42 GMT 33.547916 -117.666779 34,000 329 450 0
2022-07-04 00:49:39 GMT 33.542423 -117.662827 34,000 329 450 0
2022-07-04 00:49:36 GMT 33.536743 -117.658752 34,000 329 452 0
2022-07-04 00:49:33 GMT 33.531437 -117.654945 34,000 330 456 0
2022-07-04 00:49:30 GMT 33.526318 -117.651245 34,000 329 452 0
2022-07-04 00:49:27 GMT 33.521210 -117.647537 34,000 329 451 0
2022-07-04 00:49:24 GMT 33.515671 -117.643524 34,000 329 451 0
2022-07-04 00:49:21 GMT 33.504593 -117.635612 34,000 329 451 0
2022-07-04 00:49:18 GMT 33.504593 -117.635612 34,000 330 452 0
2022-07-04 00:49:15 GMT 33.499054 -117.631607 34,000 330 452 0
2022-07-04 00:49:12 GMT 33.494431 -117.628311 34,000 330 452 0
2022-07-04 00:49:09 GMT 33.488388 -117.623970 34,000 330 452 -64
2022-07-04 00:49:06 GMT 33.483116 -117.620186 34,000 330 452 0
2022-07-04 00:49:03 GMT 33.478413 -117.616829 34,000 330 452 0
2022-07-04 00:48:59 GMT 33.470215 -117.610947 34,000 330 453 0
2022-07-04 00:48:55 GMT 33.464127 -117.606613 34,000 330 453 0
2022-07-04 00:48:52 GMT 33.459839 -117.603539 34,000 330 453 -64
2022-07-04 00:48:49 GMT 33.453232 -117.598808 34,000 330 453 -64
2022-07-04 00:48:46 GMT 33.447086 -117.594406 34,000 330 453 0
2022-07-04 00:48:43 GMT 33.442932 -117.591446 34,000 330 453 0
2022-07-04 00:48:40 GMT 33.438473 -117.588242 34,000 329 453 0
2022-07-04 00:48:37 GMT 33.432186 -117.583755 34,000 329 453 0
2022-07-04 00:48:33 GMT 33.423622 -117.577644 34,000 329 453 0
2022-07-04 00:48:30 GMT 33.418968 -117.574280 34,000 330 454 0
2022-07-04 00:48:27 GMT 33.413040 -117.570023 34,000 330 454 0
2022-07-04 00:48:24 GMT 33.407547 -117.566124 34,000 330 454 0
2022-07-04 00:48:21 GMT 33.402908 -117.562790 34,000 330 454 0
2022-07-04 00:48:18 GMT 33.390701 -117.554039 34,000 330 455 0
2022-07-04 00:48:15 GMT 33.390701 -117.554039 34,000 330 455 64
2022-07-04 00:48:12 GMT 33.386333 -117.550911 34,000 330 456 0
2022-07-04 00:48:09 GMT 33.380814 -117.547012 34,000 330 455 64
2022-07-04 00:48:06 GMT 33.374512 -117.542503 34,000 330 456 0
2022-07-04 00:48:02 GMT 33.367386 -117.537453 34,000 330 456 -64
2022-07-04 00:47:59 GMT 33.361771 -117.533440 34,000 330 456 0
2022-07-04 00:47:56 GMT 33.357239 -117.530228 34,000 330 456 64
2022-07-04 00:47:53 GMT 33.352722 -117.527031 34,000 330 456 0
2022-07-04 00:47:51 GMT 33.347462 -117.523277 34,000 330 456 0
2022-07-04 00:47:48 GMT 33.342865 -117.519981 34,000 330 456 0
2022-07-04 00:47:45 GMT 33.336639 -117.515587 34,000 330 457 0
2022-07-04 00:47:42 GMT 33.333801 -117.513557 34,000 330 457 0
2022-07-04 00:47:40 GMT 33.329075 -117.510155 34,000 330 457 0
2022-07-04 00:47:37 GMT 33.321857 -117.505058 34,000 330 457 0
2022-07-04 00:47:33 GMT 33.314621 -117.499878 34,000 330 457 0
2022-07-04 00:47:30 GMT 33.309849 -117.496536 34,000 330 457 0
2022-07-04 00:47:27 GMT 33.304276 -117.492516 34,000 330 457 0
2022-07-04 00:47:24 GMT 33.299606 -117.489220 34,000 330 457 0
2022-07-04 00:47:21 GMT 33.293461 -117.484825 34,000 330 457 0
2022-07-04 00:47:18 GMT 33.289227 -117.481850 34,000 330 457 0
2022-07-04 00:47:15 GMT 33.281616 -117.476364 34,000 330 458 64
2022-07-04 00:47:11 GMT 33.274017 -117.470985 34,000 330 458 64
2022-07-04 00:47:08 GMT 33.270676 -117.468620 34,000 330 458 0
2022-07-04 00:47:05 GMT 33.265823 -117.465103 34,000 330 458 0
2022-07-04 00:47:01 GMT 33.257710 -117.459320 34,000 330 458 0
2022-07-04 00:46:59 GMT 33.247742 -117.452194 34,000 330 458 0
2022-07-04 00:46:56 GMT 33.247742 -117.452194 34,000 330 458 0
2022-07-04 00:46:53 GMT 33.243000 -117.448837 34,000 330 458 0
2022-07-04 00:46:50 GMT 33.235878 -117.443794 34,000 329 458 0
2022-07-04 00:46:47 GMT 33.231361 -117.440544 34,000 329 458 0
2022-07-04 00:46:44 GMT 33.227051 -117.437424 34,000 329 458 0
2022-07-04 00:46:41 GMT 33.220329 -117.432640 34,000 329 458 0
2022-07-04 00:46:38 GMT 33.215103 -117.428848 34,000 329 458 0
2022-07-04 00:46:34 GMT 33.208145 -117.423904 34,000 329 458 0
2022-07-04 00:46:30 GMT 33.199814 -117.417923 34,000 330 459 0
2022-07-04 00:46:25 GMT 33.194275 -117.413963 34,000 330 459 0
2022-07-04 00:46:22 GMT 33.188625 -117.409935 34,000 330 459 0
2022-07-04 00:46:18 GMT 33.180805 -117.404388 34,000 330 459 0
2022-07-04 00:46:16 GMT 33.175095 -117.400284 34,000 330 459 0
2022-07-04 00:46:13 GMT 33.169495 -117.396317 34,000 330 459 0
2022-07-04 00:46:09 GMT 33.163441 -117.391998 34,000 330 459 0
2022-07-04 00:46:06 GMT 33.156273 -117.386894 34,000 330 459 0
2022-07-04 00:46:02 GMT 33.150127 -117.382523 34,000 330 460 0
2022-07-04 00:45:57 GMT 33.139755 -117.375130 34,000 330 460 0
2022-07-04 00:45:54 GMT 33.134445 -117.371391 34,000 330 460 64
2022-07-04 00:45:51 GMT 33.130760 -117.368736 34,000 330 460 0
2022-07-04 00:45:48 GMT 33.125221 -117.364815 34,000 330 460 0
2022-07-04 00:45:46 GMT 33.120754 -117.361618 34,000 330 460 0
2022-07-04 00:45:43 GMT 33.114395 -117.357109 34,000 330 460 0
2022-07-04 00:45:40 GMT 33.108929 -117.353210 34,000 330 460 0
2022-07-04 00:45:36 GMT 33.101807 -117.348221 34,000 330 460 0
2022-07-04 00:45:32 GMT 33.095032 -117.343376 34,000 330 460 0
2022-07-04 00:45:29 GMT 33.090076 -117.339867 34,000 330 459 0
2022-07-04 00:45:26 GMT 33.085281 -117.336510 34,000 330 460 0
2022-07-04 00:45:24 GMT 33.075668 -117.329697 34,000 330 460 0
2022-07-04 00:45:21 GMT 33.075668 -117.329697 34,000 330 460 0
2022-07-04 00:45:18 GMT 33.069214 -117.325142 34,000 330 459 0
2022-07-04 00:45:15 GMT 33.065357 -117.322441 34,000 330 459 0
2022-07-04 00:45:13 GMT 33.060143 -117.318741 34,000 330 459 0
2022-07-04 00:45:10 GMT 33.055756 -117.315636 34,000 330 459 0
2022-07-04 00:45:07 GMT 33.049210 -117.311020 34,000 330 460 0
2022-07-04 00:45:04 GMT 33.042709 -117.306412 34,000 330 460 0
2022-07-04 00:45:01 GMT 33.039612 -117.304222 34,000 330 460 0
2022-07-04 00:44:58 GMT 33.032272 -117.298996 34,000 330 460 0
2022-07-04 00:44:55 GMT 33.028519 -117.296356 34,000 330 460 0
2022-07-04 00:44:52 GMT 33.021423 -117.291306 34,000 330 460 0
2022-07-04 00:44:48 GMT 33.013218 -117.285500 34,000 330 459 0
2022-07-04 00:44:45 GMT 33.008423 -117.282127 34,000 330 459 0
2022-07-04 00:44:41 GMT 33.001282 -117.277077 34,000 330 459 0
2022-07-04 00:44:37 GMT 32.994129 -117.272049 34,000 330 459 0
2022-07-04 00:44:33 GMT 32.986591 -117.266724 34,000 330 459 0
2022-07-04 00:44:30 GMT 32.982075 -117.263527 34,000 330 459 0
2022-07-04 00:44:27 GMT 32.976837 -117.259827 34,000 330 459 0
2022-07-04 00:44:24 GMT 32.962429 -117.249626 34,000 330 459 0
2022-07-04 00:44:20 GMT 32.962429 -117.249626 34,000 330 459 0
2022-07-04 00:44:16 GMT 32.951981 -117.242249 34,000 330 459 0
2022-07-04 00:44:13 GMT 32.951981 -117.242249 34,000 330 459 0
2022-07-04 00:44:11 GMT 32.946945 -117.238678 34,000 330 459 0
2022-07-04 00:44:08 GMT 32.941200 -117.234604 34,000 330 459 0
2022-07-04 00:44:05 GMT 32.935638 -117.230659 34,000 330 459 0
2022-07-04 00:44:02 GMT 32.932755 -117.228622 34,000 330 458 0
2022-07-04 00:44:00 GMT 32.926987 -117.224564 34,000 330 459 0
2022-07-04 00:43:57 GMT 32.922318 -117.221268 34,000 330 458 0
2022-07-04 00:43:54 GMT 32.914433 -117.215714 34,000 330 458 0
2022-07-04 00:43:51 GMT 32.909500 -117.212181 34,000 330 458 0
2022-07-04 00:43:48 GMT 32.904190 -117.208412 34,000 330 458 0
2022-07-04 00:43:45 GMT 32.898838 -117.204613 34,000 330 458 -64
2022-07-04 00:43:42 GMT 32.894989 -117.201927 34,000 330 458 -64
2022-07-04 00:43:39 GMT 32.888596 -117.197388 34,000 330 458 0
2022-07-04 00:43:36 GMT 32.883057 -117.193459 34,000 330 458 0
2022-07-04 00:43:33 GMT 32.876083 -117.188522 34,000 330 458 0
2022-07-04 00:43:30 GMT 32.874161 -117.187149 34,000 330 458 0
2022-07-04 00:43:27 GMT 32.866013 -117.181381 34,000 330 458 0
2022-07-04 00:43:24 GMT 32.860294 -117.177376 34,000 330 458 0
2022-07-04 00:43:20 GMT 32.855347 -117.173859 34,000 330 458 0
2022-07-04 00:43:17 GMT 32.849075 -117.169411 34,000 330 458 0
2022-07-04 00:43:14 GMT 32.843674 -117.165604 34,000 330 458 0
2022-07-04 00:43:10 GMT 32.836166 -117.160347 34,000 330 458 0
2022-07-04 00:43:08 GMT 32.831680 -117.157158 34,000 330 458 0
2022-07-04 00:43:05 GMT 32.821934 -117.150299 34,000 330 458 0
2022-07-04 00:43:02 GMT 32.821934 -117.150299 34,000 330 458 0
2022-07-04 00:42:59 GMT 32.816349 -117.146378 34,000 330 458 0
2022-07-04 00:42:55 GMT 32.809799 -117.141777 34,000 330 458 0
2022-07-04 00:42:52 GMT 32.802662 -117.136734 34,000 330 458 0
2022-07-04 00:42:48 GMT 32.794922 -117.131233 34,000 330 458 0
2022-07-04 00:42:45 GMT 32.791168 -117.128593 34,000 330 458 0
2022-07-04 00:42:42 GMT 32.783295 -117.123047 34,000 330 458 0
2022-07-04 00:42:39 GMT 32.779724 -117.120522 34,000 330 458 0
2022-07-04 00:42:36 GMT 32.773937 -117.116447 34,000 330 458 0
2022-07-04 00:42:33 GMT 32.763290 -117.108986 34,000 330 458 0
2022-07-04 00:42:30 GMT 32.763290 -117.108986 34,000 330 458 0
2022-07-04 00:42:27 GMT 32.756901 -117.104446 34,000 330 458 0
2022-07-04 00:42:23 GMT 32.748459 -117.098495 34,000 330 458 0
2022-07-04 00:42:20 GMT 32.743423 -117.094978 34,000 330 458 0
2022-07-04 00:42:17 GMT 32.739029 -117.091843 34,000 330 458 0
2022-07-04 00:42:15 GMT 32.735413 -117.089317 34,000 330 458 0
2022-07-04 00:42:12 GMT 32.728043 -117.084152 34,000 330 458 0
2022-07-04 00:42:09 GMT 32.724060 -117.081352 34,000 330 458 0
2022-07-04 00:42:06 GMT 32.717609 -117.076813 34,000 330 458 0
2022-07-04 00:42:03 GMT 32.713623 -117.074051 34,000 330 458 0
2022-07-04 00:42:00 GMT 32.709652 -117.071213 34,000 330 458 0
2022-07-04 00:41:57 GMT 32.702343 -117.066109 34,000 330 458 0
2022-07-04 00:41:53 GMT 32.692707 -117.059326 34,000 330 458 0
2022-07-04 00:41:50 GMT 32.690659 -117.057922 34,000 330 458 0
2022-07-04 00:41:47 GMT 32.683594 -117.052956 34,000 330 457 0
2022-07-04 00:41:44 GMT 32.672699 -117.045319 34,000 330 457 0
2022-07-04 00:41:41 GMT 32.667381 -117.041611 34,000 330 457 0
2022-07-04 00:41:38 GMT 32.667381 -117.041611 34,000 330 457 0
2022-07-04 00:41:35 GMT 32.663609 -117.038925 34,000 330 457 0
2022-07-04 00:41:32 GMT 32.656128 -117.033730 34,000 330 457 0
2022-07-04 00:41:29 GMT 32.650761 -117.029953 34,000 330 457 0
2022-07-04 00:41:26 GMT 32.645313 -117.026146 34,000 330 457 0
2022-07-04 00:41:23 GMT 32.633606 -117.017960 34,000 330 457 0
2022-07-04 00:41:20 GMT 32.633606 -117.017960 34,000 330 457 0
2022-07-04 00:41:17 GMT 32.628891 -117.014664 34,000 330 457 0
2022-07-04 00:41:14 GMT 32.625092 -117.012032 34,000 330 457 0
2022-07-04 00:41:11 GMT 32.617996 -117.007088 34,000 330 457 0
2022-07-04 00:41:08 GMT 32.613987 -117.004280 34,000 330 457 0
2022-07-04 00:41:04 GMT 32.606770 -116.999184 34,000 330 456 0
2022-07-04 00:41:02 GMT 32.602936 -116.996536 34,000 330 456 0
2022-07-04 00:40:59 GMT 32.595474 -116.991318 34,000 330 457 0
2022-07-04 00:40:56 GMT 32.588524 -116.986458 34,000 330 457 0
2022-07-04 00:40:53 GMT 32.582191 -116.981972 34,000 330 457 0
2022-07-04 00:40:48 GMT 32.576614 -116.978027 34,000 330 457 0
2022-07-04 00:40:45 GMT 32.570206 -116.973526 34,000 330 458 -64
2022-07-04 00:40:42 GMT 32.567551 -116.971657 34,000 330 458 -64
2022-07-04 00:40:40 GMT 32.563618 -116.968910 34,000 331 457 -64
2022-07-04 00:40:37 GMT 32.556061 -116.963799 34,000 332 459 -64
2022-07-04 00:40:32 GMT 32.548115 -116.958710 34,000 334 461 -64
2022-07-04 00:40:30 GMT 32.543243 -116.955780 34,000 334 461 0
2022-07-04 00:40:26 GMT 32.535141 -116.951111 34,000 336 463 0
2022-07-04 00:40:23 GMT 32.530659 -116.948624 34,000 337 464 0
2022-07-04 00:40:20 GMT 32.523861 -116.945038 34,000 338 466 0
2022-07-04 00:40:15 GMT 32.513714 -116.940102 34,000 339 468 0
2022-07-04 00:40:11 GMT 32.507755 -116.937302 34,000 339 467 0
2022-07-04 00:40:08 GMT 32.499207 -116.933311 34,000 339 468 0
2022-07-04 00:40:05 GMT 32.493942 -116.930840 34,000 339 469 -64
2022-07-04 00:40:01 GMT 32.485733 -116.927040 34,000 339 469 0
2022-07-04 00:39:58 GMT 32.479523 -116.924088 34,000 339 469 0
2022-07-04 00:39:55 GMT 32.473026 -116.921097 34,000 339 469 0
2022-07-04 00:39:51 GMT 32.465530 -116.917572 34,000 339 469 0
2022-07-04 00:39:49 GMT 32.460526 -116.915237 34,000 339 469 0
2022-07-04 00:39:46 GMT 32.455009 -116.912689 34,000 339 469 0
2022-07-04 00:39:43 GMT 32.448681 -116.909721 34,000 339 469 0
2022-07-04 00:39:39 GMT 32.434753 -116.903214 34,000 339 469 0
2022-07-04 00:39:36 GMT 32.434753 -116.903214 34,000 339 469 0
2022-07-04 00:39:33 GMT 32.423676 -116.898048 34,000 339 469 0
2022-07-04 00:39:30 GMT 32.423676 -116.898048 34,000 339 469 0
2022-07-04 00:39:28 GMT 32.418560 -116.895706 34,000 339 469 0
2022-07-04 00:39:23 GMT 32.408272 -116.890884 34,000 339 469 0
2022-07-04 00:39:20 GMT 32.403336 -116.888588 34,000 339 469 0
2022-07-04 00:39:17 GMT 32.397285 -116.885735 34,000 339 469 0
2022-07-04 00:39:13 GMT 32.381149 -116.878220 34,000 339 469 0
2022-07-04 00:39:10 GMT 32.381149 -116.878220 34,000 339 469 0
2022-07-04 00:39:07 GMT 32.375870 -116.875755 34,000 339 469 0
2022-07-04 00:39:02 GMT 32.359818 -116.868271 34,000 339 469 0
2022-07-04 00:38:59 GMT 32.359818 -116.868271 34,000 339 469 0
2022-07-04 00:38:56 GMT 32.355560 -116.866295 34,000 339 469 0
2022-07-04 00:38:51 GMT 32.344208 -116.861023 34,000 339 468 0
2022-07-04 00:38:48 GMT 32.337341 -116.857834 34,000 339 468 0
2022-07-04 00:38:45 GMT 32.334301 -116.856415 34,000 339 468 0
2022-07-04 00:38:42 GMT 32.321045 -116.850258 34,000 339 468 0
2022-07-04 00:38:39 GMT 32.321045 -116.850258 34,000 339 468 0
2022-07-04 00:38:36 GMT 32.312885 -116.846436 34,000 339 468 0
2022-07-04 00:38:33 GMT 32.301434 -116.841110 34,000 339 468 0
2022-07-04 00:38:30 GMT 32.301434 -116.841110 34,000 339 468 0
2022-07-04 00:38:27 GMT 32.295776 -116.838501 34,000 339 468 0
2022-07-04 00:38:24 GMT 32.291565 -116.836525 34,000 339 468 0
2022-07-04 00:38:20 GMT 32.283463 -116.832787 34,000 339 469 0
2022-07-04 00:38:17 GMT 32.276157 -116.829399 34,000 339 469 0
2022-07-04 00:38:15 GMT 32.270416 -116.826691 34,000 339 468 0
2022-07-04 00:38:11 GMT 32.262634 -116.823067 34,000 339 467 0
2022-07-04 00:38:07 GMT 32.256226 -116.820045 34,000 339 467 0
2022-07-04 00:38:03 GMT 32.248306 -116.816360 34,000 339 467 0
2022-07-04 00:37:59 GMT 32.239799 -116.812416 34,000 339 467 0
2022-07-04 00:37:56 GMT 32.231644 -116.808617 34,000 339 467 0
2022-07-04 00:37:53 GMT 32.226334 -116.806145 34,000 339 467 0
2022-07-04 00:37:49 GMT 32.220108 -116.803223 34,000 339 467 0
2022-07-04 00:37:46 GMT 32.213699 -116.800270 34,000 339 467 0
2022-07-04 00:37:42 GMT 32.204185 -116.795822 34,000 339 466 0
2022-07-04 00:37:39 GMT 32.193478 -116.790833 34,000 339 467 0
2022-07-04 00:37:36 GMT 32.193478 -116.790833 34,000 339 467 0
2022-07-04 00:37:31 GMT 32.181515 -116.785286 34,000 339 466 0
2022-07-04 00:37:28 GMT 32.177628 -116.783463 34,000 339 466 0
2022-07-04 00:37:25 GMT 32.172344 -116.781029 34,000 339 466 0
2022-07-04 00:37:21 GMT 32.164524 -116.777382 34,000 339 466 0
2022-07-04 00:37:18 GMT 32.156330 -116.773567 34,000 339 466 0
2022-07-04 00:37:15 GMT 32.151169 -116.771210 34,000 339 466 0
2022-07-04 00:37:10 GMT 32.139248 -116.765663 34,000 339 466 0
2022-07-04 00:37:07 GMT 32.135330 -116.763847 34,000 339 466 0
2022-07-04 00:37:04 GMT 32.129330 -116.761017 34,000 339 466 0
2022-07-04 00:37:01 GMT 32.121277 -116.757309 34,000 339 465 0
2022-07-04 00:36:57 GMT 32.114044 -116.753906 34,000 339 465 0
2022-07-04 00:36:54 GMT 32.110016 -116.752037 34,000 339 465 0
2022-07-04 00:36:50 GMT 32.101166 -116.747955 34,000 339 465 0
2022-07-04 00:36:46 GMT 32.092804 -116.744072 34,000 339 463 0
2022-07-04 00:36:43 GMT 32.087711 -116.741730 34,000 339 465 0
2022-07-04 00:36:40 GMT 32.078869 -116.737640 34,000 339 465 0
2022-07-04 00:36:36 GMT 32.071106 -116.734077 34,000 339 465 0
2022-07-04 00:36:33 GMT 32.067787 -116.732536 34,000 339 465 0
2022-07-04 00:36:30 GMT 32.060760 -116.729294 34,000 339 465 0
2022-07-04 00:36:26 GMT 32.052753 -116.725586 34,000 339 465 0
2022-07-04 00:36:23 GMT 32.046204 -116.722542 34,000 339 464 0
2022-07-04 00:36:20 GMT 32.039337 -116.719353 34,000 339 464 0
2022-07-04 00:36:17 GMT 32.034439 -116.717102 34,000 339 464 0
2022-07-04 00:36:14 GMT 32.028591 -116.714432 34,000 339 464 0
2022-07-04 00:36:11 GMT 32.023144 -116.711914 34,000 339 464 0
2022-07-04 00:36:06 GMT 32.011692 -116.706589 34,000 339 464 0
2022-07-04 00:36:02 GMT 32.003632 -116.702873 34,000 339 464 -64
2022-07-04 00:35:57 GMT 31.994375 -116.698624 34,000 339 464 0
2022-07-04 00:35:54 GMT 31.983994 -116.693810 34,000 339 463 0
2022-07-04 00:35:51 GMT 31.983994 -116.693810 34,000 339 463 0
2022-07-04 00:35:48 GMT 31.968773 -116.686798 34,000 339 463 0
2022-07-04 00:35:44 GMT 31.968773 -116.686798 34,000 339 463 0
2022-07-04 00:35:41 GMT 31.963604 -116.684387 34,000 339 463 0
2022-07-04 00:35:38 GMT 31.955063 -116.680466 34,000 339 463 64
2022-07-04 00:35:33 GMT 31.945961 -116.676262 34,000 339 463 0
2022-07-04 00:35:30 GMT 31.940552 -116.673759 34,000 339 462 0
2022-07-04 00:35:26 GMT 31.934189 -116.670792 34,000 339 462 -64
2022-07-04 00:35:23 GMT 31.925200 -116.666618 34,000 339 462 0
2022-07-04 00:35:20 GMT 31.920544 -116.664490 34,000 339 462 64
2022-07-04 00:35:17 GMT 31.913328 -116.661125 34,000 339 462 64
2022-07-04 00:35:13 GMT 31.905693 -116.657654 34,000 339 462 0
2022-07-04 00:35:09 GMT 31.898392 -116.654259 34,000 339 462 64
2022-07-04 00:35:06 GMT 31.893402 -116.651955 34,000 339 462 64
2022-07-04 00:35:03 GMT 31.885303 -116.648239 34,000 339 462 0
2022-07-04 00:35:00 GMT 31.881578 -116.646500 34,000 339 462 0
2022-07-04 00:34:56 GMT 31.872620 -116.642342 34,000 339 462 64
2022-07-04 00:34:52 GMT 31.863602 -116.638168 34,000 339 462 0
2022-07-04 00:34:48 GMT 31.859482 -116.636246 34,000 339 463 0
2022-07-04 00:34:45 GMT 31.851746 -116.632675 34,000 336 460 0
2022-07-04 00:34:42 GMT 31.844604 -116.629433 34,000 339 462 0
2022-07-04 00:34:39 GMT 31.839403 -116.626991 34,000 339 462 0
2022-07-04 00:34:35 GMT 31.830278 -116.622841 34,000 339 462 0
2022-07-04 00:34:29 GMT 31.818548 -116.617462 34,000 339 462 0
2022-07-04 00:34:26 GMT 31.813614 -116.615204 34,000 339 462 0
2022-07-04 00:34:23 GMT 31.808395 -116.612839 34,000 336 460 0
2022-07-04 00:34:18 GMT 31.792246 -116.605072 34,000 337 460 0
2022-07-04 00:34:16 GMT 31.792246 -116.605072 34,000 337 460 0
2022-07-04 00:34:13 GMT 31.787218 -116.602493 34,000 336 460 0
2022-07-04 00:34:10 GMT 31.774979 -116.595978 34,000 336 460 0
2022-07-04 00:34:07 GMT 31.774979 -116.595978 34,000 336 460 0
2022-07-04 00:34:02 GMT 31.767700 -116.592140 34,000 336 460 0
2022-07-04 00:33:57 GMT 31.757355 -116.586700 34,000 336 460 0
2022-07-04 00:33:55 GMT 31.753647 -116.584709 34,000 336 460 0
2022-07-04 00:33:53 GMT 31.747742 -116.581589 34,000 336 460 0
2022-07-04 00:33:48 GMT 31.738861 -116.576897 34,000 336 459 0
2022-07-04 00:33:46 GMT 31.735266 -116.574997 34,000 336 459 0
2022-07-04 00:33:42 GMT 31.725815 -116.570007 34,000 336 459 0
2022-07-04 00:33:37 GMT 31.716980 -116.565315 34,000 336 460 0
2022-07-04 00:33:34 GMT 31.710800 -116.562088 34,000 336 460 0
2022-07-04 00:33:31 GMT 31.704634 -116.558846 34,000 336 460 0
2022-07-04 00:33:27 GMT 31.699373 -116.556046 34,000 336 460 -64
2022-07-04 00:33:24 GMT 31.693462 -116.552963 34,000 336 460 0
2022-07-04 00:33:22 GMT 31.687410 -116.549782 34,000 336 460 0
2022-07-04 00:33:17 GMT 31.679260 -116.545502 34,000 336 460 64
2022-07-04 00:33:13 GMT 31.672440 -116.541893 34,000 336 460 0
2022-07-04 00:33:10 GMT 31.666992 -116.539040 34,000 336 460 0
2022-07-04 00:33:07 GMT 31.659060 -116.534836 34,000 336 460 0
2022-07-04 00:33:02 GMT 31.649368 -116.529778 34,000 336 460 0
2022-07-04 00:32:59 GMT 31.645340 -116.527672 34,000 336 460 0
2022-07-04 00:32:56 GMT 31.637512 -116.523529 34,000 336 460 0
2022-07-04 00:32:52 GMT 31.631594 -116.520447 34,000 336 460 0
2022-07-04 00:32:49 GMT 31.626101 -116.517532 34,000 336 460 0
2022-07-04 00:32:46 GMT 31.619396 -116.513962 34,000 336 460 0
2022-07-04 00:32:42 GMT 31.611328 -116.509743 34,000 336 460 0
2022-07-04 00:32:39 GMT 31.604034 -116.505890 34,000 336 460 0
2022-07-04 00:32:35 GMT 31.596497 -116.501930 34,000 336 460 0
2022-07-04 00:32:32 GMT 31.592676 -116.499901 34,000 336 460 0
2022-07-04 00:32:28 GMT 31.583599 -116.495125 34,000 336 460 0
2022-07-04 00:32:25 GMT 31.578804 -116.492599 34,000 336 460 0
2022-07-04 00:32:23 GMT 31.573030 -116.489578 34,000 336 460 0
2022-07-04 00:32:19 GMT 31.564682 -116.485184 34,000 336 460 0
2022-07-04 00:32:14 GMT 31.555481 -116.480347 34,000 336 460 0
2022-07-04 00:32:11 GMT 31.550453 -116.477654 34,000 336 460 0
2022-07-04 00:32:08 GMT 31.544682 -116.474632 34,000 336 460 0
2022-07-04 00:32:03 GMT 31.533829 -116.468918 34,000 336 460 0
2022-07-04 00:32:00 GMT 31.530121 -116.466980 34,000 336 460 0
2022-07-04 00:31:58 GMT 31.524384 -116.463974 34,000 336 460 0
2022-07-04 00:31:54 GMT 31.519171 -116.461227 34,000 336 460 0
2022-07-04 00:31:50 GMT 31.511398 -116.457123 34,000 336 460 0
2022-07-04 00:31:47 GMT 31.504042 -116.453262 34,000 336 460 0
2022-07-04 00:31:44 GMT 31.498077 -116.450127 34,000 336 460 0
2022-07-04 00:31:41 GMT 31.491098 -116.446457 34,000 336 460 0
2022-07-04 00:31:37 GMT 31.483658 -116.442528 34,000 336 461 0
2022-07-04 00:31:33 GMT 31.477112 -116.439079 34,000 336 461 0
2022-07-04 00:31:30 GMT 31.469313 -116.435028 34,000 336 461 0
2022-07-04 00:31:26 GMT 31.463167 -116.431786 34,000 336 461 0
2022-07-04 00:31:23 GMT 31.457115 -116.428658 34,000 336 461 -64
2022-07-04 00:31:19 GMT 31.448645 -116.424210 34,000 336 461 0
2022-07-04 00:31:16 GMT 31.442871 -116.421204 34,000 336 461 0
2022-07-04 00:31:12 GMT 31.437611 -116.418442 34,000 336 461 0
2022-07-04 00:31:08 GMT 31.427462 -116.413162 34,000 336 461 0
2022-07-04 00:31:05 GMT 31.422546 -116.410591 34,000 337 460 0
2022-07-04 00:31:02 GMT 31.414846 -116.406570 34,000 337 460 64
2022-07-04 00:30:58 GMT 31.406982 -116.402519 34,000 337 460 64
2022-07-04 00:30:55 GMT 31.403503 -116.400688 34,000 337 460 64
2022-07-04 00:30:52 GMT 31.397343 -116.397507 34,000 336 461 64
2022-07-04 00:30:49 GMT 31.391432 -116.394432 34,000 336 461 64
2022-07-04 00:30:46 GMT 31.384644 -116.390884 34,000 336 461 0
2022-07-04 00:30:43 GMT 31.379883 -116.388405 34,000 336 461 0
2022-07-04 00:30:41 GMT 31.376116 -116.386414 34,000 336 461 0
2022-07-04 00:30:37 GMT 31.367411 -116.381851 34,000 336 461 0
2022-07-04 00:30:33 GMT 31.358286 -116.377075 34,000 336 461 0
2022-07-04 00:30:30 GMT 31.353956 -116.374825 34,000 336 461 0
2022-07-04 00:30:27 GMT 31.348091 -116.371750 34,000 336 461 0
2022-07-04 00:30:24 GMT 31.341476 -116.368263 34,000 336 461 0
2022-07-04 00:30:21 GMT 31.337616 -116.366257 34,000 336 461 0
2022-07-04 00:30:18 GMT 31.329758 -116.362068 34,000 336 461 -64
2022-07-04 00:30:15 GMT 31.325592 -116.359917 34,000 336 461 -64
2022-07-04 00:30:11 GMT 31.317444 -116.355659 34,000 336 461 0
2022-07-04 00:30:04 GMT 31.304489 -116.348877 34,000 336 461 0
2022-07-04 00:30:01 GMT 31.296698 -116.344772 34,000 336 461 0
2022-07-04 00:29:56 GMT 31.287460 -116.339935 34,000 336 461 0
2022-07-04 00:29:53 GMT 31.280869 -116.336433 34,000 336 461 0
2022-07-04 00:29:50 GMT 31.276199 -116.334015 34,000 336 461 0
2022-07-04 00:29:43 GMT 31.259399 -116.325233 34,000 336 462 -64
2022-07-04 00:29:40 GMT 31.254547 -116.322701 34,000 336 462 -64
2022-07-04 00:29:35 GMT 31.245537 -116.318024 34,000 336 462 0
2022-07-04 00:29:32 GMT 31.241812 -116.316048 34,000 336 462 64
2022-07-04 00:29:30 GMT 31.237064 -116.313576 34,000 336 462 64
2022-07-04 00:29:28 GMT 31.232346 -116.311127 34,000 336 462 64
2022-07-04 00:29:24 GMT 31.225752 -116.307693 34,000 336 462 0
2022-07-04 00:29:20 GMT 31.216860 -116.303085 34,000 336 462 0
2022-07-04 00:29:17 GMT 31.212753 -116.300949 34,000 336 462 0
2022-07-04 00:29:13 GMT 31.202475 -116.295555 34,000 336 462 0
2022-07-04 00:29:08 GMT 31.192419 -116.290337 34,000 336 462 0
2022-07-04 00:29:02 GMT 31.183994 -116.285942 34,000 336 462 0
2022-07-04 00:28:59 GMT 31.177803 -116.282761 34,000 336 462 -64
2022-07-04 00:28:57 GMT 31.165421 -116.276276 34,000 336 462 0
2022-07-04 00:28:54 GMT 31.165421 -116.276276 34,000 336 462 64
2022-07-04 00:28:51 GMT 31.160339 -116.273643 34,000 336 462 64
2022-07-04 00:28:46 GMT 31.148804 -116.267662 34,000 336 462 0
2022-07-04 00:28:42 GMT 31.143726 -116.265015 34,000 336 462 0
2022-07-04 00:28:39 GMT 31.136902 -116.261475 34,000 336 462 0
2022-07-04 00:28:36 GMT 31.129211 -116.257484 34,000 336 462 0
2022-07-04 00:28:33 GMT 31.123337 -116.254471 34,000 336 462 0
2022-07-04 00:28:29 GMT 31.117798 -116.251556 34,000 336 462 0
2022-07-04 00:28:23 GMT 31.105499 -116.245155 34,000 336 462 0
2022-07-04 00:28:20 GMT 31.098059 -116.241287 34,000 336 462 64
2022-07-04 00:28:16 GMT 31.093916 -116.239143 34,000 336 462 64
2022-07-04 00:28:13 GMT 31.081858 -116.232826 34,000 336 462 -64
2022-07-04 00:28:10 GMT 31.081858 -116.232826 34,000 336 462 0
2022-07-04 00:28:07 GMT 31.075760 -116.229691 34,000 336 462 0
2022-07-04 00:28:04 GMT 31.067413 -116.225334 34,000 336 462 0
2022-07-04 00:28:00 GMT 31.055464 -116.219093 34,000 336 462 0
2022-07-04 00:27:57 GMT 31.053589 -116.218117 34,000 336 462 0
2022-07-04 00:27:50 GMT 31.041504 -116.211815 34,000 336 462 0
2022-07-04 00:27:47 GMT 31.035416 -116.208694 34,000 336 462 0
2022-07-04 00:27:45 GMT 31.031799 -116.206810 34,000 336 462 0
2022-07-04 00:27:39 GMT 31.017942 -116.199593 34,000 336 463 0
2022-07-04 00:27:35 GMT 31.013809 -116.197441 34,000 336 463 0
2022-07-04 00:27:32 GMT 31.007467 -116.194153 34,000 336 463 0
2022-07-04 00:27:28 GMT 30.998856 -116.189705 34,000 337 462 -64
2022-07-04 00:27:25 GMT 30.992619 -116.186462 34,000 337 462 -64
2022-07-04 00:27:17 GMT 30.978514 -116.179153 34,000 336 462 0
2022-07-04 00:27:14 GMT 30.971558 -116.175575 34,000 336 461 0
2022-07-04 00:27:08 GMT 30.959518 -116.169327 34,000 336 461 0
2022-07-04 00:27:05 GMT 30.954445 -116.166687 34,000 336 461 64
2022-07-04 00:27:03 GMT 30.950180 -116.164536 34,000 336 461 64
2022-07-04 00:26:58 GMT 30.939240 -116.158821 34,000 336 461 0
2022-07-04 00:26:55 GMT 30.934982 -116.156670 34,000 336 461 0
2022-07-04 00:26:53 GMT 30.930565 -116.154381 34,000 336 461 0
2022-07-04 00:26:45 GMT 30.914291 -116.145950 34,000 336 461 0
2022-07-04 00:26:41 GMT 30.908264 -116.142845 34,000 336 461 0
2022-07-04 00:26:34 GMT 30.891600 -116.134224 34,000 336 461 0
2022-07-04 00:26:30 GMT 30.885773 -116.131195 34,000 336 461 -64
2022-07-04 00:26:24 GMT 30.874283 -116.125267 34,000 336 461 0
2022-07-04 00:26:22 GMT 30.868464 -116.122246 34,000 336 461 0
2022-07-04 00:26:18 GMT 30.862503 -116.119171 34,000 336 461 0
2022-07-04 00:26:15 GMT 30.855515 -116.115578 34,000 336 461 0
2022-07-04 00:26:12 GMT 30.848818 -116.112083 34,000 336 461 0
2022-07-04 00:26:09 GMT 30.845352 -116.110298 34,000 337 460 0
2022-07-04 00:26:05 GMT 30.834824 -116.104858 34,000 337 460 0
2022-07-04 00:26:02 GMT 30.828800 -116.101761 34,000 337 460 64
2022-07-04 00:25:57 GMT 30.821960 -116.098236 34,000 337 460 64
2022-07-04 00:25:54 GMT 30.814636 -116.094467 34,000 336 461 0
2022-07-04 00:25:51 GMT 30.807587 -116.090858 34,000 336 460 -64
2022-07-04 00:25:48 GMT 30.802597 -116.088272 34,000 336 460 -64
2022-07-04 00:25:42 GMT 30.792629 -116.083084 34,000 336 460 0
2022-07-04 00:25:40 GMT 30.786575 -116.079926 34,000 336 459 64
2022-07-04 00:25:37 GMT 30.782621 -116.077919 34,000 336 459 64
2022-07-04 00:25:32 GMT 30.773310 -116.073135 34,000 336 459 0
2022-07-04 00:25:28 GMT 30.765198 -116.068939 34,000 336 460 -64
2022-07-04 00:25:22 GMT 30.752792 -116.062531 34,000 336 459 0
2022-07-04 00:25:16 GMT 30.741982 -116.056931 34,000 336 459 0
2022-07-04 00:25:12 GMT 30.732670 -116.052155 34,000 336 459 -64
2022-07-04 00:25:09 GMT 30.726151 -116.048744 34,000 336 459 0
2022-07-04 00:25:04 GMT 30.719124 -116.045067 34,000 336 459 0
2022-07-04 00:25:00 GMT 30.711227 -116.040993 34,000 336 458 64
2022-07-04 00:24:56 GMT 30.702988 -116.036736 34,000 336 458 0
2022-07-04 00:24:50 GMT 30.691040 -116.030540 34,000 336 458 0
2022-07-04 00:24:47 GMT 30.684814 -116.027328 34,000 336 458 0
2022-07-04 00:24:41 GMT 30.674898 -116.022163 34,000 336 457 -64
2022-07-04 00:24:37 GMT 30.664307 -116.016701 34,000 336 457 0
2022-07-04 00:24:33 GMT 30.659258 -116.014084 34,000 336 457 64
2022-07-04 00:24:29 GMT 30.649714 -116.009140 34,000 336 457 0
2022-07-04 00:24:26 GMT 30.643848 -116.006119 34,000 336 457 0
2022-07-04 00:24:19 GMT 30.630157 -115.999039 34,000 336 457 -64
2022-07-04 00:24:15 GMT 30.621737 -115.994698 34,000 336 457 0
2022-07-04 00:24:09 GMT 30.604980 -115.986061 34,000 337 457 -64
2022-07-04 00:24:03 GMT 30.599438 -115.983215 34,000 337 456 0
2022-07-04 00:23:58 GMT 30.590286 -115.978462 34,000 337 456 0
2022-07-04 00:23:51 GMT 30.577559 -115.972008 34,000 336 456 0
2022-07-04 00:23:47 GMT 30.570053 -115.968071 34,000 335 456 0
2022-07-04 00:23:44 GMT 30.561493 -115.963333 34,000 333 455 0
2022-07-04 00:23:37 GMT 30.549906 -115.956406 34,000 330 453 0
2022-07-04 00:23:31 GMT 30.538788 -115.949165 34,000 330 452 0
2022-07-04 00:23:26 GMT 30.530960 -115.943672 34,000 328 452 0
2022-07-04 00:23:23 GMT 30.523092 -115.937843 34,000 326 451 0
2022-07-04 00:23:16 GMT 30.512604 -115.929619 34,000 326 451 0
2022-07-04 00:23:11 GMT 30.504238 -115.923012 34,000 326 451 0
2022-07-04 00:23:05 GMT 30.493624 -115.914604 34,000 326 451 0
2022-07-04 00:23:01 GMT 30.485571 -115.908234 34,000 326 451 0
2022-07-04 00:22:58 GMT 30.481939 -115.905380 34,000 326 451 0
2022-07-04 00:22:55 GMT 30.475935 -115.900650 34,000 326 451 0
2022-07-04 00:22:50 GMT 30.467834 -115.894234 34,000 326 451 0
2022-07-04 00:22:43 GMT 30.455017 -115.884163 34,000 326 451 0
2022-07-04 00:22:39 GMT 30.449726 -115.879997 34,000 326 450 0
2022-07-04 00:22:36 GMT 30.444000 -115.875496 34,000 326 450 64
2022-07-04 00:22:32 GMT 30.437202 -115.870163 34,000 326 450 64
2022-07-04 00:22:29 GMT 30.430639 -115.864944 34,000 326 451 0
2022-07-04 00:22:23 GMT 30.421656 -115.857918 34,000 326 451 0
2022-07-04 00:22:18 GMT 30.412262 -115.850456 34,000 326 451 -64
2022-07-04 00:22:12 GMT 30.402893 -115.843086 34,000 326 451 -64
2022-07-04 00:22:08 GMT 30.394363 -115.836395 34,000 326 450 0
2022-07-04 00:22:04 GMT 30.387634 -115.831062 34,000 326 450 0
2022-07-04 00:22:01 GMT 30.383926 -115.828156 34,000 326 450 0
2022-07-04 00:21:55 GMT 30.373333 -115.819847 34,000 326 450 0
2022-07-04 00:21:48 GMT 30.358530 -115.808205 34,000 326 450 0
2022-07-04 00:21:44 GMT 30.353363 -115.804085 34,000 326 450 0
2022-07-04 00:21:41 GMT 30.349686 -115.801224 34,000 326 450 0
2022-07-04 00:21:36 GMT 30.338974 -115.792831 34,000 326 450 0
2022-07-04 00:21:26 GMT 30.321241 -115.778870 34,000 326 450 -64
2022-07-04 00:21:15 GMT 30.303406 -115.764824 34,000 326 449 0
2022-07-04 00:21:10 GMT 30.295349 -115.758469 34,000 326 449 0
2022-07-04 00:21:05 GMT 30.285351 -115.750580 34,000 326 449 64
2022-07-04 00:20:59 GMT 30.277451 -115.744308 34,000 326 449 64
2022-07-04 00:20:53 GMT 30.266775 -115.735855 34,000 326 450 0
2022-07-04 00:20:49 GMT 30.258907 -115.729706 34,000 326 450 0
2022-07-04 00:20:42 GMT 30.246618 -115.719986 34,000 326 450 -64
2022-07-04 00:20:38 GMT 30.239227 -115.714149 34,000 326 450 0
2022-07-04 00:20:33 GMT 30.229441 -115.706467 34,000 326 451 0
2022-07-04 00:20:28 GMT 30.222794 -115.701279 34,000 326 451 0
2022-07-04 00:20:21 GMT 30.211761 -115.692604 34,000 326 451 0
2022-07-04 00:20:17 GMT 30.203093 -115.685760 34,000 326 451 0
2022-07-04 00:20:12 GMT 30.193735 -115.678452 34,000 326 451 0
2022-07-04 00:20:00 GMT 30.175579 -115.664230 34,000 326 452 0
2022-07-04 00:19:51 GMT 30.157150 -115.649841 34,000 326 452 0
2022-07-04 00:19:39 GMT 30.138748 -115.635468 34,000 326 452 0
2022-07-04 00:19:30 GMT 30.120741 -115.621437 34,000 326 454 0
2022-07-04 00:19:18 GMT 30.100250 -115.605415 34,000 326 454 -64
2022-07-04 00:19:08 GMT 30.083918 -115.592651 34,000 326 454 0
2022-07-04 00:18:57 GMT 30.063858 -115.576927 34,000 326 454 0
2022-07-04 00:18:30 GMT 30.016983 -115.540253 34,000 326 456 0
2022-07-04 00:18:26 GMT 30.009018 -115.534004 34,000 326 456 0
2022-07-04 00:18:15 GMT 29.991806 -115.520538 34,000 326 456 0
2022-07-04 00:18:05 GMT 29.972717 -115.505569 34,000 326 456 0
2022-07-04 00:17:52 GMT 29.952576 -115.489845 34,000 326 457 0
2022-07-04 00:17:43 GMT 29.934998 -115.476112 34,000 326 457 0
2022-07-04 00:17:38 GMT 29.927811 -115.470566 34,000 326 457 0
2022-07-04 00:17:32 GMT 29.917191 -115.462273 34,000 326 457 0
2022-07-04 00:17:27 GMT 29.907486 -115.454689 34,000 326 457 0
2022-07-04 00:17:23 GMT 29.898733 -115.447891 34,000 326 457 0
2022-07-04 00:17:15 GMT 29.886444 -115.438354 34,000 326 457 0
2022-07-04 00:17:11 GMT 29.880249 -115.433456 34,000 326 458 0
2022-07-04 00:16:59 GMT 29.859304 -115.417084 34,000 326 458 0
2022-07-04 00:16:51 GMT 29.843307 -115.404671 34,000 326 459 -64
2022-07-04 00:16:40 GMT 29.824762 -115.390213 34,000 326 459 0
2022-07-04 00:16:28 GMT 29.802881 -115.373192 34,000 326 459 0
2022-07-04 00:16:18 GMT 29.787241 -115.361076 34,000 326 459 0
2022-07-04 00:16:09 GMT 29.769012 -115.346939 34,000 326 460 0
2022-07-04 00:15:57 GMT 29.749695 -115.331993 34,000 326 459 0
2022-07-04 00:15:46 GMT 29.730028 -115.316704 34,000 326 459 0
2022-07-04 00:15:37 GMT 29.712662 -115.303261 34,000 326 459 0
2022-07-04 00:15:24 GMT 29.691948 -115.287239 34,000 326 459 0
2022-07-04 00:15:16 GMT 29.675171 -115.274315 34,000 326 459 0
2022-07-04 00:15:04 GMT 29.656755 -115.260048 34,000 326 458 0
2022-07-04 00:14:50 GMT 29.629257 -115.238815 34,000 326 458 0
2022-07-04 00:14:43 GMT 29.618546 -115.230522 34,000 326 457 0
2022-07-04 00:14:33 GMT 29.601013 -115.216949 34,000 326 457 0
2022-07-04 00:14:23 GMT 29.582291 -115.202370 34,000 326 457 0
2022-07-04 00:14:11 GMT 29.563650 -115.187935 34,000 326 457 0
2022-07-04 00:11:38 GMT 29.293135 -114.979736 34,000 327 456 0
2022-07-04 00:11:36 GMT 29.291290 -114.978264 34,000 327 456 64
2022-07-04 00:11:25 GMT 29.272202 -114.963631 34,000 327 456 0
We lost coverage of the aircraft here for a total of 25 minutes
2022-07-03 23:46:05 GMT 26.534916 -112.837883 34,000 326 482 0
2022-07-03 23:41:27 GMT 26.026245 -112.442947 34,000 326 482 0
2022-07-03 23:39:56 GMT 25.859955 -112.314873 34,000 326 482 0
2022-07-03 23:39:48 GMT 25.844467 -112.302971 34,000 326 481 0
2022-07-03 23:39:32 GMT 25.815445 -112.280579 34,000 326 481 -64
2022-07-03 23:39:28 GMT 25.807955 -112.274834 34,000 326 481 -64
2022-07-03 23:39:16 GMT 25.787100 -112.258766 34,000 326 481 0
2022-07-03 23:39:06 GMT 25.767014 -112.243347 34,000 326 481 0
2022-07-03 23:38:56 GMT 25.750168 -112.230377 34,000 326 481 64
2022-07-03 23:38:45 GMT 25.729202 -112.214256 34,000 326 481 0
2022-07-03 23:38:02 GMT 25.651680 -112.154762 34,000 326 479 0
2022-07-03 23:37:46 GMT 25.622211 -112.132164 34,000 326 479 0
2022-07-03 23:37:07 GMT 25.550171 -112.076973 34,000 326 477 0
2022-07-03 23:36:58 GMT 25.535067 -112.065414 34,000 326 477 0
2022-07-03 23:36:21 GMT 25.466448 -112.012978 34,000 326 477 0
2022-07-03 23:36:17 GMT 25.460129 -112.008209 34,000 326 477 0
2022-07-03 23:36:01 GMT 25.429916 -111.985222 34,000 326 478 0
2022-07-03 23:35:50 GMT 25.410446 -111.970482 34,000 326 477 0
2022-07-03 23:35:44 GMT 25.399925 -111.962448 34,000 326 478 0
2022-07-03 23:35:32 GMT 25.377869 -111.945595 34,000 326 479 0
2022-07-03 23:35:10 GMT 25.336578 -111.914116 34,000 326 480 0
2022-07-03 23:35:04 GMT 25.325775 -111.905975 34,000 326 479 0
2022-07-03 23:34:51 GMT 25.303665 -111.888481 34,000 322 479 0
2022-07-03 23:34:38 GMT 25.281326 -111.868080 34,000 320 481 0
2022-07-03 23:34:32 GMT 25.269928 -111.857246 34,000 319 481 -64
2022-07-03 23:34:21 GMT 25.251842 -111.839935 34,000 320 482 64
2022-07-03 23:34:09 GMT 25.232430 -111.821388 34,000 320 482 -64
2022-07-03 23:34:00 GMT 25.216278 -111.805977 34,000 319 482 0
2022-07-03 23:33:50 GMT 25.198818 -111.789307 34,000 320 483 0
2022-07-03 23:33:39 GMT 25.180893 -111.772156 34,000 320 483 0
2022-07-03 23:33:28 GMT 25.163206 -111.755318 34,000 320 483 0
2022-07-03 23:33:18 GMT 25.144867 -111.737823 34,000 320 483 0
2022-07-03 23:33:07 GMT 25.127289 -111.721092 34,000 320 483 0
2022-07-03 23:32:57 GMT 25.109299 -111.703903 34,000 320 483 0
2022-07-03 23:32:46 GMT 25.090759 -111.686249 34,000 320 484 64
2022-07-03 23:32:36 GMT 25.073593 -111.669868 34,000 320 484 0
2022-07-03 23:32:25 GMT 25.055672 -111.652863 34,000 320 484 0
2022-07-03 23:32:14 GMT 25.036880 -111.635033 34,000 320 485 -64
2022-07-03 23:32:03 GMT 25.018894 -111.617935 34,025 320 486 -128
2022-07-03 23:31:53 GMT 25.001019 -111.600990 33,950 320 486 960
2022-07-03 23:31:43 GMT 24.983236 -111.584091 33,750 320 487 1088
2022-07-03 23:31:32 GMT 24.964569 -111.566422 33,575 320 489 1024
2022-07-03 23:31:21 GMT 24.946461 -111.549271 33,400 320 490 960
2022-07-03 23:31:11 GMT 24.928711 -111.532387 33,225 320 492 960
2022-07-03 23:31:00 GMT 24.910812 -111.515450 33,075 320 492 832
2022-07-03 23:30:50 GMT 24.892506 -111.498070 32,925 320 493 896
2022-07-03 23:30:39 GMT 24.873606 -111.480141 32,775 320 493 832
2022-07-03 23:30:28 GMT 24.855194 -111.462708 32,600 320 494 896
2022-07-03 23:30:18 GMT 24.836975 -111.445412 32,450 320 494 896
2022-07-03 23:30:07 GMT 24.817520 -111.427002 32,275 320 495 960
2022-07-03 23:29:57 GMT 24.800146 -111.410591 32,125 320 496 896
2022-07-03 23:29:46 GMT 24.781723 -111.393181 31,975 320 497 768
2022-07-03 23:29:35 GMT 24.763412 -111.375984 31,850 320 497 704
2022-07-03 23:29:24 GMT 24.743866 -111.357574 31,725 320 495 704
2022-07-03 23:29:14 GMT 24.726315 -111.341095 31,625 320 494 640
2022-07-03 23:29:04 GMT 24.708158 -111.324097 31,500 320 492 640
2022-07-03 23:28:52 GMT 24.687584 -111.304924 31,375 320 492 704
2022-07-03 23:28:42 GMT 24.671009 -111.289375 31,250 320 492 704
2022-07-03 23:28:12 GMT 24.617802 -111.239265 30,850 320 489 768
2022-07-03 23:28:11 GMT 24.616928 -111.238457 30,850 320 489 768
2022-07-03 23:27:50 GMT 24.580606 -111.204185 30,575 320 489 896
2022-07-03 23:27:39 GMT 24.561722 -111.186371 30,400 320 489 832
2022-07-03 23:27:20 GMT 24.529863 -111.156250 30,200 320 489 1088
2022-07-03 23:27:17 GMT 24.524509 -111.151222 30,075 320 489 1024
2022-07-03 23:27:07 GMT 24.507523 -111.135201 29,875 320 489 1152
2022-07-03 23:26:57 GMT 24.489487 -111.118217 29,725 320 489 832
2022-07-03 23:26:46 GMT 24.470604 -111.100433 29,600 320 488 768
2022-07-03 23:26:36 GMT 24.453472 -111.084320 29,450 320 487 768
2022-07-03 23:26:25 GMT 24.434143 -111.066185 29,300 320 487 896
2022-07-03 23:26:15 GMT 24.416885 -111.049904 29,175 320 485 576
2022-07-03 23:26:04 GMT 24.398346 -111.032463 29,025 320 485 896
2022-07-03 23:25:53 GMT 24.380539 -111.015778 28,900 320 484 768
2022-07-03 23:25:43 GMT 24.362183 -110.998711 28,750 320 483 832
2022-07-03 23:25:32 GMT 24.344376 -110.982056 28,600 320 482 768
2022-07-03 23:24:48 GMT 24.270008 -110.912529 28,025 320 475 768
2022-07-03 23:24:39 GMT 24.254881 -110.898331 27,925 320 475 832
2022-07-03 23:22:35 GMT 24.050491 -110.707954 26,000 320 457 896
2022-07-03 23:22:32 GMT 24.046513 -110.704254 25,950 320 457 896
2022-07-03 23:22:15 GMT 24.018162 -110.677925 25,650 320 454 1088
2022-07-03 23:22:11 GMT 24.012714 -110.672852 25,600 320 453 1088
2022-07-03 23:22:00 GMT 23.994141 -110.655571 25,375 320 452 1152
2022-07-03 23:21:33 GMT 23.951685 -110.616051 24,875 320 448 1024
2022-07-03 23:21:25 GMT 23.938883 -110.604134 24,725 320 446 1088
2022-07-03 23:20:28 GMT 23.854017 -110.518578 23,675 315 436 1216
2022-07-03 23:20:20 GMT 23.842758 -110.506287 23,500 315 435 1216
2022-07-03 23:20:15 GMT 23.834839 -110.497688 23,375 315 434 1408

Making use of Plane Finder data

You are free to use the raw flight data, aircraft information and images provided in this report for your own purposes provided the data is correctly attributed to Plane Finder. We ask that you please credit Plane Finder and link to planefinder.net in close proximity to the content.

Optionally one of the following logos (no smaller then 150x24px) can be used and must link to planefinder.net

Embedding the Plane Finder map

You are welcome to embed the Plane Finder playback map on your website to offer visitors a more interactive experience. We suggest using the following HTML code:

<iframe src="//planefinder.net/data/report/AS142-N320AS-7700-squawk-2022-07-04/map" width="800" height="600" seamless="seamless"></iframe>

Where our data comes from

Plane Finder has a global network of data feeds and antenna radars that receive data broadcast directly from aircraft. The primary technologies used are ADS-B and MLAT. We also show feeds from the FAA and a FLARM glider feed.

Click here to find out more about the Plane Finder network.

How we collect our data